Provisional Data: West Creek near Weber City, PA


Please select a monitoring station.
Please select start date.
Please select start date.

Toggle Unit: C/F Toggle Unit: C/F
Sample Time Temperature (C) Temperature (F) Specific Conductivity (mS/cm) pH   Turbidity (NTU+) DO (mg/L)
10/17/2022 12:00:00 AM 9.28 48.704 0.09 6.97 155.01 7.62
10/17/2022 12:15:00 AM 9.24 48.632 0.09 6.96 154.94 7.74
10/17/2022 12:30:00 AM 9.19 48.542 0.09 6.96 154.96 7.76
10/17/2022 12:45:00 AM 9.15 48.47 0.09 6.96 154.81 7.83
10/17/2022 1:00:00 AM 9.11 48.398 0.09 6.96 154.81 7.89
10/17/2022 1:15:00 AM 9.07 48.326 0.09 6.97 154.76 7.94
10/17/2022 1:30:00 AM 9.03 48.254 0.09 6.97 154.74 7.96
10/17/2022 1:45:00 AM 8.99 48.182 0.09 6.97 154.81 7.96
10/17/2022 2:00:00 AM 8.95 48.11 0.09 6.97 154.94 7.95
10/17/2022 2:15:00 AM 8.92 48.056 0.09 6.97 154.98 7.97
10/17/2022 2:30:00 AM 8.88 47.984 0.09 6.97 154.99 8
10/17/2022 2:45:00 AM 8.84 47.912 0.09 6.97 154.97 8.09
10/17/2022 3:00:00 AM 8.8 47.84 0.09 6.97 155 8.05
10/17/2022 3:15:00 AM 8.76 47.768 0.09 6.97 154.96 8.08
10/17/2022 3:30:00 AM 8.72 47.696 0.09 6.98 154.93 8.07
10/17/2022 3:45:00 AM 8.68 47.624 0.09 6.98 154.92 8.16
10/17/2022 4:00:00 AM 8.64 47.552 0.09 6.97 154.89 8.22
10/17/2022 4:15:00 AM 8.61 47.498 0.09 6.97 154.79 8.29
10/17/2022 4:30:00 AM 8.58 47.444 0.09 6.97 154.78 8.3
10/17/2022 4:45:00 AM 8.55 47.39 0.09 6.98 154.92 8.37
10/17/2022 5:00:00 AM 8.52 47.336 0.09 6.98 154.77 8.44
10/17/2022 5:15:00 AM 8.5 47.3 0.09 6.98 154.78 8.41
10/17/2022 5:30:00 AM 8.48 47.264 0.09 6.98 154.67 8.47
10/17/2022 5:45:00 AM 8.45 47.21 0.09 6.98 154.63 8.44
10/17/2022 6:00:00 AM 8.43 47.174 0.09 6.99 154.55 8.48
10/17/2022 6:15:00 AM 8.4 47.12 0.09 6.99 154.53 8.57
10/17/2022 6:30:00 AM 8.37 47.066 0.09 6.99 154.58 8.45
10/17/2022 6:45:00 AM 8.35 47.03 0.09 6.99 154.64 8.69
10/17/2022 7:00:00 AM 8.33 46.994 0.09 6.99 154.67 8.67
10/17/2022 7:15:00 AM 8.31 46.958 0.09 6.99 154.74 8.82
10/17/2022 7:30:00 AM 8.29 46.922 0.09 6.99 154.92 8.88
10/17/2022 7:45:00 AM 8.27 46.886 0.09 6.99 155.1 8.93
10/17/2022 8:00:00 AM 8.25 46.85 0.09 6.99 154.92 9.01
10/17/2022 8:15:00 AM 8.24 46.832 0.09 7 154.95 9.07
10/17/2022 8:30:00 AM 8.24 46.832 0.09 7.01 155 9.07
10/17/2022 8:45:00 AM 8.24 46.832 0.09 7.01 155.01 9.04
10/17/2022 9:00:00 AM 8.24 46.832 0.09 7.03 154.92 9.01
10/17/2022 9:15:00 AM 8.25 46.85 0.09 7.04 154.81 8.97
10/17/2022 9:30:00 AM 8.26 46.868 0.09 7.04 155.32 8.88
10/17/2022 9:45:00 AM 8.27 46.886 0.09 7.05 154.94 8.93
10/17/2022 10:00:00 AM 8.3 46.94 0.09 7.06 155.07 9.06
10/17/2022 10:15:00 AM 8.35 47.03 0.09 7.07 155.13 9.11
10/17/2022 10:30:00 AM 8.4 47.12 0.09 7.08 154.73 9.15
10/17/2022 10:45:00 AM 8.43 47.174 0.09 7.09 154.7 9.28
10/17/2022 11:00:00 AM 8.45 47.21 0.089 7.1 154.81 9.34
10/17/2022 11:15:00 AM 8.46 47.228 0.089 7.1 154.88 9.33
10/17/2022 11:30:00 AM 8.47 47.246 0.089 7.1 154.75 9.27
10/17/2022 11:45:00 AM 8.49 47.282 0.089 7.1 154.83 9.21
10/17/2022 12:00:00 PM 8.54 47.372 0.089 7.11 155.14 9.19
10/17/2022 12:15:00 PM 8.65 47.57 0.089 7.12 155.09 9.21
10/17/2022 12:30:00 PM 8.82 47.876 0.089 7.14 155.04 9.28
10/17/2022 12:45:00 PM 8.94 48.092 0.088 7.17 154.77 9.47
10/17/2022 1:00:00 PM 8.96 48.128 0.088 7.18 154.85 9.55
10/17/2022 1:15:00 PM 9.02 48.236 0.088 7.2 154.82 9.59
10/17/2022 1:30:00 PM 9.15 48.47 0.088 7.21 154.95 9.6
10/17/2022 1:45:00 PM 9.24 48.632 0.088 7.19 155.01 9.45
10/17/2022 2:00:00 PM 9.27 48.686 0.089 7.17 154.93 9.19
10/17/2022 2:15:00 PM 9.29 48.722 0.089 7.17 155.16 9.13
10/17/2022 2:30:00 PM 9.35 48.83 0.089 7.18 155.18 9.04
10/17/2022 2:45:00 PM 9.46 49.028 0.088 7.19 155.08 9.11
10/17/2022 3:00:00 PM 9.55 49.19 0.088 7.2 155.32 9.16
10/17/2022 3:15:00 PM 9.6 49.28 0.088 7.2 155.13 9.15
10/17/2022 3:30:00 PM 9.59 49.262 0.088 7.2 155.33 9.07
10/17/2022 3:45:00 PM 9.56 49.208 0.088 7.2 155.45 8.92
10/17/2022 4:00:00 PM 9.54 49.172 0.088 7.2 155.5 8.93
10/17/2022 4:15:00 PM 9.57 49.226 0.087 7.2 155.57 9.04
10/17/2022 4:30:00 PM 9.6 49.28 0.087 7.2 155.23 9.09
10/17/2022 4:45:00 PM 9.62 49.316 0.087 7.19 155.25 9.09
10/17/2022 5:00:00 PM 9.62 49.316 0.087 7.19 155.35 9.11
10/17/2022 5:15:00 PM 9.6 49.28 0.087 7.19 155.59 9.14
10/17/2022 5:30:00 PM 9.58 49.244 0.087 7.18 155.4 9.09
10/17/2022 5:45:00 PM 9.54 49.172 0.087 7.17 155.62 9.02
10/17/2022 6:00:00 PM 9.5 49.1 0.087 7.16 155.69 8.96
10/17/2022 6:15:00 PM 9.46 49.028 0.087 7.15 156.76 9
10/17/2022 6:30:00 PM 9.41 48.938 0.087 7.14 155.64 9.02
10/17/2022 6:45:00 PM 9.37 48.866 0.087 7.13 155.52 9.01
10/17/2022 7:00:00 PM 9.32 48.776 0.087 7.11 155.6 8.94
10/17/2022 7:15:00 PM 9.28 48.704 0.087 7.09 155.61 8.92
10/17/2022 7:30:00 PM 9.23 48.614 0.087 7.06 155.55 8.88
10/17/2022 7:45:00 PM 9.17 48.506 0.087 7.05 155.48 8.85
10/17/2022 8:00:00 PM 9.12 48.416 0.087 7.03 155.41 8.82
10/17/2022 8:15:00 PM 9.05 48.29 0.087 7.03 155.77 8.79
10/17/2022 8:30:00 PM 8.99 48.182 0.087 7.01 155.84 8.7
10/17/2022 8:45:00 PM 8.92 48.056 0.087 7 156.21 8.67
10/17/2022 9:00:00 PM 8.85 47.93 0.087 7 156.35 8.62
10/17/2022 9:15:00 PM 8.78 47.804 0.087 6.98 156 8.59
10/17/2022 9:30:00 PM 8.71 47.678 0.088 6.97 155.9 8.53
10/17/2022 9:45:00 PM 8.64 47.552 0.088 6.97 155.82 8.48
10/17/2022 10:00:00 PM 8.57 47.426 0.088 6.96 155.79 8.48
10/17/2022 10:15:00 PM 8.5 47.3 0.088 6.94 155.68 8.48
10/17/2022 10:30:00 PM 8.43 47.174 0.088 6.94 155.67 8.61
10/17/2022 10:45:00 PM 8.36 47.048 0.088 6.93 155.77 8.65
10/17/2022 11:00:00 PM 8.28 46.904 0.088 6.92 155.94 8.66
10/17/2022 11:15:00 PM 8.2 46.76 0.088 6.92 155.96 8.69
10/17/2022 11:30:00 PM 8.11 46.598 0.088 6.92 157.12 8.73
10/17/2022 11:45:00 PM 8.03 46.454 0.088 6.92 155.83 8.81
10/18/2022 12:00:00 AM 7.95 46.31 0.088 6.91 155.74 8.83
10/18/2022 12:15:00 AM 7.87 46.166 0.088 6.91 155.62 8.95
10/18/2022 12:30:00 AM 7.8 46.04 0.088 6.9 155.66 9.03
10/18/2022 12:45:00 AM 7.74 45.932 0.088 6.91 155.96 9.05
10/18/2022 1:00:00 AM 7.69 45.842 0.088 6.91 157.3 9.06
10/18/2022 1:15:00 AM 7.63 45.734 0.088 6.91 156.91 9.03
10/18/2022 1:30:00 AM 7.58 45.644 0.088 6.92 156.89 9.09
10/18/2022 1:45:00 AM 7.53 45.554 0.088 6.92 156.86 9.13
10/18/2022 2:00:00 AM 7.49 45.482 0.088 6.92 156.87 9.18
10/18/2022 2:15:00 AM 7.45 45.41 0.088 6.93 157.98 9.23
10/18/2022 2:30:00 AM 7.42 45.356 0.088 6.93 157.01 9.23
10/18/2022 2:45:00 AM 7.39 45.302 0.088 6.93 156.97 9.26
10/18/2022 3:00:00 AM 7.35 45.23 0.088 6.94 156.98 9.27
10/18/2022 3:15:00 AM 7.32 45.176 0.088 6.95 156.86 9.29
10/18/2022 3:30:00 AM 7.3 45.14 0.088 6.94 156.85 9.3
10/18/2022 3:45:00 AM 7.26 45.068 0.088 6.95 156.96 9.3
10/18/2022 4:00:00 AM 7.23 45.014 0.088 6.96 156.87 9.36
10/18/2022 4:15:00 AM 7.2 44.96 0.088 6.96 156.89 9.41
10/18/2022 4:30:00 AM 7.16 44.888 0.088 6.96 157.08 9.42
10/18/2022 4:45:00 AM 7.13 44.834 0.088 6.96 156.79 9.44
10/18/2022 5:00:00 AM 7.11 44.798 0.088 6.96 156.79 9.46
10/18/2022 5:15:00 AM 7.09 44.762 0.088 6.96 156.86 9.47
10/18/2022 5:30:00 AM 7.07 44.726 0.088 6.96 156.72 9.5
10/18/2022 5:45:00 AM 7.04 44.672 0.088 6.96 156.88 9.5
10/18/2022 6:00:00 AM 7.01 44.618 0.088 6.96 156.89 9.51
10/18/2022 6:15:00 AM 6.99 44.582 0.088 6.97 156.9 9.53
10/18/2022 6:30:00 AM 6.96 44.528 0.088 6.97 156.84 9.55
10/18/2022 6:45:00 AM 6.93 44.474 0.088 6.97 156.83 9.56
10/18/2022 7:00:00 AM 6.9 44.42 0.088 6.97 156.95 9.54
10/18/2022 7:15:00 AM 6.88 44.384 0.088 6.98 156.91 9.55
10/18/2022 7:30:00 AM 6.87 44.366 0.088 6.98 156.89 9.59
10/18/2022 7:45:00 AM 6.86 44.348 0.088 6.98 156.91 9.64
10/18/2022 8:00:00 AM 6.85 44.33 0.088 6.98 156.84 9.69
10/18/2022 8:15:00 AM 6.85 44.33 0.088 6.98 156.8 9.74
10/18/2022 8:30:00 AM 6.85 44.33 0.088 6.99 156.73 9.79
10/18/2022 8:45:00 AM 6.85 44.33 0.088 6.99 156.59 9.82
10/18/2022 9:00:00 AM 6.85 44.33 0.087 7 156.55 9.84
10/18/2022 9:15:00 AM 6.85 44.33 0.087 7 156.53 9.88
10/18/2022 9:30:00 AM 6.86 44.348 0.087 7.01 156.53 9.92
10/18/2022 9:45:00 AM 6.87 44.366 0.087 7.02 156.57 9.96
10/18/2022 10:00:00 AM 6.87 44.366 0.087 7.03 156.57 9.99
10/18/2022 10:15:00 AM 6.87 44.366 0.087 7.03 156.59 10.02
10/18/2022 10:30:00 AM 6.88 44.384 0.087 7.03 156.56 10.07
10/18/2022 10:45:00 AM 6.9 44.42 0.087 7.04 156.6 10.11
10/18/2022 11:00:00 AM 6.92 44.456 0.087 7.05 156.53 10.18
10/18/2022 11:15:00 AM 6.96 44.528 0.087 7.06 156.47 10.23
10/18/2022 11:30:00 AM 6.99 44.582 0.087 7.07 156.46 10.27
10/18/2022 11:45:00 AM 7.03 44.654 0.087 7.07 156.42 10.3
10/18/2022 12:00:00 PM 7.07 44.726 0.087 7.07 156.43 10.32
10/18/2022 12:15:00 PM 7.11 44.798 0.087 7.07 156.39 10.3
10/18/2022 12:30:00 PM 7.15 44.87 0.087 7.09 156.37 10.3
10/18/2022 12:45:00 PM 7.19 44.942 0.087 7.1 156.35 10.31
10/18/2022 1:00:00 PM 7.23 45.014 0.086 7.1 156.48 10.34
10/18/2022 1:15:00 PM 7.26 45.068 0.086 7.1 156.49 10.34
10/18/2022 1:30:00 PM 7.27 45.086 0.086 7.1 156.53 10.36
10/18/2022 1:45:00 PM 7.3 45.14 0.086 7.1 156.59 10.36
10/18/2022 2:00:00 PM 7.34 45.212 0.086 7.11 156.66 10.36
10/18/2022 2:15:00 PM 7.42 45.356 0.086 7.12 156.71 10.35
10/18/2022 2:30:00 PM 7.49 45.482 0.086 7.12 156.8 10.36
10/18/2022 2:45:00 PM 7.52 45.536 0.086 7.12 156.77 10.36
10/18/2022 3:00:00 PM 7.53 45.554 0.086 7.13 156.68 10.35
10/18/2022 3:15:00 PM 7.55 45.59 0.086 7.13 156.6 10.33
10/18/2022 3:30:00 PM 7.58 45.644 0.085 7.13 156.56 10.34
10/18/2022 3:45:00 PM 7.62 45.716 0.085 7.12 156.48 10.35
10/18/2022 4:00:00 PM 7.65 45.77 0.085 7.12 156.44 10.34
10/18/2022 4:15:00 PM 7.67 45.806 0.085 7.12 158.2 10.31
10/18/2022 4:30:00 PM 7.67 45.806 0.085 7.12 157.74 10.27
10/18/2022 4:45:00 PM 7.69 45.842 0.085 7.12 157.76 10.27
10/18/2022 5:00:00 PM 7.7 45.86 0.085 7.12 157.7 10.28
10/18/2022 5:15:00 PM 7.69 45.842 0.085 7.11 157.74 10.26
10/18/2022 5:30:00 PM 7.67 45.806 0.085 7.11 157.87 10.19
10/18/2022 5:45:00 PM 7.65 45.77 0.085 7.1 157.71 10.14
10/18/2022 6:00:00 PM 7.64 45.752 0.085 7.07 157.74 10.11
10/18/2022 6:15:00 PM 7.63 45.734 0.085 7.06 158.99 10.08
10/18/2022 6:30:00 PM 7.61 45.698 0.085 7.05 158.85 10.06
10/18/2022 6:45:00 PM 7.59 45.662 0.085 7.05 158.82 10.01
10/18/2022 7:00:00 PM 7.56 45.608 0.085 7.05 159.34 9.95
10/18/2022 7:15:00 PM 7.54 45.572 0.085 7.03 159.32 9.88
10/18/2022 7:30:00 PM 7.52 45.536 0.085 7.02 159.4 9.83
10/18/2022 7:45:00 PM 7.5 45.5 0.085 7.02 159.39 9.78
10/18/2022 8:00:00 PM 7.48 45.464 0.085 7.01 160.61 9.76
10/18/2022 8:15:00 PM 7.45 45.41 0.085 7.02 161.06 9.76
10/18/2022 8:30:00 PM 7.43 45.374 0.085 7 162.33 9.74
10/18/2022 8:45:00 PM 7.41 45.338 0.085 7 162.08 9.73
10/18/2022 9:00:00 PM 7.39 45.302 0.086 7 161.96 9.73
10/18/2022 9:15:00 PM 7.37 45.266 0.086 6.99 161.91 9.72
10/18/2022 9:30:00 PM 7.35 45.23 0.086 7 161.8 9.73
10/18/2022 9:45:00 PM 7.32 45.176 0.086 7 161.8 9.74
10/18/2022 10:00:00 PM 7.29 45.122 0.086 7 161.64 9.74
10/18/2022 10:15:00 PM 7.27 45.086 0.086 6.99 161.62 9.74
10/18/2022 10:30:00 PM 7.25 45.05 0.086 6.99 161.57 9.74
10/18/2022 10:45:00 PM 7.23 45.014 0.086 6.99 161.5 9.74
10/18/2022 11:00:00 PM 7.2 44.96 0.086 6.99 161.51 9.74
10/18/2022 11:15:00 PM 7.17 44.906 0.086 6.99 161.62 9.74
10/18/2022 11:30:00 PM 7.15 44.87 0.086 6.99 161.52 9.71
10/18/2022 11:45:00 PM 7.13 44.834 0.086 6.99 161.44 9.72
10/19/2022 12:00:00 AM 7.12 44.816 0.086 6.99 161.51 9.74
10/19/2022 12:15:00 AM 7.1 44.78 0.086 6.99 161.5 9.77
10/19/2022 12:30:00 AM 7.08 44.744 0.086 6.99 161.41 9.76
10/19/2022 12:45:00 AM 7.06 44.708 0.086 6.99 161.4 9.74
10/19/2022 1:00:00 AM 7.04 44.672 0.086 6.99 161.44 9.73
10/19/2022 1:15:00 AM 7.03 44.654 0.086 6.99 161.4 9.76
10/19/2022 1:30:00 AM 7.01 44.618 0.086 6.99 161.58 9.75
10/19/2022 1:45:00 AM 6.99 44.582 0.086 6.98 161.59 9.79
10/19/2022 2:00:00 AM 6.98 44.564 0.086 6.98 161.56 9.78
10/19/2022 2:15:00 AM 6.96 44.528 0.086 6.98 161.61 9.81
10/19/2022 2:30:00 AM 6.94 44.492 0.086 6.99 161.63 9.81
10/19/2022 2:45:00 AM 6.93 44.474 0.086 6.98 161.62 9.83
10/19/2022 3:00:00 AM 6.91 44.438 0.086 6.98 161.63 9.82
10/19/2022 3:15:00 AM 6.89 44.402 0.086 6.97 161.83 9.83
10/19/2022 3:30:00 AM 6.87 44.366 0.086 6.98 161.67 9.83
10/19/2022 3:45:00 AM 6.86 44.348 0.086 6.97 161.41 9.85
10/19/2022 4:00:00 AM 6.84 44.312 0.086 6.97 161.34 9.86
10/19/2022 4:15:00 AM 6.82 44.276 0.087 6.97 161.31 9.85
10/19/2022 4:30:00 AM 6.8 44.24 0.087 6.98 162.64 9.84
10/19/2022 4:45:00 AM 6.78 44.204 0.087 6.98 161.83 9.84
10/19/2022 5:00:00 AM 6.76 44.168 0.087 6.97 160.95 9.84
10/19/2022 5:15:00 AM 6.74 44.132 0.087 6.97 161.07 9.85
10/19/2022 5:30:00 AM 6.72 44.096 0.087 6.98 161.06 9.87
10/19/2022 5:45:00 AM 6.7 44.06 0.087 6.97 161.47 9.89
10/19/2022 6:00:00 AM 6.68 44.024 0.087 6.97 161.4 9.89
10/19/2022 6:15:00 AM 6.67 44.006 0.087 6.97 161.74 9.9
10/19/2022 6:30:00 AM 6.65 43.97 0.087 6.97 162.25 9.92
10/19/2022 6:45:00 AM 6.63 43.934 0.087 6.98 162.11 9.95
10/19/2022 7:00:00 AM 6.61 43.898 0.087 6.97 161.97 9.96
10/19/2022 7:15:00 AM 6.59 43.862 0.087 6.97 161.8 9.97
10/19/2022 7:30:00 AM 6.57 43.826 0.087 6.98 161.75 9.98
10/19/2022 7:45:00 AM 6.55 43.79 0.087 6.97 161.89 9.98
10/19/2022 8:00:00 AM 6.53 43.754 0.087 6.98 162.15 10
10/19/2022 8:15:00 AM 6.52 43.736 0.087 6.98 162.51 10.01
10/19/2022 8:30:00 AM 6.5 43.7 0.087 6.98 163.75 10.03
10/19/2022 8:45:00 AM 6.48 43.664 0.087 6.99 163.82 10.06
10/19/2022 9:00:00 AM 6.46 43.628 0.087 6.98 164 10.1
10/19/2022 9:15:00 AM 6.45 43.61 0.087 6.99 163.96 10.14
10/19/2022 9:30:00 AM 6.45 43.61 0.087 7.01 163.56 10.19
10/19/2022 9:45:00 AM 6.46 43.628 0.086 7.02 164.3 10.24
10/19/2022 10:00:00 AM 6.48 43.664 0.086 7.01 164.12 10.29
10/19/2022 10:15:00 AM 6.5 43.7 0.086 7.02 164.93 10.37
10/19/2022 10:30:00 AM 6.54 43.772 0.086 7.04 165.06 10.43
10/19/2022 10:45:00 AM 6.58 43.844 0.086 7.05 164.87 10.49
10/19/2022 11:00:00 AM 6.62 43.916 0.086 7.06 164.72 10.52
10/19/2022 11:15:00 AM 6.66 43.988 0.086 7.07 165.29 10.54
10/19/2022 11:30:00 AM 6.7 44.06 0.086 7.08 165.25 10.57
10/19/2022 11:45:00 AM 6.74 44.132 0.085 7.09 165.24 10.64
10/19/2022 12:00:00 PM 6.77 44.186 0.085 7.09 166.03 10.7
10/19/2022 12:15:00 PM 6.8 44.24 0.085 7.09 165.35 10.73
10/19/2022 12:30:00 PM 6.84 44.312 0.085 7.1 165.33 10.72
10/19/2022 12:45:00 PM 6.88 44.384 0.085 7.11 165.59 10.7
10/19/2022 1:00:00 PM 6.93 44.474 0.085 7.11 166.08 10.69
10/19/2022 1:15:00 PM 6.98 44.564 0.085 7.12 164.6 10.67
10/19/2022 1:30:00 PM 7.04 44.672 0.085 7.12 167.01 10.67
10/19/2022 1:45:00 PM 7.11 44.798 0.085 7.12 167.41 10.67
10/19/2022 2:00:00 PM 7.2 44.96 0.085 7.13 167.48 10.69
10/19/2022 2:15:00 PM 7.29 45.122 0.085 7.14 167.62 10.72
10/19/2022 2:30:00 PM 7.36 45.248 0.085 7.14 166.6 10.71
10/19/2022 2:45:00 PM 7.4 45.32 0.085 7.14 166.48 10.71
10/19/2022 3:00:00 PM 7.43 45.374 0.085 7.14 166.42 10.7
10/19/2022 3:15:00 PM 7.45 45.41 0.084 7.13 166.68 10.68
10/19/2022 3:30:00 PM 7.49 45.482 0.084 7.1 166.68 10.66
10/19/2022 3:45:00 PM 7.54 45.572 0.084 7.09 166.31 10.69
10/19/2022 4:00:00 PM 7.59 45.662 0.084 7.1 166.25 10.68
10/19/2022 4:15:00 PM 7.62 45.716 0.084 7.12 166.49 10.68
10/19/2022 4:30:00 PM 7.66 45.788 0.084 7.1 166.17 10.67
10/19/2022 4:45:00 PM 7.7 45.86 0.084 7.1 166.48 10.64
10/19/2022 5:00:00 PM 7.73 45.914 0.084 7.1 165.61 10.62
10/19/2022 5:15:00 PM 7.73 45.914 0.084 7.1 166.06 10.58
10/19/2022 5:30:00 PM 7.72 45.896 0.084 7.09 166.47 10.53
10/19/2022 5:45:00 PM 7.7 45.86 0.084 7.08 166.91 10.47
10/19/2022 6:00:00 PM 7.68 45.824 0.084 7.08 166.84 10.42
10/19/2022 6:15:00 PM 7.67 45.806 0.084 7.07 166.58 10.34
10/19/2022 6:30:00 PM 7.64 45.752 0.084 7.09 166.56 10.34
10/19/2022 6:45:00 PM 7.61 45.698 0.084 7.07 167.23 10.28
10/19/2022 7:00:00 PM 7.59 45.662 0.084 7.08 168.65 10.2
10/19/2022 7:15:00 PM 7.57 45.626 0.084 7.07 168.2 10.11
10/19/2022 7:30:00 PM 7.56 45.608 0.084 7.07 168.85 10.06
10/19/2022 7:45:00 PM 7.54 45.572 0.084 7.06 168.48 10.05
10/19/2022 8:00:00 PM 7.52 45.536 0.084 7.06 168.36 10.05
10/19/2022 8:15:00 PM 7.51 45.518 0.085 7.05 167.77 9.99
10/19/2022 8:30:00 PM 7.48 45.464 0.085 7.05 166.91 9.93
10/19/2022 8:45:00 PM 7.46 45.428 0.085 7.04 167.37 9.91
10/19/2022 9:00:00 PM 7.44 45.392 0.085 7.04 166.8 9.86
10/19/2022 9:15:00 PM 7.42 45.356 0.085 7.03 166.62 9.83
10/19/2022 9:30:00 PM 7.41 45.338 0.085 7.03 167.33 9.85
10/19/2022 9:45:00 PM 7.4 45.32 0.085 7.03 167.98 9.86
10/19/2022 10:00:00 PM 7.38 45.284 0.085 7.02 167.92 9.87
10/19/2022 10:15:00 PM 7.37 45.266 0.085 7.02 167.16 9.89
10/19/2022 10:30:00 PM 7.35 45.23 0.085 7.02 167.44 9.94
10/19/2022 10:45:00 PM 7.34 45.212 0.085 7.01 167.46 9.94
10/19/2022 11:00:00 PM 7.32 45.176 0.085 7.01 167.01 9.91
10/19/2022 11:15:00 PM 7.31 45.158 0.085 7.01 167.1 9.85
10/19/2022 11:30:00 PM 7.3 45.14 0.085 7.01 167.41 9.86
10/19/2022 11:45:00 PM 7.28 45.104 0.085 6.99 167.36 9.82
10/20/2022 12:00:00 AM 7.27 45.086 0.085 7 167.55 9.78
10/20/2022 12:15:00 AM 7.25 45.05 0.085 7 166.81 9.77
10/20/2022 12:30:00 AM 7.24 45.032 0.085 7 166.81 9.76
10/20/2022 12:45:00 AM 7.22 44.996 0.085 6.99 167.7 9.72
10/20/2022 1:00:00 AM 7.2 44.96 0.085 6.99 166.89 9.74
10/20/2022 1:15:00 AM 7.17 44.906 0.085 7 167.72 9.82
10/20/2022 1:30:00 AM 7.15 44.87 0.085 7 167.93 9.92
10/20/2022 1:45:00 AM 7.12 44.816 0.085 7 167.91 9.93
10/20/2022 2:00:00 AM 7.08 44.744 0.086 6.99 167.98 9.97
10/20/2022 2:15:00 AM 7.02 44.636 0.085 6.99 168.13 9.95
10/20/2022 2:30:00 AM 6.98 44.564 0.086 6.99 168.06 10
10/20/2022 2:45:00 AM 6.92 44.456 0.086 6.99 168.1 10
10/20/2022 3:00:00 AM 6.87 44.366 0.086 6.98 168.2 9.99
10/20/2022 3:15:00 AM 6.82 44.276 0.086 6.98 168.58 10
10/20/2022 3:30:00 AM 6.76 44.168 0.086 6.96 167.48 9.96
10/20/2022 3:45:00 AM 6.7 44.06 0.086 6.96 167.55 9.97
10/20/2022 4:00:00 AM 6.64 43.952 0.086 6.96 167.51 10
10/20/2022 4:15:00 AM 6.58 43.844 0.086 6.95 168.67 10.06
10/20/2022 4:30:00 AM 6.52 43.736 0.086 6.95 170.11 10.13
10/20/2022 4:45:00 AM 6.46 43.628 0.086 6.95 170 10.2
10/20/2022 5:00:00 AM 6.4 43.52 0.086 6.94 169.01 10.25
10/20/2022 5:15:00 AM 6.34 43.412 0.086 6.94 168.93 10.3
10/20/2022 5:30:00 AM 6.28 43.304 0.086 6.94 168.86 10.35
10/20/2022 5:45:00 AM 6.22 43.196 0.086 6.94 168.88 10.38
10/20/2022 6:00:00 AM 6.16 43.088 0.086 6.94 168.77 10.4
10/20/2022 6:15:00 AM 6.09 42.962 0.086 6.94 169.34 10.44
10/20/2022 6:30:00 AM 6.03 42.854 0.086 6.94 168.87 10.48
10/20/2022 6:45:00 AM 5.98 42.764 0.086 6.94 168.77 10.51
10/20/2022 7:00:00 AM 5.92 42.656 0.086 6.94 167.66 10.55
10/20/2022 7:15:00 AM 5.86 42.548 0.086 6.94 168.95 10.55
10/20/2022 7:30:00 AM 5.8 42.44 0.086 6.95 168.4 10.57
10/20/2022 7:45:00 AM 5.74 42.332 0.086 6.95 170.29 10.61
10/20/2022 8:00:00 AM 5.69 42.242 0.086 6.95 170.14 10.64
10/20/2022 8:15:00 AM 5.64 42.152 0.086 6.95 170.44 10.68
10/20/2022 8:30:00 AM 5.59 42.062 0.086 6.96 170.24 10.73
10/20/2022 8:45:00 AM 5.55 41.99 0.086 6.96 170.13 10.79
10/20/2022 9:00:00 AM 5.52 41.936 0.086 6.97 170.61 10.85
10/20/2022 9:15:00 AM 5.52 41.936 0.086 6.98 170.32 10.93
10/20/2022 9:30:00 AM 5.52 41.936 0.086 6.99 170.34 11.01
10/20/2022 9:45:00 AM 5.53 41.954 0.086 7 170.63 11.05
10/20/2022 10:00:00 AM 5.56 42.008 0.086 7 170.52 11.04
10/20/2022 10:15:00 AM 5.6 42.08 0.085 7.01 170.56 11.07
10/20/2022 10:30:00 AM 5.63 42.134 0.085 7.02 170.31 11.13
10/20/2022 10:45:00 AM 5.66 42.188 0.085 7.04 170.25 11.2
10/20/2022 11:00:00 AM 5.68 42.224 0.085 7.06 170.86 11.25
10/20/2022 11:15:00 AM 5.71 42.278 0.085 7.06 170.54 11.31
10/20/2022 11:30:00 AM 5.76 42.368 0.085 7.07 172.2 11.37
10/20/2022 11:45:00 AM 5.84 42.512 0.085 7.07 172.69 11.4
10/20/2022 12:00:00 PM 5.93 42.674 0.085 7.07 172.77 11.39
10/20/2022 12:15:00 PM 6.02 42.836 0.085 7.08 172.97 11.39
10/20/2022 12:30:00 PM 6.09 42.962 0.085 7.08 173.04 11.41
10/20/2022 12:45:00 PM 6.16 43.088 0.084 7.08 173.1 11.37
10/20/2022 1:00:00 PM 6.24 43.232 0.084 7.08 173.01 11.35
10/20/2022 1:15:00 PM 6.34 43.412 0.084 7.09 172.86 11.33
10/20/2022 1:30:00 PM 6.43 43.574 0.084 7.09 172.81 11.29
10/20/2022 1:45:00 PM 6.53 43.754 0.084 7.1 172.85 11.29
10/20/2022 2:00:00 PM 6.65 43.97 0.084 7.11 173 11.26
10/20/2022 2:15:00 PM 6.81 44.258 0.084 7.13 173.17 11.2
10/20/2022 2:30:00 PM 6.94 44.492 0.084 7.15 172.97 11.17
10/20/2022 2:45:00 PM 7.02 44.636 0.084 7.15 172.9 11.13
10/20/2022 3:00:00 PM 7.1 44.78 0.084 7.14 172.85 11.1
10/20/2022 3:15:00 PM 7.18 44.924 0.084 7.14 173.13 11.1
10/20/2022 3:30:00 PM 7.22 44.996 0.084 7.14 173.14 11.04
10/20/2022 3:45:00 PM 7.25 45.05 0.084 7.13 173.09 10.98
10/20/2022 4:00:00 PM 7.3 45.14 0.083 7.13 173.38 10.94
10/20/2022 4:15:00 PM 7.38 45.284 0.083 7.12 174.15 10.93
10/20/2022 4:30:00 PM 7.45 45.41 0.083 7.12 174.12 10.89
10/20/2022 4:45:00 PM 7.5 45.5 0.083 7.12 174.42 10.86
10/20/2022 5:00:00 PM 7.52 45.536 0.083 7.12 174.12 10.83
10/20/2022 5:15:00 PM 7.52 45.536 0.083 7.11 174.35 10.8
10/20/2022 5:30:00 PM 7.51 45.518 0.083 7.09 174.14 10.76
10/20/2022 5:45:00 PM 7.5 45.5 0.083 7.08 174.16 10.71
10/20/2022 6:00:00 PM 7.5 45.5 0.083 7.07 174.53 10.62
10/20/2022 6:15:00 PM 7.5 45.5 0.084 7.06 174.25 10.55
10/20/2022 6:30:00 PM 7.5 45.5 0.084 7.08 173.24 10.46
10/20/2022 6:45:00 PM 7.51 45.518 0.084 7.08 173.39 10.39
10/20/2022 7:00:00 PM 7.51 45.518 0.084 7.09 172.33 10.32
10/20/2022 7:15:00 PM 7.5 45.5 0.084 7.08 172.2 10.24
10/20/2022 7:30:00 PM 7.49 45.482 0.084 7.07 172.14 10.19
10/20/2022 7:45:00 PM 7.47 45.446 0.084 7.06 174.92 10.14
10/20/2022 8:00:00 PM 7.45 45.41 0.084 7.06 173.76 10.1
10/20/2022 8:15:00 PM 7.43 45.374 0.084 7.05 173.33 10.08
10/20/2022 8:30:00 PM 7.42 45.356 0.084 7.04 175.32 10.05
10/20/2022 8:45:00 PM 7.4 45.32 0.084 7.04 175.4 10.09
10/20/2022 9:00:00 PM 7.39 45.302 0.084 7.04 175.62 10.21
10/20/2022 9:15:00 PM 7.37 45.266 0.084 7.03 175.33 10.27
10/20/2022 9:30:00 PM 7.34 45.212 0.085 7.01 175.38 10.32
10/20/2022 9:45:00 PM 7.3 45.14 0.085 7 175.56 10.32
10/20/2022 10:00:00 PM 7.27 45.086 0.085 7 175.4 10.32
10/20/2022 10:15:00 PM 7.24 45.032 0.085 7 175.31 10.33
10/20/2022 10:30:00 PM 7.22 44.996 0.085 7 175.36 10.34
10/20/2022 10:45:00 PM 7.2 44.96 0.085 7 175.03 10.33
10/20/2022 11:00:00 PM 7.17 44.906 0.085 6.99 174.63 10.33
10/20/2022 11:15:00 PM 7.15 44.87 0.085 6.99 174.37 10.33
10/20/2022 11:30:00 PM 7.12 44.816 0.085 6.99 174.87 10.33
10/20/2022 11:45:00 PM 7.08 44.744 0.085 6.99 175.29 10.33
10/21/2022 12:00:00 AM 7.02 44.636 0.085 6.98 175.83 10.35
10/21/2022 12:15:00 AM 6.95 44.51 0.085 6.98 175.87 10.34
10/21/2022 12:30:00 AM 6.88 44.384 0.085 6.97 176.41 10.35
10/21/2022 12:45:00 AM 6.81 44.258 0.085 6.97 176.04 10.37
10/21/2022 1:00:00 AM 6.74 44.132 0.085 6.96 176.14 10.38
10/21/2022 1:15:00 AM 6.67 44.006 0.085 6.96 176.27 10.4
10/21/2022 1:30:00 AM 6.6 43.88 0.085 6.96 176.75 10.42
10/21/2022 1:45:00 AM 6.52 43.736 0.085 6.95 176.59 10.47
10/21/2022 2:00:00 AM 6.45 43.61 0.085 6.95 176.27 10.5
10/21/2022 2:15:00 AM 6.38 43.484 0.086 6.94 176.13 10.53
10/21/2022 2:30:00 AM 6.31 43.358 0.086 6.94 176.31 10.57
10/21/2022 2:45:00 AM 6.24 43.232 0.086 6.94 176.19 10.6
10/21/2022 3:00:00 AM 6.17 43.106 0.086 6.94 176.14 10.63
10/21/2022 3:15:00 AM 6.09 42.962 0.086 6.93 176.01 10.64
10/21/2022 3:30:00 AM 6.02 42.836 0.086 6.93 175.9 10.67
10/21/2022 3:45:00 AM 5.95 42.71 0.086 6.92 175.65 10.69
10/21/2022 4:00:00 AM 5.89 42.602 0.086 6.92 176 10.7
10/21/2022 4:15:00 AM 5.81 42.458 0.086 6.92 175.83 10.72
10/21/2022 4:30:00 AM 5.74 42.332 0.086 6.92 175.92 10.75
10/21/2022 4:45:00 AM 5.67 42.206 0.086 6.92 175.54 10.79
10/21/2022 5:00:00 AM 5.61 42.098 0.086 6.92 175.76 10.81
10/21/2022 5:15:00 AM 5.54 41.972 0.086 6.92 175.77 10.83
10/21/2022 5:30:00 AM 5.47 41.846 0.086 6.93 175.68 10.86
10/21/2022 5:45:00 AM 5.41 41.738 0.086 6.93 175.61 10.9
10/21/2022 6:00:00 AM 5.34 41.612 0.086 6.93 176.12 10.92
10/21/2022 6:15:00 AM 5.28 41.504 0.086 6.94 175.31 10.96
10/21/2022 6:30:00 AM 5.21 41.378 0.087 6.94 175.39 11
10/21/2022 6:45:00 AM 5.15 41.27 0.087 6.94 175.93 11.04
10/21/2022 7:00:00 AM 5.09 41.162 0.087 6.94 176.55 11.06
10/21/2022 7:15:00 AM 5.03 41.054 0.087 6.94 175.98 11.11
10/21/2022 7:30:00 AM 4.97 40.946 0.087 6.95 176.16 11.15
10/21/2022 7:45:00 AM 4.91 40.838 0.087 6.95 176.13 11.19
10/21/2022 8:00:00 AM 4.86 40.748 0.087 6.95 176.2 11.22
10/21/2022 8:15:00 AM 4.8 40.64 0.087 6.95 176.11 11.26
10/21/2022 8:30:00 AM 4.76 40.568 0.087 6.96 176.78 11.3
10/21/2022 8:45:00 AM 4.72 40.496 0.087 6.96 176.55 11.36
10/21/2022 9:00:00 AM 4.69 40.442 0.087 6.97 176.19 11.45
10/21/2022 9:15:00 AM 4.67 40.406 0.087 6.99 176.42 11.54
10/21/2022 9:30:00 AM 4.67 40.406 0.087 7 175.74 11.61
10/21/2022 9:45:00 AM 4.67 40.406 0.087 7.01 175.77 11.67
10/21/2022 10:00:00 AM 4.69 40.442 0.087 7.02 175.59 11.71
10/21/2022 10:15:00 AM 4.71 40.478 0.086 7.03 175.47 11.74
10/21/2022 10:30:00 AM 4.75 40.55 0.086 7.04 175.53 11.77
10/21/2022 10:45:00 AM 4.8 40.64 0.087 7.05 175.12 11.79
10/21/2022 11:00:00 AM 4.86 40.748 0.087 7.07 175.98 11.79
10/21/2022 11:15:00 AM 4.92 40.856 0.086 7.08 176.13 11.82
10/21/2022 11:30:00 AM 5.01 41.018 0.086 7.09 176.22 11.85
10/21/2022 11:45:00 AM 5.1 41.18 0.086 7.1 175.21 11.87
10/21/2022 12:00:00 PM 5.2 41.36 0.086 7.11 175.05 11.9
10/21/2022 12:15:00 PM 5.3 41.54 0.086 7.12 175.47 11.9
10/21/2022 12:30:00 PM 5.4 41.72 0.086 7.12 175.8 11.89
10/21/2022 12:45:00 PM 5.51 41.918 0.086 7.13 175.98 11.87
10/21/2022 1:00:00 PM 5.63 42.134 0.086 7.14 175.66 11.84
10/21/2022 1:15:00 PM 5.74 42.332 0.086 7.14 175.64 11.81
10/21/2022 1:30:00 PM 5.86 42.548 0.086 7.14 175.6 11.77
10/21/2022 1:45:00 PM 5.99 42.782 0.086 7.15 174.73 11.71
10/21/2022 2:00:00 PM 6.13 43.034 0.086 7.15 174.93 11.7
10/21/2022 2:15:00 PM 6.26 43.268 0.086 7.16 175.11 11.66
10/21/2022 2:30:00 PM 6.4 43.52 0.086 7.16 173.76 11.6
10/21/2022 2:45:00 PM 6.54 43.772 0.086 7.16 174.71 11.54
10/21/2022 3:00:00 PM 6.66 43.988 0.086 7.15 174.73 11.5
10/21/2022 3:15:00 PM 6.77 44.186 0.086 7.16 174.34 11.47
10/21/2022 3:30:00 PM 6.86 44.348 0.086 7.16 174.4 11.42
10/21/2022 3:45:00 PM 6.95 44.51 0.086 7.15 174.39 11.36
10/21/2022 4:00:00 PM 7.04 44.672 0.086 7.16 173.83 11.32
10/21/2022 4:15:00 PM 7.12 44.816 0.086 7.16 174.11 11.33
10/21/2022 4:30:00 PM 7.2 44.96 0.086 7.15 175.04 11.29
10/21/2022 4:45:00 PM 7.26 45.068 0.086 7.15 174.22 11.24
10/21/2022 5:00:00 PM 7.31 45.158 0.086 7.15 174.95 11.2
10/21/2022 5:15:00 PM 7.35 45.23 0.086 7.15 174.81 11.17
10/21/2022 5:30:00 PM 7.36 45.248 0.086 7.15 174.8 11.12
10/21/2022 5:45:00 PM 7.37 45.266 0.086 7.14 174.75 11.06
10/21/2022 6:00:00 PM 7.36 45.248 0.086 7.12 175.19 10.97
10/21/2022 6:15:00 PM 7.35 45.23 0.086 7.12 174.71 10.92
10/21/2022 6:30:00 PM 7.34 45.212 0.086 7.1 174.65 10.86
10/21/2022 6:45:00 PM 7.33 45.194 0.087 7.09 174.65 10.79
10/21/2022 7:00:00 PM 7.31 45.158 0.087 7.08 174.6 10.72
10/21/2022 7:15:00 PM 7.3 45.14 0.087 7.07 174.57 10.66
10/21/2022 7:30:00 PM 7.3 45.14 0.087 7.06 174.61 10.57
10/21/2022 7:45:00 PM 7.29 45.122 0.087 7.05 174.62 10.52
10/21/2022 8:00:00 PM 7.28 45.104 0.087 7.04 174.56 10.47
10/21/2022 8:15:00 PM 7.28 45.104 0.087 7.04 174.58 10.41
10/21/2022 8:30:00 PM 7.28 45.104 0.087 7.02 174.56 10.37
10/21/2022 8:45:00 PM 7.27 45.086 0.087 7.02 174.52 10.31
10/21/2022 9:00:00 PM 7.26 45.068 0.087 7.01 174.44 10.26
10/21/2022 9:15:00 PM 7.25 45.05 0.087 7.01 174.37 10.21
10/21/2022 9:30:00 PM 7.23 45.014 0.087 7 174.38 10.2
10/21/2022 9:45:00 PM 7.2 44.96 0.087 6.99 174.53 10.19
10/21/2022 10:00:00 PM 7.17 44.906 0.087 6.99 174.54 10.19
10/21/2022 10:15:00 PM 7.14 44.852 0.087 6.99 174.44 10.17
10/21/2022 10:30:00 PM 7.1 44.78 0.088 6.98 174.82 10.16
10/21/2022 10:45:00 PM 7.06 44.708 0.088 6.98 174.38 10.13
10/21/2022 11:00:00 PM 7.01 44.618 0.088 6.98 174.16 10.11
10/21/2022 11:15:00 PM 6.97 44.546 0.088 6.97 174.12 10.12
10/21/2022 11:30:00 PM 6.92 44.456 0.088 6.97 174.47 10.11
10/21/2022 11:45:00 PM 6.88 44.384 0.088 6.97 174.47 10.14
10/22/2022 12:00:00 AM 6.83 44.294 0.088 6.97 174.85 10.16
10/22/2022 12:15:00 AM 6.78 44.204 0.088 6.96 173.88 10.14
10/22/2022 12:30:00 AM 6.73 44.114 0.088 6.95 174.26 10.24
10/22/2022 12:45:00 AM 6.68 44.024 0.088 6.95 174.9 10.27
10/22/2022 1:00:00 AM 6.63 43.934 0.088 6.95 174.3 10.29
10/22/2022 1:15:00 AM 6.57 43.826 0.088 6.94 174.2 10.32
10/22/2022 1:30:00 AM 6.52 43.736 0.088 6.94 174.1 10.32
10/22/2022 1:45:00 AM 6.46 43.628 0.088 6.94 174.16 10.35
10/22/2022 2:00:00 AM 6.4 43.52 0.088 6.93 174.42 10.38
10/22/2022 2:15:00 AM 6.34 43.412 0.088 6.93 174.2 10.4
10/22/2022 2:30:00 AM 6.28 43.304 0.088 6.92 173.55 10.42
10/22/2022 2:45:00 AM 6.21 43.178 0.088 6.92 173.32 10.44
10/22/2022 3:00:00 AM 6.15 43.07 0.088 6.92 173.71 10.47
10/22/2022 3:15:00 AM 6.08 42.944 0.088 6.92 174.54 10.52
10/22/2022 3:30:00 AM 6.02 42.836 0.089 6.92 173.59 10.55
10/22/2022 3:45:00 AM 5.96 42.728 0.089 6.92 173.45 10.58
10/22/2022 4:00:00 AM 5.89 42.602 0.089 6.92 172.56 10.62
10/22/2022 4:15:00 AM 5.83 42.494 0.089 6.91 173.36 10.65
10/22/2022 4:30:00 AM 5.77 42.386 0.089 6.91 173.8 10.65
10/22/2022 4:45:00 AM 5.72 42.296 0.089 6.91 173.05 10.67
10/22/2022 5:00:00 AM 5.66 42.188 0.089 6.91 173.86 10.67
10/22/2022 5:15:00 AM 5.6 42.08 0.089 6.9 173.5 10.71
10/22/2022 5:30:00 AM 5.54 41.972 0.089 6.9 173.52 10.75
10/22/2022 5:45:00 AM 5.49 41.882 0.089 6.9 173.25 10.77
10/22/2022 6:00:00 AM 5.43 41.774 0.089 6.9 173.26 10.8
10/22/2022 6:15:00 AM 5.38 41.684 0.089 6.9 172.91 10.83
10/22/2022 6:30:00 AM 5.33 41.594 0.089 6.9 172.78 10.84
10/22/2022 6:45:00 AM 5.27 41.486 0.089 6.9 172.17 10.86
10/22/2022 7:00:00 AM 5.22 41.396 0.089 6.9 172.33 10.87
10/22/2022 7:15:00 AM 5.17 41.306 0.089 6.9 172.17 10.9
10/22/2022 7:30:00 AM 5.12 41.216 0.089 6.9 173.75 10.9
10/22/2022 7:45:00 AM 5.08 41.144 0.089 6.9 173.7 10.91
10/22/2022 8:00:00 AM 5.03 41.054 0.089 6.9 173.65 10.93
10/22/2022 8:15:00 AM 4.98 40.964 0.089 6.91 174.1 11
10/22/2022 8:30:00 AM 4.94 40.892 0.089 6.92 174.4 11.08
10/22/2022 8:45:00 AM 4.91 40.838 0.089 6.93 174.29 11.16
10/22/2022 9:00:00 AM 4.88 40.784 0.089 6.94 174.01 11.25
10/22/2022 9:15:00 AM 4.88 40.784 0.089 6.95 174.73 11.33
10/22/2022 9:30:00 AM 4.89 40.802 0.089 6.96 174.11 11.37
10/22/2022 9:45:00 AM 4.91 40.838 0.089 6.96 174.06 11.43
10/22/2022 10:00:00 AM 4.94 40.892 0.089 6.98 174.07 11.48
10/22/2022 10:15:00 AM 4.98 40.964 0.088 7 174.02 11.54
10/22/2022 10:30:00 AM 5.02 41.036 0.088 7.01 174.21 11.59
10/22/2022 10:45:00 AM 5.09 41.162 0.088 7.03 173.14 11.62
10/22/2022 11:00:00 AM 5.16 41.288 0.088 7.04 173.95 11.66
10/22/2022 11:15:00 AM 5.25 41.45 0.088 7.06 173.91 11.69
10/22/2022 11:30:00 AM 5.35 41.63 0.088 7.08 173.87 11.71
10/22/2022 11:45:00 AM 5.46 41.828 0.088 7.09 173.77 11.72
10/22/2022 12:00:00 PM 5.57 42.026 0.088 7.1 175.25 11.73
10/22/2022 12:15:00 PM 5.69 42.242 0.088 7.1 174.25 11.74
10/22/2022 12:30:00 PM 5.81 42.458 0.088 7.1 174.02 11.75
10/22/2022 12:45:00 PM 5.93 42.674 0.088 7.1 175.4 11.74
10/22/2022 1:00:00 PM 6.05 42.89 0.088 7.09 173.65 11.73
10/22/2022 1:15:00 PM 6.17 43.106 0.088 7.09 173.05 11.73
10/22/2022 1:30:00 PM 6.3 43.34 0.088 7.09 173.91 11.7
10/22/2022 1:45:00 PM 6.45 43.61 0.088 7.09 173.73 11.66
10/22/2022 2:00:00 PM 6.61 43.898 0.088 7.09 173.79 11.62
10/22/2022 2:15:00 PM 6.78 44.204 0.088 7.1 173.75 11.58
10/22/2022 2:30:00 PM 6.95 44.51 0.088 7.12 173.74 11.54
10/22/2022 2:45:00 PM 7.1 44.78 0.088 7.14 173.5 11.47
10/22/2022 3:00:00 PM 7.23 45.014 0.088 7.13 173.65 11.39
10/22/2022 3:15:00 PM 7.34 45.212 0.088 7.14 172.84 11.34
10/22/2022 3:30:00 PM 7.44 45.392 0.088 7.14 175.58 11.27
10/22/2022 3:45:00 PM 7.53 45.554 0.088 7.13 175.23 11.22
10/22/2022 4:00:00 PM 7.63 45.734 0.087 7.13 175.54 11.18
10/22/2022 4:15:00 PM 7.72 45.896 0.088 7.13 175.13 11.13
10/22/2022 4:30:00 PM 7.81 46.058 0.087 7.15 175.14 11.08
10/22/2022 4:45:00 PM 7.88 46.184 0.087 7.15 175.37 10.99
10/22/2022 5:00:00 PM 7.93 46.274 0.087 7.14 175.56 10.92
10/22/2022 5:15:00 PM 7.97 46.346 0.087 7.12 175.58 10.86
10/22/2022 5:30:00 PM 8 46.4 0.088 7.1 175.36 10.86
10/22/2022 5:45:00 PM 8.01 46.418 0.088 7.1 175.57 10.81
10/22/2022 6:00:00 PM 8.01 46.418 0.088 7.1 175.3 10.73
10/22/2022 6:15:00 PM 8.01 46.418 0.088 7.08 174.97 10.64
10/22/2022 6:30:00 PM 8 46.4 0.088 7.08 175.56 10.56
10/22/2022 6:45:00 PM 8 46.4 0.088 7.08 175.07 10.49
10/22/2022 7:00:00 PM 8 46.4 0.088 7.07 175 10.42
10/22/2022 7:15:00 PM 7.99 46.382 0.088 7.06 175.1 10.34
10/22/2022 7:30:00 PM 7.99 46.382 0.088 7.05 175.08 10.27
10/22/2022 7:45:00 PM 7.98 46.364 0.088 7.04 175.01 10.2
10/22/2022 8:00:00 PM 7.98 46.364 0.088 7.04 175.04 10.15
10/22/2022 8:15:00 PM 7.98 46.364 0.088 7.03 174.97 10.11
10/22/2022 8:30:00 PM 7.97 46.346 0.088 7.02 175.03 10.1
10/22/2022 8:45:00 PM 7.97 46.346 0.088 7.02 177.43 10.06
10/22/2022 9:00:00 PM 7.96 46.328 0.089 7.01 176.12 10.02
10/22/2022 9:15:00 PM 7.95 46.31 0.089 7.01 175.89 9.99
10/22/2022 9:30:00 PM 7.94 46.292 0.089 7 174.87 9.97
10/22/2022 9:45:00 PM 7.92 46.256 0.089 7 173.79 9.96
10/22/2022 10:00:00 PM 7.9 46.22 0.089 6.99 174.32 9.97
10/22/2022 10:15:00 PM 7.87 46.166 0.089 6.99 174.8 9.96
10/22/2022 10:30:00 PM 7.83 46.094 0.089 6.99 173.79 9.96
10/22/2022 10:45:00 PM 7.79 46.022 0.089 6.98 173.29 10
10/22/2022 11:00:00 PM 7.75 45.95 0.089 6.98 172.73 10.01
10/22/2022 11:15:00 PM 7.71 45.878 0.089 6.98 173.26 10.02
10/22/2022 11:30:00 PM 7.67 45.806 0.089 6.98 172.39 10.03
10/22/2022 11:45:00 PM 7.62 45.716 0.089 6.98 172.46 10.02
10/23/2022 12:00:00 AM 7.58 45.644 0.089 6.97 172.41 10.01
10/23/2022 12:15:00 AM 7.54 45.572 0.089 6.97 173.26 10.01
10/23/2022 12:30:00 AM 7.49 45.482 0.089 6.96 172.41 10.01
10/23/2022 12:45:00 AM 7.44 45.392 0.089 6.96 172.68 10.03
10/23/2022 1:00:00 AM 7.4 45.32 0.089 6.95 172.63 10.05
10/23/2022 1:15:00 AM 7.35 45.23 0.089 6.95 171.42 10.07
10/23/2022 1:30:00 AM 7.29 45.122 0.089 6.95 171.28 10.1
10/23/2022 1:45:00 AM 7.24 45.032 0.09 6.95 171.77 10.16
10/23/2022 2:00:00 AM 7.19 44.942 0.09 6.95 172.31 10.2
10/23/2022 2:15:00 AM 7.13 44.834 0.09 6.95 172.55 10.23
10/23/2022 2:30:00 AM 7.07 44.726 0.09 6.94 172.8 10.24
10/23/2022 2:45:00 AM 7.01 44.618 0.09 6.94 173.29 10.25
10/23/2022 3:00:00 AM 6.94 44.492 0.09 6.94 173.12 10.26
10/23/2022 3:15:00 AM 6.88 44.384 0.09 6.94 173.01 10.26
10/23/2022 3:30:00 AM 6.81 44.258 0.09 6.93 173.27 10.28
10/23/2022 3:45:00 AM 6.75 44.15 0.09 6.93 174 10.31
10/23/2022 4:00:00 AM 6.69 44.042 0.09 6.93 174.52 10.33
10/23/2022 4:15:00 AM 6.62 43.916 0.09 6.92 173.45 10.34
10/23/2022 4:30:00 AM 6.56 43.808 0.09 6.92 173.53 10.36
10/23/2022 4:45:00 AM 6.5 43.7 0.09 6.92 172.4 10.37
10/23/2022 5:00:00 AM 6.44 43.592 0.09 6.92 172.05 10.41
10/23/2022 5:15:00 AM 6.39 43.502 0.09 6.92 172.36 10.42
10/23/2022 5:30:00 AM 6.33 43.394 0.09 6.92 172.38 10.43
10/23/2022 5:45:00 AM 6.28 43.304 0.09 6.91 172.6 10.47
10/23/2022 6:00:00 AM 6.23 43.214 0.09 6.91 173.73 10.54
10/23/2022 6:15:00 AM 6.19 43.142 0.09 6.92 174.63 10.56
10/23/2022 6:30:00 AM 6.15 43.07 0.09 6.92 174.97 10.54
10/23/2022 6:45:00 AM 6.11 42.998 0.09 6.93 174.82 10.53
10/23/2022 7:00:00 AM 6.08 42.944 0.09 6.93 174.74 10.52
10/23/2022 7:15:00 AM 6.06 42.908 0.09 6.94 174.66 10.52
10/23/2022 7:30:00 AM 6.03 42.854 0.09 6.94 174.59 10.56
10/23/2022 7:45:00 AM 6 42.8 0.09 6.95 174.41 10.64
10/23/2022 8:00:00 AM 5.98 42.764 0.09 6.95 174.34 10.72
10/23/2022 8:15:00 AM 5.96 42.728 0.09 6.95 174.32 10.78
10/23/2022 8:30:00 AM 5.94 42.692 0.09 6.97 174.3 10.82
10/23/2022 8:45:00 AM 5.93 42.674 0.09 6.97 174.26 10.89
10/23/2022 9:00:00 AM 5.93 42.674 0.09 6.98 174.26 10.96
10/23/2022 9:15:00 AM 5.94 42.692 0.09 6.99 174.27 11.04
10/23/2022 9:30:00 AM 5.97 42.746 0.09 7.01 174.27 11.11
10/23/2022 9:45:00 AM 6 42.8 0.09 7.02 174.86 11.19
10/23/2022 10:00:00 AM 6.03 42.854 0.09 7.03 175.33 11.27
10/23/2022 10:15:00 AM 6.07 42.926 0.089 7.04 175.39 11.32
10/23/2022 10:30:00 AM 6.13 43.034 0.089 7.04 175.33 11.35
10/23/2022 10:45:00 AM 6.18 43.124 0.089 7.05 175.12 11.38
10/23/2022 11:00:00 AM 6.23 43.214 0.089 7.07 175.08 11.39
10/23/2022 11:15:00 AM 6.3 43.34 0.089 7.08 174.18 11.41
10/23/2022 11:30:00 AM 6.39 43.502 0.089 7.09 174.24 11.43
10/23/2022 11:45:00 AM 6.5 43.7 0.089 7.11 174.44 11.43
10/23/2022 12:00:00 PM 6.62 43.916 0.089 7.12 174.54 11.43
10/23/2022 12:15:00 PM 6.74 44.132 0.089 7.13 174.59 11.44
10/23/2022 12:30:00 PM 6.85 44.33 0.089 7.14 174.6 11.44
10/23/2022 12:45:00 PM 6.96 44.528 0.089 7.15 174.36 11.41
10/23/2022 1:00:00 PM 7.09 44.762 0.089 7.15 174.26 11.37
10/23/2022 1:15:00 PM 7.22 44.996 0.089 7.15 174.4 11.34
10/23/2022 1:30:00 PM 7.35 45.23 0.089 7.16 174.61 11.33
10/23/2022 1:45:00 PM 7.49 45.482 0.088 7.17 174.54 11.28
10/23/2022 2:00:00 PM 7.62 45.716 0.088 7.17 174.38 11.25
10/23/2022 2:15:00 PM 7.75 45.95 0.088 7.17 174.28 11.2
10/23/2022 2:30:00 PM 7.88 46.184 0.088 7.17 175.07 11.17
10/23/2022 2:45:00 PM 8 46.4 0.088 7.17 175.39 11.13
10/23/2022 3:00:00 PM 8.11 46.598 0.088 7.16 175.34 11.06
10/23/2022 3:15:00 PM 8.2 46.76 0.088 7.16 174.85 10.99
10/23/2022 3:30:00 PM 8.27 46.886 0.088 7.16 174.57 10.94
10/23/2022 3:45:00 PM 8.32 46.976 0.088 7.16 174.67 10.9
10/23/2022 4:00:00 PM 8.39 47.102 0.088 7.16 175.15 10.86
10/23/2022 4:15:00 PM 8.48 47.264 0.088 7.16 174.59 10.81
10/23/2022 4:30:00 PM 8.58 47.444 0.088 7.16 174.68 10.77
10/23/2022 4:45:00 PM 8.67 47.606 0.088 7.15 175.54 10.73
10/23/2022 5:00:00 PM 8.73 47.714 0.088 7.16 175.01 10.68
10/23/2022 5:15:00 PM 8.76 47.768 0.088 7.15 174.75 10.63
10/23/2022 5:30:00 PM 8.77 47.786 0.088 7.14 174.64 10.55
10/23/2022 5:45:00 PM 8.76 47.768 0.088 7.13 176.46 10.49
10/23/2022 6:00:00 PM 8.75 47.75 0.088 7.12 176.48 10.44
10/23/2022 6:15:00 PM 8.73 47.714 0.088 7.11 177.62 10.38
10/23/2022 6:30:00 PM 8.71 47.678 0.088 7.09 177.32 10.33
10/23/2022 6:45:00 PM 8.69 47.642 0.088 7.08 176.99 10.32
10/23/2022 7:00:00 PM 8.67 47.606 0.089 7.07 176.57 10.25
10/23/2022 7:15:00 PM 8.66 47.588 0.089 7.06 175.8 10.19
10/23/2022 7:30:00 PM 8.64 47.552 0.089 7.05 175.74 10.15
10/23/2022 7:45:00 PM 8.63 47.534 0.089 7.04 176.81 10.07
10/23/2022 8:00:00 PM 8.61 47.498 0.089 7.03 176.41 10
10/23/2022 8:15:00 PM 8.6 47.48 0.089 7.02 176.05 9.95
10/23/2022 8:30:00 PM 8.59 47.462 0.089 7.02 175.99 9.89
10/23/2022 8:45:00 PM 8.58 47.444 0.089 7.01 175.87 9.88
10/23/2022 9:00:00 PM 8.56 47.408 0.089 7 175.96 9.86
10/23/2022 9:15:00 PM 8.55 47.39 0.089 6.99 175.96 9.84
10/23/2022 9:30:00 PM 8.55 47.39 0.089 6.99 175.29 9.84
10/23/2022 9:45:00 PM 8.54 47.372 0.089 6.99 174.44 9.85
10/23/2022 10:00:00 PM 8.53 47.354 0.09 6.98 174.69 9.84
10/23/2022 10:15:00 PM 8.52 47.336 0.09 6.98 172.48 9.81
10/23/2022 10:30:00 PM 8.49 47.282 0.09 6.98 172.88 9.82
10/23/2022 10:45:00 PM 8.47 47.246 0.09 6.97 172.77 9.83
10/23/2022 11:00:00 PM 8.44 47.192 0.09 6.97 172.67 9.85
10/23/2022 11:15:00 PM 8.42 47.156 0.09 6.97 172.59 9.89
10/23/2022 11:30:00 PM 8.41 47.138 0.09 6.96 172.58 9.89
10/23/2022 11:45:00 PM 8.4 47.12 0.09 6.96 172.52 9.9
10/24/2022 12:00:00 AM 8.38 47.084 0.09 6.96 172.5 9.9
10/24/2022 12:15:00 AM 8.35 47.03 0.09 6.96 172.57 9.9
10/24/2022 12:30:00 AM 8.32 46.976 0.09 6.95 172.54 9.89
10/24/2022 12:45:00 AM 8.28 46.904 0.09 6.96 172.59 9.89
10/24/2022 1:00:00 AM 8.24 46.832 0.09 6.95 172.67 9.92
10/24/2022 1:15:00 AM 8.2 46.76 0.09 6.95 172.75 9.93
10/24/2022 1:30:00 AM 8.17 46.706 0.09 6.95 172.75 9.95
10/24/2022 1:45:00 AM 8.13 46.634 0.09 6.95 172.72 9.99
10/24/2022 2:00:00 AM 8.1 46.58 0.09 6.94 173.61 10
10/24/2022 2:15:00 AM 8.07 46.526 0.09 6.94 173.16 10
10/24/2022 2:30:00 AM 8.04 46.472 0.09 6.94 173.03 10
10/24/2022 2:45:00 AM 8 46.4 0.09 6.94 172.98 10.01
10/24/2022 3:00:00 AM 7.96 46.328 0.09 6.94 172.74 10.03
10/24/2022 3:15:00 AM 7.92 46.256 0.09 6.94 172.73 10.07
10/24/2022 3:30:00 AM 7.88 46.184 0.091 6.93 172.52 10.1
10/24/2022 3:45:00 AM 7.83 46.094 0.091 6.93 172.43 10.12
10/24/2022 4:00:00 AM 7.78 46.004 0.091 6.93 172.37 10.14
10/24/2022 4:15:00 AM 7.74 45.932 0.091 6.92 172.51 10.17
10/24/2022 4:30:00 AM 7.69 45.842 0.091 6.92 172.41 10.18
10/24/2022 4:45:00 AM 7.64 45.752 0.091 6.92 172.58 10.2
10/24/2022 5:00:00 AM 7.6 45.68 0.091 6.92 172.74 10.23
10/24/2022 5:15:00 AM 7.56 45.608 0.091 6.92 173.18 10.23
10/24/2022 5:30:00 AM 7.52 45.536 0.091 6.92 172.91 10.22
10/24/2022 5:45:00 AM 7.5 45.5 0.091 6.92 172.91 10.23
10/24/2022 6:00:00 AM 7.48 45.464 0.091 6.92 172.89 10.24
10/24/2022 6:15:00 AM 7.47 45.446 0.091 6.92 172.86 10.24
10/24/2022 6:30:00 AM 7.45 45.41 0.091 6.92 172.82 10.23
10/24/2022 6:45:00 AM 7.42 45.356 0.091 6.92 172.81 10.22
10/24/2022 7:00:00 AM 7.38 45.284 0.091 6.92 172.6 10.24
10/24/2022 7:15:00 AM 7.33 45.194 0.091 6.92 172.46 10.18
10/24/2022 7:30:00 AM 7.28 45.104 0.091 6.93 172.37 10.29
10/24/2022 7:45:00 AM 7.24 45.032 0.091 6.93 172.24 10.39
10/24/2022 8:00:00 AM 7.2 44.96 0.091 6.93 172.18 10.43
10/24/2022 8:15:00 AM 7.16 44.888 0.091 6.92 172.25 10.46
10/24/2022 8:30:00 AM 7.13 44.834 0.091 6.93 172.18 10.54
10/24/2022 8:45:00 AM 7.12 44.816 0.091 6.94 172.33 10.61
10/24/2022 9:00:00 AM 7.13 44.834 0.09 6.96 172.15 10.67
10/24/2022 9:15:00 AM 7.15 44.87 0.09 6.97 172.24 10.77
10/24/2022 9:30:00 AM 7.18 44.924 0.09 6.98 172.15 10.85
10/24/2022 9:45:00 AM 7.21 44.978 0.09 6.98 172.14 10.91
10/24/2022 10:00:00 AM 7.26 45.068 0.09 6.98 172.16 10.94
10/24/2022 10:15:00 AM 7.31 45.158 0.09 7 172.44 10.96
10/24/2022 10:30:00 AM 7.37 45.266 0.09 7.01 172.75 10.96
10/24/2022 10:45:00 AM 7.44 45.392 0.09 7.03 172.51 10.99
10/24/2022 11:00:00 AM 7.52 45.536 0.09 7.03 172.41 11.03
10/24/2022 11:15:00 AM 7.61 45.698 0.09 7.04 172.26 11.04
10/24/2022 11:30:00 AM 7.7 45.86 0.09 7.06 172.14 11.04
10/24/2022 11:45:00 AM 7.81 46.058 0.089 7.07 172.29 11.05
10/24/2022 12:00:00 PM 7.93 46.274 0.089 7.08 171.86 11.06
10/24/2022 12:15:00 PM 8.05 46.49 0.089 7.09 171.94 11.05
10/24/2022 12:30:00 PM 8.16 46.688 0.089 7.09 171.75 11.03
10/24/2022 12:45:00 PM 8.28 46.904 0.089 7.1 171.44 11.02
10/24/2022 1:00:00 PM 8.41 47.138 0.089 7.11 171.36 10.99
10/24/2022 1:15:00 PM 8.53 47.354 0.089 7.09 171.47 10.96
10/24/2022 1:30:00 PM 8.65 47.57 0.089 7.1 171.63 10.92
10/24/2022 1:45:00 PM 8.77 47.786 0.089 7.12 171.62 10.89
10/24/2022 2:00:00 PM 8.9 48.02 0.089 7.16 171.34 10.85
10/24/2022 2:15:00 PM 9.04 48.272 0.089 7.17 171.25 10.82
10/24/2022 2:30:00 PM 9.18 48.524 0.089 7.18 171.61 10.79
10/24/2022 2:45:00 PM 9.32 48.776 0.089 7.19 171.66 10.75
10/24/2022 3:00:00 PM 9.44 48.992 0.089 7.18 171.58 10.67
10/24/2022 3:15:00 PM 9.55 49.19 0.089 7.18 171.38 10.6
10/24/2022 3:30:00 PM 9.64 49.352 0.089 7.19 171.15 10.53
10/24/2022 3:45:00 PM 9.74 49.532 0.089 7.19 171.44 10.48
10/24/2022 4:00:00 PM 9.84 49.712 0.089 7.2 171.67 10.46
10/24/2022 4:15:00 PM 9.94 49.892 0.089 7.21 171.77 10.41
10/24/2022 4:30:00 PM 10.02 50.036 0.089 7.2 171.72 10.35
10/24/2022 4:45:00 PM 10.08 50.144 0.089 7.2 171.72 10.3
10/24/2022 5:00:00 PM 10.12 50.216 0.089 7.19 171.69 10.24
10/24/2022 5:15:00 PM 10.14 50.252 0.089 7.18 171.49 10.2
10/24/2022 5:30:00 PM 10.16 50.288 0.089 7.18 171.5 10.16
10/24/2022 5:45:00 PM 10.17 50.306 0.089 7.17 171.52 10.07
10/24/2022 6:00:00 PM 10.17 50.306 0.089 7.16 171.46 9.99
10/24/2022 6:15:00 PM 10.17 50.306 0.089 7.15 171.52 9.92
10/24/2022 6:30:00 PM 10.16 50.288 0.089 7.13 171.43 9.77
10/24/2022 6:45:00 PM 10.15 50.27 0.089 7.12 171.45 9.7
10/24/2022 7:00:00 PM 10.15 50.27 0.089 7.1 171.42 9.68
10/24/2022 7:15:00 PM 10.14 50.252 0.089 7.1 171.38 9.6
10/24/2022 7:30:00 PM 10.14 50.252 0.089 7.08 171.59 9.53
10/24/2022 7:45:00 PM 10.13 50.234 0.089 7.07 171.5 9.48
10/24/2022 8:00:00 PM 10.13 50.234 0.089 7.06 171.46 9.45
10/24/2022 8:15:00 PM 10.12 50.216 0.089 7.05 171.52 9.39
10/24/2022 8:30:00 PM 10.12 50.216 0.089 7.04 171.55 9.35
10/24/2022 8:45:00 PM 10.11 50.198 0.089 7.03 171.6 9.3
10/24/2022 9:00:00 PM 10.11 50.198 0.089 7.02 171.68 9.24
10/24/2022 9:15:00 PM 10.11 50.198 0.09 7.02 171.69 9.34
10/24/2022 9:30:00 PM 10.11 50.198 0.09 7.01 171.75 9.34
10/24/2022 9:45:00 PM 10.11 50.198 0.09 7 171.75 9.34
10/24/2022 10:00:00 PM 10.1 50.18 0.09 7 171.75 9.34
10/24/2022 10:15:00 PM 10.09 50.162 0.09 7 171.82 9.3
10/24/2022 10:30:00 PM 10.07 50.126 0.09 6.99 171.65 9.28
10/24/2022 10:45:00 PM 10.05 50.09 0.09 6.99 171.62 9.32
10/24/2022 11:00:00 PM 10.02 50.036 0.09 6.99 171.65 9.35
10/24/2022 11:15:00 PM 9.99 49.982 0.09 6.98 172.12 9.39
10/24/2022 11:30:00 PM 9.96 49.928 0.09 6.98 172.25 9.41
10/24/2022 11:45:00 PM 9.93 49.874 0.09 6.98 172.21 9.45
10/25/2022 12:00:00 AM 9.9 49.82 0.09 6.98 172.58 9.49
10/25/2022 12:15:00 AM 9.87 49.766 0.09 6.97 172.27 9.49
10/25/2022 12:30:00 AM 9.85 49.73 0.09 6.97 172.27 9.5
10/25/2022 12:45:00 AM 9.84 49.712 0.09 6.96 172.17 9.52
10/25/2022 1:00:00 AM 9.84 49.712 0.09 6.96 172.14 9.54
10/25/2022 1:15:00 AM 9.85 49.73 0.09 6.96 172.18 9.54
10/25/2022 1:30:00 AM 9.87 49.766 0.09 6.96 172.11 9.51
10/25/2022 1:45:00 AM 9.88 49.784 0.09 6.96 172.24 9.53
10/25/2022 2:00:00 AM 9.89 49.802 0.09 6.96 172.32 9.53
10/25/2022 2:15:00 AM 9.9 49.82 0.09 6.96 172.24 9.54
10/25/2022 2:30:00 AM 9.9 49.82 0.091 6.96 172.3 9.54
10/25/2022 2:45:00 AM 9.91 49.838 0.091 6.97 172.3 9.53
10/25/2022 3:00:00 AM 9.91 49.838 0.091 6.97 172.34 9.52
10/25/2022 3:15:00 AM 9.91 49.838 0.091 6.97 172.32 9.52
10/25/2022 3:30:00 AM 9.91 49.838 0.091 6.97 172.34 9.5
10/25/2022 3:45:00 AM 9.91 49.838 0.091 6.97 172.28 9.53
10/25/2022 4:00:00 AM 9.9 49.82 0.091 6.96 172.32 9.56
10/25/2022 4:15:00 AM 9.9 49.82 0.091 6.96 172.12 9.55
10/25/2022 4:30:00 AM 9.89 49.802 0.091 6.96 172.13 9.52
10/25/2022 4:45:00 AM 9.89 49.802 0.091 6.96 172.08 9.54
10/25/2022 5:00:00 AM 9.89 49.802 0.091 6.96 172.03 9.54
10/25/2022 5:15:00 AM 9.88 49.784 0.091 6.96 172.11 9.54
10/25/2022 5:30:00 AM 9.88 49.784 0.091 6.96 172.07 9.53
10/25/2022 5:45:00 AM 9.88 49.784 0.091 6.96 172.15 9.51
10/25/2022 6:00:00 AM 9.88 49.784 0.091 6.97 172.13 9.5
10/25/2022 6:15:00 AM 9.88 49.784 0.091 6.97 172.22 9.5
10/25/2022 6:30:00 AM 9.88 49.784 0.091 6.96 172.26 9.51
10/25/2022 6:45:00 AM 9.88 49.784 0.091 6.96 172.22 9.53
10/25/2022 7:00:00 AM 9.89 49.802 0.091 6.95 172.23 9.55
10/25/2022 7:15:00 AM 9.89 49.802 0.091 6.96 172.38 9.57
10/25/2022 7:30:00 AM 9.89 49.802 0.091 6.97 172.29 9.58
10/25/2022 7:45:00 AM 9.9 49.82 0.091 6.95 172.19 9.59
10/25/2022 8:00:00 AM 9.9 49.82 0.091 6.95 172.13 9.58
10/25/2022 8:15:00 AM 9.91 49.838 0.091 6.95 172.29 9.58
10/25/2022 8:30:00 AM 9.93 49.874 0.091 6.95 172.38 9.64
10/25/2022 8:45:00 AM 9.95 49.91 0.09 6.96 172.48 9.72
10/25/2022 9:00:00 AM 9.99 49.982 0.09 6.97 172.48 9.79
10/25/2022 9:15:00 AM 10.03 50.054 0.09 6.98 172.63 9.89
10/25/2022 9:30:00 AM 10.08 50.144 0.09 6.99 172.38 10
10/25/2022 9:45:00 AM 10.14 50.252 0.09 7 172.35 10.08
10/25/2022 10:00:00 AM 10.2 50.36 0.09 7.01 172.08 10.13
10/25/2022 10:15:00 AM 10.26 50.468 0.09 7.01 172.07 10.18
10/25/2022 10:30:00 AM 10.33 50.594 0.089 7.03 172.11 10.26
10/25/2022 10:45:00 AM 10.41 50.738 0.089 7.04 172.08 10.31
10/25/2022 11:00:00 AM 10.52 50.936 0.089 7.06 172.29 10.35
10/25/2022 11:15:00 AM 10.64 51.152 0.089 7.08 172.44 10.32
10/25/2022 11:30:00 AM 10.8 51.44 0.089 7.1 172.05 10.42
10/25/2022 11:45:00 AM 10.97 51.746 0.089 7.12 172.55 10.45
10/25/2022 12:00:00 PM 11.12 52.016 0.089 7.14 172.47 10.46
10/25/2022 12:15:00 PM 11.24 52.232 0.089 7.15 172.55 10.44
10/25/2022 12:30:00 PM 11.34 52.412 0.089 7.15 172.45 10.42
10/25/2022 12:45:00 PM 11.45 52.61 0.089 7.16 172.77 10.38
10/25/2022 1:00:00 PM 11.54 52.772 0.089 7.17 172.54 10.36
10/25/2022 1:15:00 PM 11.63 52.934 0.088 7.17 172.52 10.34
10/25/2022 1:30:00 PM 11.71 53.078 0.088 7.18 172.81 10.31
10/25/2022 1:45:00 PM 11.8 53.24 0.088 7.17 172.98 10.28
10/25/2022 2:00:00 PM 11.9 53.42 0.088 7.18 173.04 10.24
10/25/2022 2:15:00 PM 12 53.6 0.088 7.19 172.93 10.2
10/25/2022 2:30:00 PM 12.1 53.78 0.088 7.18 172.46 10.17
10/25/2022 2:45:00 PM 12.2 53.96 0.088 7.19 172.56 10.12
10/25/2022 3:00:00 PM 12.28 54.104 0.088 7.18 173.59 10.07
10/25/2022 3:15:00 PM 12.34 54.212 0.088 7.18 173.3 10.02
10/25/2022 3:30:00 PM 12.4 54.32 0.088 7.18 172.87 9.98
10/25/2022 3:45:00 PM 12.47 54.446 0.088 7.18 172.44 9.95
10/25/2022 4:00:00 PM 12.53 54.554 0.088 7.17 172.4 9.91
10/25/2022 4:15:00 PM 12.56 54.608 0.088 7.18 172.33 9.82
10/25/2022 4:30:00 PM 12.57 54.626 0.088 7.17 172.34 9.78
10/25/2022 4:45:00 PM 12.57 54.626 0.088 7.17 172.38 9.73
10/25/2022 5:00:00 PM 12.57 54.626 0.088 7.16 172.69 9.69
10/25/2022 5:15:00 PM 12.58 54.644 0.088 7.16 172.68 9.65
10/25/2022 5:30:00 PM 12.57 54.626 0.088 7.15 172.81 9.6
10/25/2022 5:45:00 PM 12.54 54.572 0.089 7.13 172.86 9.56
10/25/2022 6:00:00 PM 12.5 54.5 0.089 7.11 172.8 9.45
10/25/2022 6:15:00 PM 12.46 54.428 0.089 7.09 172.53 9.4
10/25/2022 6:30:00 PM 12.42 54.356 0.089 7.07 173.07 9.31
10/25/2022 6:45:00 PM 12.38 54.284 0.089 7.05 172.72 9.23
10/25/2022 7:00:00 PM 12.33 54.194 0.089 7.03 172.23 9.17
10/25/2022 7:15:00 PM 12.3 54.14 0.089 7.02 172.75 9.09
10/25/2022 7:30:00 PM 12.26 54.068 0.089 7.01 172.39 9.04
10/25/2022 7:45:00 PM 12.23 54.014 0.089 7 172.49 9
10/25/2022 8:00:00 PM 12.2 53.96 0.089 7 172.32 8.98
10/25/2022 8:15:00 PM 12.17 53.906 0.089 6.99 172.29 8.96
10/25/2022 8:30:00 PM 12.14 53.852 0.09 6.99 172.14 8.96
10/25/2022 8:45:00 PM 12.11 53.798 0.09 6.99 172.7 9.03
10/25/2022 9:00:00 PM 12.08 53.744 0.09 6.99 172.65 9.01
10/25/2022 9:15:00 PM 12.06 53.708 0.09 6.98 172.67 8.99
10/25/2022 9:30:00 PM 12.05 53.69 0.09 6.97 172.78 8.97
10/25/2022 9:45:00 PM 12.05 53.69 0.09 6.97 172.87 8.94
10/25/2022 10:00:00 PM 12.05 53.69 0.09 6.96 172.69 8.97
10/25/2022 10:15:00 PM 12.05 53.69 0.09 6.94 172.81 9.1
10/25/2022 10:30:00 PM 12.04 53.672 0.09 6.95 172.81 9.1
10/25/2022 10:45:00 PM 12.04 53.672 0.09 6.97 172.82 9.02
10/25/2022 11:00:00 PM 12.03 53.654 0.09 6.98 172.72 9.03
10/25/2022 11:15:00 PM 12.02 53.636 0.09 6.98 172.64 9.03
10/25/2022 11:30:00 PM 12.01 53.618 0.09 6.99 172.13 9.02
10/25/2022 11:45:00 PM 11.99 53.582 0.09 6.98 171.83 9.03
10/26/2022 12:00:00 AM 11.96 53.528 0.091 6.97 172.27 9.06
10/26/2022 12:15:00 AM 11.93 53.474 0.091 6.97 172.19 9.07
10/26/2022 12:30:00 AM 11.91 53.438 0.091 6.96 172.48 9.05
10/26/2022 12:45:00 AM 11.88 53.384 0.091 6.96 172.73 9.05
10/26/2022 1:00:00 AM 11.85 53.33 0.091 6.96 172.69 9.03
10/26/2022 1:15:00 AM 11.83 53.294 0.091 6.95 169.41 9.07
10/26/2022 1:30:00 AM 11.81 53.258 0.091 6.95 169.79 9.07
10/26/2022 1:45:00 AM 11.77 53.186 0.091 6.95 168.94 9.12
10/26/2022 2:00:00 AM 11.73 53.114 0.091 6.95 168.91 9.12
10/26/2022 2:15:00 AM 11.69 53.042 0.091 6.95 168.49 9.13
10/26/2022 2:30:00 AM 11.66 52.988 0.091 6.95 168.52 9.16
10/26/2022 2:45:00 AM 11.62 52.916 0.091 6.95 168.47 9.16
10/26/2022 3:00:00 AM 11.56 52.808 0.091 6.95 168.72 9.14
10/26/2022 3:15:00 AM 11.5 52.7 0.091 6.95 168.63 9.16
10/26/2022 3:30:00 AM 11.43 52.574 0.091 6.94 168.77 9.15
10/26/2022 3:45:00 AM 11.37 52.466 0.091 6.94 169.19 9.15
10/26/2022 4:00:00 AM 11.3 52.34 0.091 6.93 169.36 9.19
10/26/2022 4:15:00 AM 11.23 52.214 0.091 6.93 169.66 9.24
10/26/2022 4:30:00 AM 11.18 52.124 0.091 6.92 169.3 9.25
10/26/2022 4:45:00 AM 11.13 52.034 0.091 6.94 169.29 9.28
10/26/2022 5:00:00 AM 11.08 51.944 0.091 6.95 169.02 9.33
10/26/2022 5:15:00 AM 11.03 51.854 0.092 6.95 168.7 9.31
10/26/2022 5:30:00 AM 10.99 51.782 0.092 6.94 168.57 9.3
10/26/2022 5:45:00 AM 10.95 51.71 0.092 6.94 168.5 9.32
10/26/2022 6:00:00 AM 10.92 51.656 0.092 6.95 168.39 9.32
10/26/2022 6:15:00 AM 10.89 51.602 0.092 6.96 168.29 9.37
10/26/2022 6:30:00 AM 10.85 51.53 0.092 6.97 168.27 9.41
10/26/2022 6:45:00 AM 10.82 51.476 0.092 6.97 168.27 9.46
10/26/2022 7:00:00 AM 10.79 51.422 0.092 6.96 168.09 9.37
10/26/2022 7:15:00 AM 10.75 51.35 0.092 6.97 168.23 9.46
10/26/2022 7:30:00 AM 10.7 51.26 0.092 6.97 168.38 9.47
10/26/2022 7:45:00 AM 10.65 51.17 0.092 6.97 168.27 9.47
10/26/2022 8:00:00 AM 10.61 51.098 0.092 6.97 168.13 9.51
10/26/2022 8:15:00 AM 10.58 51.044 0.092 6.97 168.28 9.53
10/26/2022 8:30:00 AM 10.57 51.026 0.092 6.98 168.05 9.61
10/26/2022 8:45:00 AM 10.56 51.008 0.091 7 167.94 9.69
10/26/2022 9:00:00 AM 10.57 51.026 0.091 7.02 167.9 9.76
10/26/2022 9:15:00 AM 10.61 51.098 0.091 7.04 168.05 9.9
10/26/2022 9:30:00 AM 10.69 51.242 0.091 7.06 167.81 10.03
10/26/2022 9:45:00 AM 10.77 51.386 0.091 7.09 167.64 10.13
10/26/2022 10:00:00 AM 10.86 51.548 0.09 7.11 167.49 10.22
10/26/2022 10:15:00 AM 10.91 51.638 0.09 7.12 167.4 10.23
10/26/2022 10:30:00 AM 10.93 51.674 0.09 7.12 167.51 10.25
10/26/2022 10:45:00 AM 10.95 51.71 0.09 7.12 167.56 10.26
10/26/2022 11:00:00 AM 10.99 51.782 0.09 7.13 167.64 10.27
10/26/2022 11:15:00 AM 11.11 51.998 0.09 7.14 167.91 10.34
10/26/2022 11:30:00 AM 11.28 52.304 0.09 7.17 168.1 10.39
10/26/2022 11:45:00 AM 11.49 52.682 0.09 7.19 167.6 10.42
10/26/2022 12:00:00 PM 11.65 52.97 0.089 7.21 167.71 10.44
10/26/2022 12:15:00 PM 11.8 53.24 0.089 7.23 168.5 10.45
10/26/2022 12:30:00 PM 11.9 53.42 0.089 7.24 166.27 10.46
10/26/2022 12:45:00 PM 11.92 53.456 0.089 7.25 166.1 10.42
10/26/2022 1:00:00 PM 11.88 53.384 0.089 7.23 165.92 10.3
10/26/2022 1:15:00 PM 11.84 53.312 0.089 7.22 165.73 10.2
10/26/2022 1:30:00 PM 11.84 53.312 0.089 7.19 165.67 10.14
10/26/2022 1:45:00 PM 11.86 53.348 0.089 7.18 165.74 10.13
10/26/2022 2:00:00 PM 11.89 53.402 0.089 7.17 165.63 10.09
10/26/2022 2:15:00 PM 11.92 53.456 0.089 7.15 165.9 10
10/26/2022 2:30:00 PM 11.94 53.492 0.089 7.13 165.86 9.92
10/26/2022 2:45:00 PM 11.96 53.528 0.089 7.12 165.7 9.86
10/26/2022 3:00:00 PM 11.99 53.582 0.089 7.1 165.61 9.83
10/26/2022 3:15:00 PM 12.01 53.618 0.089 7.09 165.53 9.77
10/26/2022 3:30:00 PM 12.03 53.654 0.089 7.1 165.42 9.71
10/26/2022 3:45:00 PM 12.05 53.69 0.089 7.1 165.42 9.67
10/26/2022 4:00:00 PM 12.07 53.726 0.089 7.11 165.3 9.67
10/26/2022 4:15:00 PM 12.09 53.762 0.089 7.11 165.27 9.66
10/26/2022 4:30:00 PM 12.1 53.78 0.089 7.12 165.39 9.69
10/26/2022 4:45:00 PM 12.11 53.798 0.089 7.12 166.47 9.71
10/26/2022 5:00:00 PM 12.1 53.78 0.089 7.11 166.36 9.66
10/26/2022 5:15:00 PM 12.09 53.762 0.089 7.09 166.45 9.57
10/26/2022 5:30:00 PM 12.08 53.744 0.089 7.09 166.49 9.49
10/26/2022 5:45:00 PM 12.07 53.726 0.089 7.09 166.42 9.48
10/26/2022 6:00:00 PM 12.05 53.69 0.089 7.08 166.38 9.5
10/26/2022 6:15:00 PM 12.02 53.636 0.089 7.08 166.51 9.53
10/26/2022 6:30:00 PM 11.99 53.582 0.09 7.07 166.27 9.47
10/26/2022 6:45:00 PM 11.96 53.528 0.09 7.05 166.3 9.39
10/26/2022 7:00:00 PM 11.95 53.51 0.09 7.02 166.24 9.31
10/26/2022 7:15:00 PM 11.93 53.474 0.09 7.01 166.24 9.26
10/26/2022 7:30:00 PM 11.92 53.456 0.09 7.01 166.19 9.21
10/26/2022 7:45:00 PM 11.9 53.42 0.09 7.01 166.13 9.21
10/26/2022 8:00:00 PM 11.89 53.402 0.09 7.01 166.19 9.22
10/26/2022 8:15:00 PM 11.87 53.366 0.09 6.98 166.25 9.18
10/26/2022 8:30:00 PM 11.85 53.33 0.09 6.98 166.36 9.21
10/26/2022 8:45:00 PM 11.84 53.312 0.09 6.98 166.27 9.2
10/26/2022 9:00:00 PM 11.83 53.294 0.09 6.97 166.15 9.12
10/26/2022 9:15:00 PM 11.81 53.258 0.09 6.97 166.35 9.11
10/26/2022 9:30:00 PM 11.8 53.24 0.09 6.96 166.76 9.08
10/26/2022 9:45:00 PM 11.78 53.204 0.09 6.98 166.76 9.13
10/26/2022 10:00:00 PM 11.75 53.15 0.091 6.98 166.69 9.12
10/26/2022 10:15:00 PM 11.73 53.114 0.09 6.98 166.54 9.15
10/26/2022 10:30:00 PM 11.71 53.078 0.09 6.97 166.43 9.25
10/26/2022 10:45:00 PM 11.69 53.042 0.09 6.96 166.93 9.26
10/26/2022 11:00:00 PM 11.66 52.988 0.09 6.96 166.95 9.19
10/26/2022 11:15:00 PM 11.64 52.952 0.09 6.96 166.59 9.27
10/26/2022 11:30:00 PM 11.61 52.898 0.09 6.96 166.51 9.34
10/26/2022 11:45:00 PM 11.58 52.844 0.09 6.96 166.44 9.37
10/27/2022 12:00:00 AM 11.55 52.79 0.09 6.96 166.35 9.41
10/27/2022 12:15:00 AM 11.51 52.718 0.09 6.97 166.31 9.44
10/27/2022 12:30:00 AM 11.47 52.646 0.09 6.96 166.44 9.46
10/27/2022 12:45:00 AM 11.43 52.574 0.091 6.95 166.44 9.47
10/27/2022 1:00:00 AM 11.39 52.502 0.091 6.95 166.36 9.47
10/27/2022 1:15:00 AM 11.36 52.448 0.091 6.95 166.45 9.47
10/27/2022 1:30:00 AM 11.32 52.376 0.091 6.96 166.44 9.49
10/27/2022 1:45:00 AM 11.29 52.322 0.091 6.95 166.4 9.5
10/27/2022 2:00:00 AM 11.26 52.268 0.091 6.95 166.65 9.51
10/27/2022 2:15:00 AM 11.23 52.214 0.091 6.94 166.53 9.52
10/27/2022 2:30:00 AM 11.19 52.142 0.091 6.94 166.4 9.54
10/27/2022 2:45:00 AM 11.15 52.07 0.091 6.95 166.3 9.57
10/27/2022 3:00:00 AM 11.12 52.016 0.091 6.94 166.3 9.59
10/27/2022 3:15:00 AM 11.08 51.944 0.091 6.94 166.12 9.61
10/27/2022 3:30:00 AM 11.05 51.89 0.091 6.93 166.04 9.61
10/27/2022 3:45:00 AM 11.01 51.818 0.091 6.94 165.81 9.62
10/27/2022 4:00:00 AM 10.98 51.764 0.091 6.95 165.82 9.59
10/27/2022 4:15:00 AM 10.95 51.71 0.091 6.95 165.73 9.57
10/27/2022 4:30:00 AM 10.91 51.638 0.091 6.94 165.77 9.56
10/27/2022 4:45:00 AM 10.87 51.566 0.091 6.94 165.95 9.53
10/27/2022 5:00:00 AM 10.82 51.476 0.091 6.95 166.06 9.54
10/27/2022 5:15:00 AM 10.77 51.386 0.091 6.94 166.11 9.58
10/27/2022 5:30:00 AM 10.72 51.296 0.091 6.94 166.17 9.58
10/27/2022 5:45:00 AM 10.67 51.206 0.091 6.93 166.14 9.63
10/27/2022 6:00:00 AM 10.61 51.098 0.091 6.93 166.08 9.68
10/27/2022 6:15:00 AM 10.53 50.954 0.091 6.91 165.98 9.7
10/27/2022 6:30:00 AM 10.44 50.792 0.091 6.9 165.82 9.76
10/27/2022 6:45:00 AM 10.36 50.648 0.091 6.9 165.63 9.8
10/27/2022 7:00:00 AM 10.27 50.486 0.091 6.89 165.53 9.84
10/27/2022 7:15:00 AM 10.19 50.342 0.091 6.89 165.77 9.84
10/27/2022 7:30:00 AM 10.12 50.216 0.091 6.87 165.96 9.86
10/27/2022 7:45:00 AM 10.08 50.144 0.091 6.88 165.65 9.9
10/27/2022 8:00:00 AM 10.04 50.072 0.091 6.89 165.62 9.89
10/27/2022 8:15:00 AM 10 50 0.091 6.91 165.56 9.94
10/27/2022 8:30:00 AM 9.95 49.91 0.091 6.91 165.61 10.05
10/27/2022 8:45:00 AM 9.91 49.838 0.091 6.92 165.49 10.14
10/27/2022 9:00:00 AM 9.87 49.766 0.091 6.94 165.55 10.24
10/27/2022 9:15:00 AM 9.84 49.712 0.091 6.95 165.42 10.3
10/27/2022 9:30:00 AM 9.82 49.676 0.09 6.97 165.42 10.41
10/27/2022 9:45:00 AM 9.83 49.694 0.09 6.99 165.52 10.5
10/27/2022 10:00:00 AM 9.85 49.73 0.09 7.02 165.41 10.57
10/27/2022 10:15:00 AM 9.89 49.802 0.09 7.04 165.48 10.66
10/27/2022 10:30:00 AM 9.91 49.838 0.09 7.05 165.54 10.72
10/27/2022 10:45:00 AM 9.92 49.856 0.09 7.07 165.52 10.73
10/27/2022 11:00:00 AM 9.93 49.874 0.09 7.09 165.53 10.73
10/27/2022 11:15:00 AM 9.96 49.928 0.09 7.1 165.59 10.73
10/27/2022 11:30:00 AM 9.99 49.982 0.09 7.11 165.75 10.81
10/27/2022 11:45:00 AM 10.01 50.018 0.09 7.12 165.53 10.8
10/27/2022 12:00:00 PM 10.05 50.09 0.089 7.13 165.48 10.79
10/27/2022 12:15:00 PM 10.11 50.198 0.089 7.14 165.39 10.77
10/27/2022 12:30:00 PM 10.14 50.252 0.089 7.15 165.57 10.8
10/27/2022 12:45:00 PM 10.16 50.288 0.089 7.16 165.35 10.79
10/27/2022 1:00:00 PM 10.19 50.342 0.089 7.17 165.15 10.76
10/27/2022 1:15:00 PM 10.23 50.414 0.089 7.18 165.04 10.76
10/27/2022 1:30:00 PM 10.27 50.486 0.089 7.19 164.99 10.76
10/27/2022 1:45:00 PM 10.32 50.576 0.089 7.2 164.93 10.76
10/27/2022 2:00:00 PM 10.37 50.666 0.089 7.21 165.04 10.75
10/27/2022 2:15:00 PM 10.43 50.774 0.089 7.22 165.06 10.78
10/27/2022 2:30:00 PM 10.48 50.864 0.089 7.23 165.18 10.78
10/27/2022 2:45:00 PM 10.51 50.918 0.089 7.23 165.21 10.75
10/27/2022 3:00:00 PM 10.54 50.972 0.089 7.23 165.13 10.75
10/27/2022 3:15:00 PM 10.54 50.972 0.089 7.22 165.33 10.75
10/27/2022 3:30:00 PM 10.55 50.99 0.089 7.22 165.54 10.73
10/27/2022 3:45:00 PM 10.56 51.008 0.089 7.22 165.54 10.62
10/27/2022 4:00:00 PM 10.56 51.008 0.089 7.24 165.38 10.33
10/27/2022 4:15:00 PM 10.57 51.026 0.089 7.22 165.28 10.26
10/27/2022 4:30:00 PM 10.57 51.026 0.089 7.23 165.45 10.29
10/27/2022 4:45:00 PM 10.57 51.026 0.089 7.21 165.27 10.27
10/27/2022 5:00:00 PM 10.57 51.026 0.089 7.2 165.17 10.27
10/27/2022 5:15:00 PM 10.55 50.99 0.089 7.17 165.58 10.18
10/27/2022 5:30:00 PM 10.53 50.954 0.089 7.16 165.54 10.13
10/27/2022 5:45:00 PM 10.49 50.882 0.089 7.16 165.68 10.05
10/27/2022 6:00:00 PM 10.44 50.792 0.089 7.15 165.52 10.01
10/27/2022 6:15:00 PM 10.39 50.702 0.089 7.12 165.37 9.98
10/27/2022 6:30:00 PM 10.33 50.594 0.089 7.09 165.25 9.97
10/27/2022 6:45:00 PM 10.27 50.486 0.089 7.07 165.16 9.94
10/27/2022 7:00:00 PM 10.23 50.414 0.089 7.06 165.32 9.85
10/27/2022 7:15:00 PM 10.18 50.324 0.089 7.06 165.67 9.67
10/27/2022 7:30:00 PM 10.13 50.234 0.089 7.07 165.87 9.64
10/27/2022 7:45:00 PM 10.09 50.162 0.09 7.07 165.92 9.46
10/27/2022 8:00:00 PM 10.04 50.072 0.09 7.05 166.14 9.4
10/27/2022 8:15:00 PM 10 50 0.09 7.05 166.07 9.36
10/27/2022 8:30:00 PM 9.96 49.928 0.09 7.04 166.1 9.27
10/27/2022 8:45:00 PM 9.91 49.838 0.09 7.03 166.05 9.26
10/27/2022 9:00:00 PM 9.86 49.748 0.09 7.02 165.92 9.35
10/27/2022 9:15:00 PM 9.8 49.64 0.09 7.01 166.03 9.49
10/27/2022 9:30:00 PM 9.73 49.514 0.09 7.01 166.29 9.59
10/27/2022 9:45:00 PM 9.66 49.388 0.09 7 166.25 9.64
10/27/2022 10:00:00 PM 9.58 49.244 0.09 7 166.4 9.61
10/27/2022 10:15:00 PM 9.5 49.1 0.09 6.99 166.19 9.58
10/27/2022 10:30:00 PM 9.42 48.956 0.09 6.99 166.35 9.63
10/27/2022 10:45:00 PM 9.34 48.812 0.09 6.99 166.35 9.6
10/27/2022 11:00:00 PM 9.25 48.65 0.09 6.98 166.26 9.67
10/27/2022 11:15:00 PM 9.17 48.506 0.09 6.98 166.18 9.65
10/27/2022 11:30:00 PM 9.09 48.362 0.09 6.97 165.92 9.64
10/27/2022 11:45:00 PM 9.01 48.218 0.09 6.97 165.92 9.63
10/28/2022 12:00:00 AM 8.93 48.074 0.09 6.97 165.97 9.68
10/28/2022 12:15:00 AM 8.84 47.912 0.09 6.97 166.06 9.69
10/28/2022 12:30:00 AM 8.76 47.768 0.09 6.97 166 9.72
10/28/2022 12:45:00 AM 8.67 47.606 0.09 6.96 165.85 9.72
10/28/2022 1:00:00 AM 8.58 47.444 0.09 6.96 165.64 9.75
10/28/2022 1:15:00 AM 8.49 47.282 0.09 6.95 165.48 9.8
10/28/2022 1:30:00 AM 8.4 47.12 0.09 6.95 165.36 9.84
10/28/2022 1:45:00 AM 8.31 46.958 0.09 6.94 165.57 9.86
10/28/2022 2:00:00 AM 8.22 46.796 0.09 6.93 165.76 9.76
10/28/2022 2:15:00 AM 8.13 46.634 0.09 6.94 165.69 9.7
10/28/2022 2:30:00 AM 8.04 46.472 0.09 6.95 165.66 9.92
10/28/2022 2:45:00 AM 7.95 46.31 0.09 6.95 165.51 9.93
10/28/2022 3:00:00 AM 7.87 46.166 0.09 6.95 165.36 9.88
10/28/2022 3:15:00 AM 7.78 46.004 0.091 6.94 165.29 9.74
10/28/2022 3:30:00 AM 7.7 45.86 0.091 6.95 165.38 9.54
10/28/2022 3:45:00 AM 7.62 45.716 0.091 6.93 165.48 9.54
10/28/2022 4:00:00 AM 7.53 45.554 0.091 6.93 165.52 9.65
10/28/2022 4:15:00 AM 7.45 45.41 0.091 6.93 165.54 9.75
10/28/2022 4:30:00 AM 7.37 45.266 0.09 6.95 165.48 9.77
10/28/2022 4:45:00 AM 7.29 45.122 0.091 6.95 165.45 9.87
10/28/2022 5:00:00 AM 7.22 44.996 0.091 6.95 165.33 9.65
10/28/2022 5:15:00 AM 7.15 44.87 0.091 6.96 165.36 9.34
10/28/2022 5:30:00 AM 7.07 44.726 0.091 6.95 165.38 9.22
10/28/2022 5:45:00 AM 7 44.6 0.091 6.95 165.55 9.13
10/28/2022 6:00:00 AM 6.93 44.474 0.091 6.96 165.59 9.25
10/28/2022 6:15:00 AM 6.86 44.348 0.091 6.96 165.68 9.4
10/28/2022 6:30:00 AM 6.79 44.222 0.091 6.95 165.62 9.55
10/28/2022 6:45:00 AM 6.72 44.096 0.091 6.95 165.54 9.57
10/28/2022 7:00:00 AM 6.64 43.952 0.091 6.96 165.48 9.57
10/28/2022 7:15:00 AM 6.57 43.826 0.091 6.97 165.37 9.67
10/28/2022 7:30:00 AM 6.5 43.7 0.091 6.97 165.32 9.81
10/28/2022 7:45:00 AM 6.44 43.592 0.091 6.96 165.36 9.88
10/28/2022 8:00:00 AM 6.37 43.466 0.091 6.95 165.79 9.98
10/28/2022 8:15:00 AM 6.31 43.358 0.091 6.94 166.03 10.05
10/28/2022 8:30:00 AM 6.26 43.268 0.091 6.97 166.03 10.07
10/28/2022 8:45:00 AM 6.23 43.214 0.091 6.98 166.02 10.09
10/28/2022 9:00:00 AM 6.2 43.16 0.091 6.99 166.16 9.98
10/28/2022 9:15:00 AM 6.19 43.142 0.091 7.02 166.06 9.66
10/28/2022 9:30:00 AM 6.19 43.142 0.091 7.04 166.13 9.25
10/28/2022 9:45:00 AM 6.21 43.178 0.091 7.06 166.18 8.83
10/28/2022 10:00:00 AM 6.23 43.214 0.091 7.08 166.22 8.56
10/28/2022 10:15:00 AM 6.27 43.286 0.091 7.09 166.18 8.42
10/28/2022 10:30:00 AM 6.32 43.376 0.091 7.1 166.09 8.33
10/28/2022 10:45:00 AM 6.36 43.448 0.091 7.12 166 8.08
10/28/2022 11:00:00 AM 6.42 43.556 0.091 7.14 166.01 8.08
10/28/2022 11:15:00 AM 6.47 43.646 0.091 7.15 166.26 8.24
10/28/2022 11:30:00 AM 6.55 43.79 0.091 7.15 166.38 8.12
10/28/2022 11:45:00 AM 6.64 43.952 0.091 7.15 166.28 8.06
10/28/2022 12:00:00 PM 6.72 44.096 0.091 7.15 166.29 7.83
10/28/2022 12:15:00 PM 6.8 44.24 0.091 7.15 166.25 7.74
10/28/2022 12:30:00 PM 6.89 44.402 0.091 7.14 166.18 7.69
10/28/2022 12:45:00 PM 6.98 44.564 0.091 7.14 166.1 7.64
10/28/2022 1:00:00 PM 7.06 44.708 0.091 7.13 166.59 7.53
10/28/2022 1:15:00 PM 7.14 44.852 0.091 7.15 166.42 7.41
10/28/2022 1:30:00 PM 7.22 44.996 0.091 7.14 166.4 7.34
10/28/2022 1:45:00 PM 7.3 45.14 0.09 7.14 167.16 7.3
10/28/2022 2:00:00 PM 7.38 45.284 0.091 7.15 166.93 7.22
10/28/2022 2:15:00 PM 7.46 45.428 0.091 7.15 166.85 7.12
10/28/2022 2:30:00 PM 7.54 45.572 0.09 7.14 166.94 7.17
10/28/2022 2:45:00 PM 7.61 45.698 0.09 7.12 167.01 7.32
10/28/2022 3:00:00 PM 7.69 45.842 0.09 7.11 166.75 7.36
10/28/2022 3:15:00 PM 7.78 46.004 0.09 7.1 166.55 7.39
10/28/2022 3:30:00 PM 7.87 46.166 0.09 7.1 166.65 7.42
10/28/2022 3:45:00 PM 7.96 46.328 0.089 7.1 168 7.58
10/28/2022 4:00:00 PM 8.04 46.472 0.09 7.11 168.03 7.52
10/28/2022 4:15:00 PM 8.12 46.616 0.09 7.11 168.01 7.2
10/28/2022 4:30:00 PM 8.18 46.724 0.09 7.11 167.97 6.99
10/28/2022 4:45:00 PM 8.24 46.832 0.09 7.12 167.78 6.63
10/28/2022 5:00:00 PM 8.29 46.922 0.09 7.12 167.64 6.54
10/28/2022 5:15:00 PM 8.33 46.994 0.09 7.12 167.76 6.46
10/28/2022 5:30:00 PM 8.37 47.066 0.09 7.13 167.46 6.39
10/28/2022 5:45:00 PM 8.4 47.12 0.09 7.12 167.48 6.38
10/28/2022 6:00:00 PM 8.41 47.138 0.09 7.14 167.56 6.31
10/28/2022 6:15:00 PM 8.39 47.102 0.09 7.12 167.52 6.45
10/28/2022 6:30:00 PM 8.35 47.03 0.091 7.11 167.61 6.33
10/28/2022 6:45:00 PM 8.3 46.94 0.09 7.1 167.76 6.34
10/28/2022 7:00:00 PM 8.24 46.832 0.09 7.09 167.82 6.29
10/28/2022 7:15:00 PM 8.19 46.742 0.09 7.07 168.21 6.41
10/28/2022 7:30:00 PM 8.13 46.634 0.091 7.06 168.24 6.38
10/28/2022 7:45:00 PM 8.08 46.544 0.091 7.05 167.3 6.36
10/28/2022 8:00:00 PM 8.03 46.454 0.091 7.05 167.21 6.41
10/28/2022 8:15:00 PM 7.97 46.346 0.091 7.05 167.06 6.4
10/28/2022 8:30:00 PM 7.92 46.256 0.091 7.03 166.94 6.29
10/28/2022 8:45:00 PM 7.86 46.148 0.091 7.02 166.89 6.17
10/28/2022 9:00:00 PM 7.8 46.04 0.091 7.01 166.8 6.09
10/28/2022 9:15:00 PM 7.74 45.932 0.091 6.99 166.98 6.26
10/28/2022 9:30:00 PM 7.69 45.842 0.091 6.98 167.07 6.31
10/28/2022 9:45:00 PM 7.63 45.734 0.091 6.98 167.43 6.42
10/28/2022 10:00:00 PM 7.57 45.626 0.091 6.97 167.99 6.28
10/28/2022 10:15:00 PM 7.51 45.518 0.091 6.96 168.29 6.65
10/28/2022 10:30:00 PM 7.44 45.392 0.091 6.96 168.23 6.84
10/28/2022 10:45:00 PM 7.37 45.266 0.091 6.94 167.98 6.88
10/28/2022 11:00:00 PM 7.3 45.14 0.091 6.94 168.03 6.86
10/28/2022 11:15:00 PM 7.23 45.014 0.092 6.94 167.74 6.75
10/28/2022 11:30:00 PM 7.16 44.888 0.092 6.93 167.95 6.6
10/28/2022 11:45:00 PM 7.09 44.762 0.092 6.94 168.27 6.43
10/29/2022 12:00:00 AM 7.01 44.618 0.092 6.93 168.26 6.44
10/29/2022 12:15:00 AM 6.94 44.492 0.092 6.93 168.78 6.53
10/29/2022 12:30:00 AM 6.87 44.366 0.092 6.92 169.33 6.5
10/29/2022 12:45:00 AM 6.8 44.24 0.092 6.92 168.93 6.42
10/29/2022 1:00:00 AM 6.72 44.096 0.092 6.92 169.17 6.48
10/29/2022 1:15:00 AM 6.65 43.97 0.092 6.92 169.3 6.64
10/29/2022 1:30:00 AM 6.58 43.844 0.092 6.94 169.47 6.74
10/29/2022 1:45:00 AM 6.51 43.718 0.092 6.94 168.97 6.8
10/29/2022 2:00:00 AM 6.44 43.592 0.092 6.94 169.22 6.96
10/29/2022 2:15:00 AM 6.37 43.466 0.092 6.94 169.59 7.07
10/29/2022 2:30:00 AM 6.29 43.322 0.092 6.95 169.75 7.25
10/29/2022 2:45:00 AM 6.22 43.196 0.092 6.95 170.56 7.37
10/29/2022 3:00:00 AM 6.15 43.07 0.092 6.96 170.69 7.44
10/29/2022 3:15:00 AM 6.08 42.944 0.092 6.95 171.32 7.52
10/29/2022 3:30:00 AM 6 42.8 0.092 6.96 171.18 7.44
10/29/2022 3:45:00 AM 5.93 42.674 0.092 6.96 171.12 7.56
10/29/2022 4:00:00 AM 5.86 42.548 0.092 6.96 171.05 7.51
10/29/2022 4:15:00 AM 5.79 42.422 0.092 6.96 170.82 7.41
10/29/2022 4:30:00 AM 5.72 42.296 0.092 6.95 171.41 7.34
10/29/2022 4:45:00 AM 5.66 42.188 0.092 6.95 170.83 7.25
10/29/2022 5:00:00 AM 5.59 42.062 0.092 6.95 170.89 7.13
10/29/2022 5:15:00 AM 5.52 41.936 0.092 6.95 171.36 7.06
10/29/2022 5:30:00 AM 5.45 41.81 0.093 6.94 171.3 6.96
10/29/2022 5:45:00 AM 5.38 41.684 0.093 6.95 170.95 6.95
10/29/2022 6:00:00 AM 5.32 41.576 0.093 6.94 171.02 7.09
10/29/2022 6:15:00 AM 5.26 41.468 0.093 6.93 170.97 7.06
10/29/2022 6:30:00 AM 5.19 41.342 0.093 6.93 170.85 7.01
10/29/2022 6:45:00 AM 5.13 41.234 0.093 6.92 171.21 7.04
10/29/2022 7:00:00 AM 5.06 41.108 0.093 6.91 171.65 7.04
10/29/2022 7:15:00 AM 5 41 0.093 6.92 171.61 7.03
10/29/2022 7:30:00 AM 4.94 40.892 0.093 6.93 171.09 6.93
10/29/2022 7:45:00 AM 4.87 40.766 0.093 6.94 170.71 6.88
10/29/2022 8:00:00 AM 4.81 40.658 0.093 6.94 171.16 6.95
10/29/2022 8:15:00 AM 4.76 40.568 0.093 6.94 170.36 7
10/29/2022 8:30:00 AM 4.71 40.478 0.093 6.95 170.54 7.01
10/29/2022 8:45:00 AM 4.66 40.388 0.093 6.95 171 7.06
10/29/2022 9:00:00 AM 4.62 40.316 0.095 6.97 170.48 7.05
10/29/2022 9:15:00 AM 4.6 40.28 0.096 6.99 172.52 6.96
10/29/2022 9:30:00 AM 4.59 40.262 0.095 6.99 172.24 7.23
10/29/2022 9:45:00 AM 4.6 40.28 0.094 7 172.17 7.44
10/29/2022 10:00:00 AM 4.62 40.316 0.093 7 171.46 7.48
10/29/2022 10:15:00 AM 4.64 40.352 0.093 7.02 171.61 7.4
10/29/2022 10:30:00 AM 4.68 40.424 0.093 7.04 171.5 7.22
10/29/2022 10:45:00 AM 4.73 40.514 0.093 7.06 171.64 7.34
10/29/2022 11:00:00 AM 4.79 40.622 0.093 7.07 171.8 7.52
10/29/2022 11:15:00 AM 4.86 40.748 0.093 7.08 171.86 7.58
10/29/2022 11:30:00 AM 4.94 40.892 0.093 7.1 170.7 7.47
10/29/2022 11:45:00 AM 5.03 41.054 0.093 7.11 171.19 7.44
10/29/2022 12:00:00 PM 5.14 41.252 0.093 7.12 171.25 7.53
10/29/2022 12:15:00 PM 5.25 41.45 0.093 7.14 171.47 7.47
10/29/2022 12:30:00 PM 5.36 41.648 0.092 7.15 171.67 7.63
10/29/2022 12:45:00 PM 5.46 41.828 0.093 7.14 171.63 7.8
10/29/2022 1:00:00 PM 5.57 42.026 0.092 7.15 171.67 7.76
10/29/2022 1:15:00 PM 5.66 42.188 0.093 7.14 171.46 7.88
10/29/2022 1:30:00 PM 5.75 42.35 0.092 7.15 171.38 8.01
10/29/2022 1:45:00 PM 5.85 42.53 0.093 7.15 171.25 8.13
10/29/2022 2:00:00 PM 5.96 42.728 0.093 7.15 171.36 8.1
10/29/2022 2:15:00 PM 6.08 42.944 0.092 7.15 171.7 8.01
10/29/2022 2:30:00 PM 6.2 43.16 0.092 7.16 171.74 7.91
10/29/2022 2:45:00 PM 6.31 43.358 0.093 7.17 171.85 7.72
10/29/2022 3:00:00 PM 6.42 43.556 0.093 7.17 171.48 7.53
10/29/2022 3:15:00 PM 6.5 43.7 0.092 7.17 171.42 7.38
10/29/2022 3:30:00 PM 6.58 43.844 0.093 7.16 171.51 7.24
10/29/2022 3:45:00 PM 6.64 43.952 0.093 7.16 171.65 7.03
10/29/2022 4:00:00 PM 6.71 44.078 0.093 7.16 171.83 6.84
10/29/2022 4:15:00 PM 6.76 44.168 0.093 7.16 171.91 6.61
10/29/2022 4:30:00 PM 6.81 44.258 0.093 7.16 171.93 6.56
10/29/2022 4:45:00 PM 6.84 44.312 0.093 7.15 171.78 6.46
10/29/2022 5:00:00 PM 6.86 44.348 0.093 7.14 171.82 6.51
10/29/2022 5:15:00 PM 6.86 44.348 0.093 7.14 171.82 6.41
10/29/2022 5:30:00 PM 6.85 44.33 0.093 7.14 171.76 6.3
10/29/2022 5:45:00 PM 6.83 44.294 0.093 7.13 171.79 6.19
10/29/2022 6:00:00 PM 6.8 44.24 0.093 7.11 171.72 6.27
10/29/2022 6:15:00 PM 6.77 44.186 0.093 7.12 171.77 6.35
10/29/2022 6:30:00 PM 6.74 44.132 0.093 7.11 171.65 6.44
10/29/2022 6:45:00 PM 6.71 44.078 0.093 7.08 171.72 6.55
10/29/2022 7:00:00 PM 6.68 44.024 0.093 7.08 171.65 6.45
10/29/2022 7:15:00 PM 6.66 43.988 0.093 7.05 171.63 6.46
10/29/2022 7:30:00 PM 6.63 43.934 0.093 7.05 171.61 6.41
10/29/2022 7:45:00 PM 6.61 43.898 0.093 7.02 171.6 6.54
10/29/2022 8:00:00 PM 6.58 43.844 0.093 7.02 171.51 6.79
10/29/2022 8:15:00 PM 6.56 43.808 0.093 7.02 171.42 6.74
10/29/2022 8:30:00 PM 6.53 43.754 0.093 7.01 171.44 6.6
10/29/2022 8:45:00 PM 6.5 43.7 0.093 6.99 171.4 6.81
10/29/2022 9:00:00 PM 6.47 43.646 0.093 6.98 171.34 6.93
10/29/2022 9:15:00 PM 6.44 43.592 0.093 6.98 171.27 7.07
10/29/2022 9:30:00 PM 6.42 43.556 0.093 6.97 171.23 7.17
10/29/2022 9:45:00 PM 6.39 43.502 0.093 6.97 171.11 7.22
10/29/2022 10:00:00 PM 6.36 43.448 0.094 6.97 171.37 7.15
10/29/2022 10:15:00 PM 6.33 43.394 0.094 6.96 171.53 7.02
10/29/2022 10:30:00 PM 6.29 43.322 0.094 6.95 171.35 6.94
10/29/2022 10:45:00 PM 6.26 43.268 0.094 6.94 171.52 6.87
10/29/2022 11:00:00 PM 6.21 43.178 0.094 6.93 170.59 6.84
10/29/2022 11:15:00 PM 6.17 43.106 0.094 6.94 170.66 6.92
10/29/2022 11:30:00 PM 6.11 42.998 0.094 6.94 170.72 7.13
10/29/2022 11:45:00 PM 6.06 42.908 0.094 6.93 171.11 7.32
10/30/2022 12:00:00 AM 6.01 42.818 0.094 6.93 170.91 7.53
10/30/2022 12:15:00 AM 5.95 42.71 0.094 6.92 171.35 7.7
10/30/2022 12:30:00 AM 5.89 42.602 0.094 6.92 171.01 7.86
10/30/2022 12:45:00 AM 5.83 42.494 0.094 6.91 171.37 7.97
10/30/2022 1:00:00 AM 5.77 42.386 0.094 6.91 171.39 8.07
10/30/2022 1:15:00 AM 5.72 42.296 0.094 6.94 171.49 8.08
10/30/2022 1:30:00 AM 5.66 42.188 0.094 6.93 171.53 8.12
10/30/2022 1:45:00 AM 5.6 42.08 0.094 6.9 171.71 8.11
10/30/2022 2:00:00 AM 5.54 41.972 0.094 6.86 171.66 8.09
10/30/2022 2:15:00 AM 5.48 41.864 0.095 6.86 171.72 8.06
10/30/2022 2:30:00 AM 5.42 41.756 0.095 6.88 171.75 7.91
10/30/2022 2:45:00 AM 5.36 41.648 0.095 6.87 171.46 7.87
10/30/2022 3:00:00 AM 5.3 41.54 0.095 6.87 171.7 7.85
10/30/2022 3:15:00 AM 5.23 41.414 0.095 6.89 171.64 7.93
10/30/2022 3:30:00 AM 5.17 41.306 0.095 6.88 171.63 8.09
10/30/2022 3:45:00 AM 5.1 41.18 0.095 6.88 171.99 8.23
10/30/2022 4:00:00 AM 5.04 41.072 0.095 6.88 170.99 8.33
10/30/2022 4:15:00 AM 4.98 40.964 0.095 6.89 171.19 8.44
10/30/2022 4:30:00 AM 4.91 40.838 0.095 6.9 171.12 8.57
10/30/2022 4:45:00 AM 4.84 40.712 0.095 6.91 171.11 8.7
10/30/2022 5:00:00 AM 4.77 40.586 0.095 6.92 171.04 8.77
10/30/2022 5:15:00 AM 4.71 40.478 0.095 6.92 171.26 8.75
10/30/2022 5:30:00 AM 4.64 40.352 0.096 6.92 171.32 8.57
10/30/2022 5:45:00 AM 4.57 40.226 0.096 6.93 171.56 8.5
10/30/2022 6:00:00 AM 4.5 40.1 0.096 6.93 171.54 8.47
10/30/2022 6:15:00 AM 4.44 39.992 0.096 6.93 171.64 8.47
10/30/2022 6:30:00 AM 4.37 39.866 0.096 6.94 171.67 8.45
10/30/2022 6:45:00 AM 4.31 39.758 0.096 6.94 171.66 8.44
10/30/2022 7:00:00 AM 4.24 39.632 0.096 6.94 171.69 8.39
10/30/2022 7:15:00 AM 4.18 39.524 0.096 6.94 171.58 8.26
10/30/2022 7:30:00 AM 4.13 39.434 0.097 6.94 171.13 8.19
10/30/2022 7:45:00 AM 4.07 39.326 0.097 6.94 170.51 8.13
10/30/2022 8:00:00 AM 4.02 39.236 0.097 6.95 171.22 8.01
10/30/2022 8:15:00 AM 3.97 39.146 0.096 6.96 170.82 8.02
10/30/2022 8:30:00 AM 3.92 39.056 0.096 6.97 171.21 8.15
10/30/2022 8:45:00 AM 3.87 38.966 0.096 6.98 171.22 8.26
10/30/2022 9:00:00 AM 3.83 38.894 0.096 6.99 171.39 8.33
10/30/2022 9:15:00 AM 3.81 38.858 0.096 7 171.49 8.57
10/30/2022 9:30:00 AM 3.8 38.84 0.096 7.01 171.46 8.76
10/30/2022 9:45:00 AM 3.81 38.858 0.096 7.02 171.24 8.88
10/30/2022 10:00:00 AM 3.83 38.894 0.096 7.03 171.58 8.93
10/30/2022 10:15:00 AM 3.86 38.948 0.096 7.04 171.83 8.98
10/30/2022 10:30:00 AM 3.9 39.02 0.096 7.04 171.82 9
10/30/2022 10:45:00 AM 3.94 39.092 0.096 7.07 171.81 9.05
10/30/2022 11:00:00 AM 4 39.2 0.095 7.07 171.75 9.06
10/30/2022 11:15:00 AM 4.07 39.326 0.095 7.07 172 9.09
10/30/2022 11:30:00 AM 4.14 39.452 0.095 7.11 172.19 9.22
10/30/2022 11:45:00 AM 4.24 39.632 0.095 7.11 172.21 9.4
10/30/2022 12:00:00 PM 4.35 39.83 0.095 7.13 171.51 9.51
10/30/2022 12:15:00 PM 4.46 40.028 0.095 7.14 171.68 9.53
10/30/2022 12:30:00 PM 4.58 40.244 0.095 7.14 171.68 9.52
10/30/2022 12:45:00 PM 4.69 40.442 0.095 7.13 171.77 9.58
10/30/2022 1:00:00 PM 4.8 40.64 0.095 7.14 171.9 9.59
10/30/2022 1:15:00 PM 4.92 40.856 0.095 7.14 171.92 9.66
10/30/2022 1:30:00 PM 5.03 41.054 0.095 7.15 171.95 9.76
10/30/2022 1:45:00 PM 5.11 41.198 0.095 7.13 171.72 9.83
10/30/2022 2:00:00 PM 5.19 41.342 0.095 7.12 171.75 9.87
10/30/2022 2:15:00 PM 5.31 41.558 0.095 7.13 171.99 9.89
10/30/2022 2:30:00 PM 5.47 41.846 0.094 7.14 172.11 9.92
10/30/2022 2:45:00 PM 5.63 42.134 0.094 7.16 172.04 9.93
10/30/2022 3:00:00 PM 5.71 42.278 0.094 7.17 171.89 9.77
10/30/2022 3:15:00 PM 5.74 42.332 0.094 7.17 171.9 9.59
10/30/2022 3:30:00 PM 5.78 42.404 0.094 7.17 171.96 9.5
10/30/2022 3:45:00 PM 5.88 42.584 0.094 7.2 172.11 9.52
10/30/2022 4:00:00 PM 6.02 42.836 0.094 7.21 172.3 9.59
10/30/2022 4:15:00 PM 6.15 43.07 0.094 7.21 172.44 9.59
10/30/2022 4:30:00 PM 6.22 43.196 0.094 7.22 172.44 9.57
10/30/2022 4:45:00 PM 6.25 43.25 0.094 7.24 172.44 9.62
10/30/2022 5:00:00 PM 6.25 43.25 0.094 7.19 172.4 9.65
10/30/2022 5:15:00 PM 6.25 43.25 0.094 7.18 172.65 9.82
10/30/2022 5:30:00 PM 6.26 43.268 0.094 7.16 172.6 9.96
10/30/2022 5:45:00 PM 6.28 43.304 0.094 7.15 172.5 10.01
10/30/2022 6:00:00 PM 6.3 43.34 0.094 7.14 172.42 9.99
10/30/2022 6:15:00 PM 6.31 43.358 0.094 7.11 172.3 9.97
10/30/2022 6:30:00 PM 6.33 43.394 0.094 7.1 172.19 9.91
10/30/2022 6:45:00 PM 6.34 43.412 0.094 7.09 172.04 9.84
10/30/2022 7:00:00 PM 6.36 43.448 0.094 7.09 172.14 9.81
10/30/2022 7:15:00 PM 6.37 43.466 0.094 7.09 171.85 9.84
10/30/2022 7:30:00 PM 6.38 43.484 0.094 7.08 171.59 10.28
10/30/2022 7:45:00 PM 6.39 43.502 0.094 7.09 171.48 10.52
10/30/2022 8:00:00 PM 6.39 43.502 0.095 7.09 171.38 10.63
10/30/2022 8:15:00 PM 6.37 43.466 0.095 7.08 171.3 10.72
10/30/2022 8:30:00 PM 6.35 43.43 0.095 7.07 171.38 10.78
10/30/2022 8:45:00 PM 6.33 43.394 0.095 7.08 171.39 10.77
10/30/2022 9:00:00 PM 6.31 43.358 0.095 7.06 171.41 10.76
10/30/2022 9:15:00 PM 6.31 43.358 0.095 7.06 171.54 10.77
10/30/2022 9:30:00 PM 6.3 43.34 0.095 7.05 171.55 10.76
10/30/2022 9:45:00 PM 6.3 43.34 0.095 7.05 171.81 10.74
10/30/2022 10:00:00 PM 6.3 43.34 0.095 7.05 171.68 10.74
10/30/2022 10:15:00 PM 6.29 43.322 0.095 7.05 171.55 10.75
10/30/2022 10:30:00 PM 6.27 43.286 0.095 7.05 171.64 10.74
10/30/2022 10:45:00 PM 6.26 43.268 0.095 7.05 171.55 10.75
10/30/2022 11:00:00 PM 6.23 43.214 0.095 7.05 171.54 10.76
10/30/2022 11:15:00 PM 6.21 43.178 0.095 7.03 171.06 10.78
10/30/2022 11:30:00 PM 6.18 43.124 0.095 7.03 171.09 10.75
10/30/2022 11:45:00 PM 6.15 43.07 0.095 7.03 171.32 10.75
10/31/2022 12:00:00 AM 6.11 42.998 0.095 7.03 171.28 10.72
10/31/2022 12:15:00 AM 6.07 42.926 0.095 7.02 171.33 10.75
10/31/2022 12:30:00 AM 6.02 42.836 0.095 7.02 171.18 10.78
10/31/2022 12:45:00 AM 5.98 42.764 0.095 7.01 171.02 10.84
10/31/2022 1:00:00 AM 5.94 42.692 0.095 7 171.01 10.89
10/31/2022 1:15:00 AM 5.89 42.602 0.095 7.01 170.93 10.91
10/31/2022 1:30:00 AM 5.85 42.53 0.095 6.99 171.21 10.92
10/31/2022 1:45:00 AM 5.81 42.458 0.095 7 172.64 10.93
10/31/2022 2:00:00 AM 5.78 42.404 0.095 7 172.46 10.92
10/31/2022 2:15:00 AM 5.74 42.332 0.095 7 172.63 10.9
10/31/2022 2:30:00 AM 5.7 42.26 0.095 7 172.7 10.87
10/31/2022 2:45:00 AM 5.67 42.206 0.094 7.01 173.04 10.82
10/31/2022 3:00:00 AM 5.64 42.152 0.094 7 172.8 10.84
10/31/2022 3:15:00 AM 5.62 42.116 0.094 7 173.79 10.86
10/31/2022 3:30:00 AM 5.6 42.08 0.094 7 196.96 10.88
10/31/2022 3:45:00 AM 5.59 42.062 0.095 7 196.71 10.88
10/31/2022 4:00:00 AM 5.57 42.026 0.094 7 196.26 10.86
10/31/2022 4:15:00 AM 5.56 42.008 0.095 7.01 196.06 10.88
10/31/2022 4:30:00 AM 5.53 41.954 0.095 7.01 196.08 10.9
10/31/2022 4:45:00 AM 5.5 41.9 0.095 7.01 195.74 10.95
10/31/2022 5:00:00 AM 5.47 41.846 0.095 7.01 196.13 10.99
10/31/2022 5:15:00 AM 5.42 41.756 0.095 7.01 195.83 11.05
10/31/2022 5:30:00 AM 5.38 41.684 0.095 7 195.63 11.08
10/31/2022 5:45:00 AM 5.34 41.612 0.095 7 195.4 11.08
10/31/2022 6:00:00 AM 5.3 41.54 0.095 7 195.17 11.09
10/31/2022 6:15:00 AM 5.28 41.504 0.095 7 194.99 11.11
10/31/2022 6:30:00 AM 5.26 41.468 0.095 7 194.85 11.12
10/31/2022 6:45:00 AM 5.26 41.468 0.095 7 195.27 11.15
10/31/2022 7:00:00 AM 5.27 41.486 0.095 7.01 195.21 11.14
10/31/2022 7:15:00 AM 5.28 41.504 0.094 7.01 195.04 11.15
10/31/2022 7:30:00 AM 5.28 41.504 0.095 7.01 195.08 11.2
10/31/2022 7:45:00 AM 5.28 41.504 0.095 7.01 195.09 11.25
10/31/2022 8:00:00 AM 5.28 41.504 0.095 7.02 194.18 11.26
10/31/2022 8:15:00 AM 5.28 41.504 0.095 7.02 193.93 11.26
10/31/2022 8:30:00 AM 5.29 41.522 0.094 7.03 193.69 11.27
10/31/2022 8:45:00 AM 5.31 41.558 0.095 7.03 194.3 11.28
10/31/2022 9:00:00 AM 5.33 41.594 0.094 7.04 193.82 11.3
10/31/2022 9:15:00 AM 5.37 41.666 0.094 7.05 193.51 11.34
10/31/2022 9:30:00 AM 5.42 41.756 0.094 7.07 193.48 11.41
10/31/2022 9:45:00 AM 5.48 41.864 0.094 7.08 192.66 11.5
10/31/2022 10:00:00 AM 5.54 41.972 0.094 7.1 190.3 11.59
10/31/2022 10:15:00 AM 5.6 42.08 0.094 7.11 189.8 11.63
10/31/2022 10:30:00 AM 5.66 42.188 0.094 7.13 190.15 11.67
10/31/2022 10:45:00 AM 5.73 42.314 0.094 7.14 189.99 11.69
10/31/2022 11:00:00 AM 5.81 42.458 0.093 7.15 190.02 11.74
10/31/2022 11:15:00 AM 5.92 42.656 0.093 7.17 190.14 11.77
10/31/2022 11:30:00 AM 6.04 42.872 0.093 7.18 190.67 11.78
10/31/2022 11:45:00 AM 6.16 43.088 0.093 7.2 190.95 11.78
10/31/2022 12:00:00 PM 6.27 43.286 0.093 7.2 191.31 11.75
10/31/2022 12:15:00 PM 6.38 43.484 0.093 7.21 192.64 11.78
10/31/2022 12:30:00 PM 6.5 43.7 0.093 7.22 207.16 11.8
10/31/2022 12:45:00 PM 6.62 43.916 0.093 7.22 207.93 11.77
10/31/2022 1:00:00 PM 6.73 44.114 0.093 7.23 208.34 11.74
10/31/2022 1:15:00 PM 6.85 44.33 0.093 7.24 208.26 11.73
10/31/2022 1:30:00 PM 6.95 44.51 0.093 7.24 207.81 11.7
10/31/2022 1:45:00 PM 7.07 44.726 0.093 7.26 207.42 11.66
10/31/2022 2:00:00 PM 7.18 44.924 0.093 7.26 207.35 11.62
10/31/2022 2:15:00 PM 7.27 45.086 0.092 7.26 207.91 11.57
10/31/2022 2:30:00 PM 7.36 45.248 0.092 7.26 207.87 11.56
10/31/2022 2:45:00 PM 7.43 45.374 0.092 7.25 207.68 11.55
10/31/2022 3:00:00 PM 7.49 45.482 0.092 7.25 207.19 11.49
10/31/2022 3:15:00 PM 7.54 45.572 0.092 7.25 204.48 11.43
10/31/2022 3:30:00 PM 7.58 45.644 0.092 7.25 203.52 11.35
10/31/2022 3:45:00 PM 7.62 45.716 0.092 7.25 203.37 11.27
10/31/2022 4:00:00 PM 7.66 45.788 0.092 7.24 204.01 11.23
10/31/2022 4:15:00 PM 7.69 45.842 0.092 7.24 203.04 11.23
10/31/2022 4:30:00 PM 7.72 45.896 0.092 7.23 202.32 11.21
10/31/2022 4:45:00 PM 7.75 45.95 0.092 7.23 201.77 11.17
10/31/2022 5:00:00 PM 7.78 46.004 0.092 7.21 201.8 11.11
10/31/2022 5:15:00 PM 7.83 46.094 0.091 7.04 191.45 11.75
10/31/2022 5:30:00 PM 7.84 46.112 0.092 7.08 190.19 11.73
10/31/2022 5:45:00 PM 7.85 46.13 0.092 7.08 188.51 11.66
10/31/2022 6:00:00 PM 7.85 46.13 0.092 7.07 187.33 11.57
10/31/2022 6:15:00 PM 7.86 46.148 0.092 7.06 186.6 11.49
10/31/2022 6:30:00 PM 7.87 46.166 0.092 7.06 186.23 11.42
10/31/2022 6:45:00 PM 7.87 46.166 0.092 7.05 185.31 11.38
10/31/2022 7:00:00 PM 7.89 46.202 0.092 7.04 185.39 11.36
10/31/2022 7:15:00 PM 7.9 46.22 0.092 7.02 184.57 11.33
10/31/2022 7:30:00 PM 7.9 46.22 0.092 7.01 183.95 11.3
10/31/2022 7:45:00 PM 7.91 46.238 0.092 7 183.46 11.28
10/31/2022 8:00:00 PM 7.91 46.238 0.092 6.99 182.86 11.26
10/31/2022 8:15:00 PM 7.92 46.256 0.092 6.95 182.03 11.25
10/31/2022 8:30:00 PM 7.92 46.256 0.092 6.96 181.53 11.23
10/31/2022 8:45:00 PM 7.92 46.256 0.092 6.95 180.44 11.22
10/31/2022 9:00:00 PM 7.93 46.274 0.093 6.94 180.94 11.2
10/31/2022 9:15:00 PM 7.93 46.274 0.093 6.94 180.67 11.19
10/31/2022 9:30:00 PM 7.94 46.292 0.093 6.94 179.92 11.18
10/31/2022 9:45:00 PM 7.95 46.31 0.093 6.93 179.15 11.17
10/31/2022 10:00:00 PM 7.95 46.31 0.093 6.93 178.84 11.16
10/31/2022 10:15:00 PM 7.96 46.328 0.093 6.93 178.41 11.15
10/31/2022 10:30:00 PM 7.97 46.346 0.093 6.93 178.36 11.15
10/31/2022 10:45:00 PM 7.98 46.364 0.093 6.92 178.1 11.14
10/31/2022 11:00:00 PM 7.99 46.382 0.093 6.92 177.74 11.13
10/31/2022 11:15:00 PM 8 46.4 0.093 6.92 177.33 11.11
10/31/2022 11:30:00 PM 8.01 46.418 0.093 6.92 177.21 11.1
10/31/2022 11:45:00 PM 8.02 46.436 0.093 6.92 176.49 11.09
11/1/2022 12:00:00 AM 8.03 46.454 0.093 6.92 170.76 11.08
11/1/2022 12:15:00 AM 8.04 46.472 0.093 6.92 164.23 11.08
11/1/2022 12:30:00 AM 8.05 46.49 0.093 6.92 163.86 11.07
11/1/2022 12:45:00 AM 8.06 46.508 0.093 6.91 164 11.06
11/1/2022 1:00:00 AM 8.07 46.526 0.093 6.9 163.57 11.11
11/1/2022 1:15:00 AM 8.09 46.562 0.093 6.9 163.55 11.1
11/1/2022 1:30:00 AM 8.1 46.58 0.093 6.92 163.44 11.08
11/1/2022 1:45:00 AM 8.12 46.616 0.093 6.91 162.42 11.08
11/1/2022 2:00:00 AM 8.13 46.634 0.094 6.91 168.57 11.06
11/1/2022 2:15:00 AM 8.14 46.652 0.094 6.91 161.39 11.06
11/1/2022 2:30:00 AM 8.16 46.688 0.094 6.91 160.14 11.07
11/1/2022 2:45:00 AM 8.17 46.706 0.094 6.9 160.93 11.07
11/1/2022 3:00:00 AM 8.18 46.724 0.094 6.91 160.92 11.07
11/1/2022 3:15:00 AM 8.2 46.76 0.094 6.91 161.01 11.06
11/1/2022 3:30:00 AM 8.21 46.778 0.094 6.91 162.18 11.06
11/1/2022 3:45:00 AM 8.23 46.814 0.094 6.91 161.88 11.06
11/1/2022 4:00:00 AM 8.24 46.832 0.094 6.9 161.7 11.05
11/1/2022 4:15:00 AM 8.25 46.85 0.094 6.9 161.5 11.05
11/1/2022 4:30:00 AM 8.27 46.886 0.094 6.9 161.92 11.03
11/1/2022 4:45:00 AM 8.28 46.904 0.094 6.9 162 11.03
11/1/2022 5:00:00 AM 8.31 46.958 0.094 6.9 159.29 11.01
11/1/2022 5:15:00 AM 8.34 47.012 0.093 6.9 157.37 11
11/1/2022 5:30:00 AM 8.35 47.03 0.093 6.89 156.88 10.99
11/1/2022 5:45:00 AM 8.37 47.066 0.093 6.88 156.49 10.97
11/1/2022 6:00:00 AM 8.38 47.084 0.093 6.88 155.35 10.96
11/1/2022 6:15:00 AM 8.39 47.102 0.093 6.88 154.98 10.96
11/1/2022 6:30:00 AM 8.4 47.12 0.094 6.88 154.56 10.96
11/1/2022 6:45:00 AM 8.4 47.12 0.094 6.88 154.25 10.95
11/1/2022 7:00:00 AM 8.41 47.138 0.094 6.88 154.41 10.95
11/1/2022 7:15:00 AM 8.42 47.156 0.094 6.88 154.65 10.94
11/1/2022 7:30:00 AM 8.43 47.174 0.094 6.87 154.49 10.94
11/1/2022 7:45:00 AM 8.45 47.21 0.094 6.87 154.36 10.93
11/1/2022 8:00:00 AM 8.46 47.228 0.094 6.88 154.38 10.94
11/1/2022 8:15:00 AM 8.47 47.246 0.094 6.88 154.56 10.93
11/1/2022 8:30:00 AM 8.49 47.282 0.094 6.88 154.95 10.95
11/1/2022 8:45:00 AM 8.51 47.318 0.094 6.89 154.77 10.99
11/1/2022 9:00:00 AM 8.54 47.372 0.093 6.9 155.19 11.04
11/1/2022 9:15:00 AM 8.57 47.426 0.093 6.92 155.12 11.1
11/1/2022 9:30:00 AM 8.6 47.48 0.093 6.93 154.9 11.17
11/1/2022 9:45:00 AM 8.65 47.57 0.093 6.95 156.05 11.24
11/1/2022 10:00:00 AM 8.7 47.66 0.093 6.97 156.16 11.31
11/1/2022 10:15:00 AM 8.79 47.822 0.093 7 155.48 11.42
11/1/2022 10:30:00 AM 8.88 47.984 0.093 7.02 153.49 11.5
11/1/2022 10:45:00 AM 8.96 48.128 0.093 7.06 152.95 11.52
11/1/2022 11:00:00 AM 9.06 48.308 0.092 7.07 152.83 11.56
11/1/2022 11:15:00 AM 9.16 48.488 0.092 7.09 152.61 11.59
11/1/2022 11:30:00 AM 9.29 48.722 0.092 7.11 152.64 11.64
11/1/2022 11:45:00 AM 9.37 48.866 0.092 7.14 152.44 11.65
11/1/2022 12:00:00 PM 9.42 48.956 0.092 7.15 152.15 11.63
11/1/2022 12:15:00 PM 9.51 49.118 0.092 7.16 152.27 11.65
11/1/2022 12:30:00 PM 9.64 49.352 0.092 7.18 152.41 11.65
11/1/2022 12:45:00 PM 9.78 49.604 0.092 7.2 153.01 11.66
11/1/2022 1:00:00 PM 9.93 49.874 0.092 7.23 153.1 11.66
11/1/2022 1:15:00 PM 10.01 50.018 0.092 7.24 153.16 11.63
11/1/2022 1:30:00 PM 10.14 50.252 0.092 7.25 152.43 11.63
11/1/2022 1:45:00 PM 10.26 50.468 0.092 7.26 151.88 11.62
11/1/2022 2:00:00 PM 10.39 50.702 0.091 7.28 149.07 11.61
11/1/2022 2:15:00 PM 10.5 50.9 0.091 7.28 149.93 11.57
11/1/2022 2:30:00 PM 10.65 51.17 0.091 7.3 150.04 11.55
11/1/2022 2:45:00 PM 10.8 51.44 0.091 7.32 150.39 11.51
11/1/2022 3:00:00 PM 10.86 51.548 0.091 7.32 150.26 11.48
11/1/2022 3:15:00 PM 10.94 51.692 0.091 7.32 150.23 11.44
11/1/2022 3:30:00 PM 11.02 51.836 0.091 7.33 150.44 11.41
11/1/2022 3:45:00 PM 11.04 51.872 0.091 7.31 150.37 11.33
11/1/2022 4:00:00 PM 11.04 51.872 0.091 7.29 150.48 11.26
11/1/2022 4:15:00 PM 11.04 51.872 0.091 7.28 150.53 11.18
11/1/2022 4:30:00 PM 11.06 51.908 0.091 7.26 150.74 11.13
11/1/2022 4:45:00 PM 11.1 51.98 0.091 7.25 151.06 11.07
11/1/2022 5:00:00 PM 11.13 52.034 0.091 7.24 151.4 11
11/1/2022 5:15:00 PM 11.14 52.052 0.091 7.22 151.66 10.93
11/1/2022 5:30:00 PM 11.14 52.052 0.091 7.21 151.76 10.82
11/1/2022 5:45:00 PM 11.14 52.052 0.092 7.19 151.28 10.73
11/1/2022 6:00:00 PM 11.13 52.034 0.092 7.17 151.25 10.65
11/1/2022 6:15:00 PM 11.11 51.998 0.092 7.14 151.78 10.57
11/1/2022 6:30:00 PM 11.1 51.98 0.092 7.12 152.23 10.5
11/1/2022 6:45:00 PM 11.07 51.926 0.092 7.1 152.23 10.43
11/1/2022 7:00:00 PM 11.02 51.836 0.092 7.08 152.7 10.4
11/1/2022 7:15:00 PM 10.96 51.728 0.092 7.07 152.86 10.38
11/1/2022 7:30:00 PM 10.91 51.638 0.092 7.05 153.28 10.36
11/1/2022 7:45:00 PM 10.86 51.548 0.092 7.04 153.88 10.35
11/1/2022 8:00:00 PM 10.8 51.44 0.092 7.03 154.14 10.33
11/1/2022 8:15:00 PM 10.75 51.35 0.092 7.02 155.09 10.32
11/1/2022 8:30:00 PM 10.7 51.26 0.092 7.01 154.48 10.32
11/1/2022 8:45:00 PM 10.65 51.17 0.092 7 155.11 10.33
11/1/2022 9:00:00 PM 10.59 51.062 0.092 7 155.39 10.33
11/1/2022 9:15:00 PM 10.54 50.972 0.092 6.99 155.72 10.32
11/1/2022 9:30:00 PM 10.51 50.918 0.092 6.98 155.81 10.32
11/1/2022 9:45:00 PM 10.46 50.828 0.093 6.98 155.76 10.32
11/1/2022 10:00:00 PM 10.4 50.72 0.093 6.97 155.55 10.33
11/1/2022 10:15:00 PM 10.35 50.63 0.093 6.96 155.64 10.34
11/1/2022 10:30:00 PM 10.33 50.594 0.093 6.96 155.59 10.35
11/1/2022 10:45:00 PM 10.31 50.558 0.093 6.96 155.58 10.36
11/1/2022 11:00:00 PM 10.29 50.522 0.093 6.96 155.63 10.36
11/1/2022 11:15:00 PM 10.28 50.504 0.093 6.96 156.09 10.35
11/1/2022 11:30:00 PM 10.27 50.486 0.093 6.96 155.74 10.36
11/1/2022 11:45:00 PM 10.24 50.432 0.093 6.97 155.95 10.36
11/2/2022 12:00:00 AM 10.21 50.378 0.093 6.97 155.79 10.34
11/2/2022 12:15:00 AM 10.19 50.342 0.093 6.96 156.02 10.34
11/2/2022 12:30:00 AM 10.16 50.288 0.093 6.96 155.96 10.34
11/2/2022 12:45:00 AM 10.12 50.216 0.093 6.95 156.09 10.35
11/2/2022 1:00:00 AM 10.07 50.126 0.093 6.95 155.9 10.36
11/2/2022 1:15:00 AM 10.02 50.036 0.093 6.94 155.82 10.38
11/2/2022 1:30:00 AM 9.98 49.964 0.093 6.95 155.73 10.38
11/2/2022 1:45:00 AM 9.93 49.874 0.093 6.95 155.89 10.4
11/2/2022 2:00:00 AM 9.89 49.802 0.092 6.94 155.92 10.39
11/2/2022 2:15:00 AM 9.87 49.766 0.093 6.95 156.1 10.39
11/2/2022 2:30:00 AM 9.83 49.694 0.092 6.95 156.26 10.37
11/2/2022 2:45:00 AM 9.79 49.622 0.092 6.95 156.3 10.4
11/2/2022 3:00:00 AM 9.76 49.568 0.092 6.96 156.35 10.4
11/2/2022 3:15:00 AM 9.73 49.514 0.092 6.95 156.35 10.41
11/2/2022 3:30:00 AM 9.71 49.478 0.092 6.95 156.89 10.43
11/2/2022 3:45:00 AM 9.69 49.442 0.092 6.96 157.82 10.43
11/2/2022 4:00:00 AM 9.67 49.406 0.092 6.96 157.89 10.43
11/2/2022 4:15:00 AM 9.65 49.37 0.092 6.96 158.32 10.48
11/2/2022 4:30:00 AM 9.63 49.334 0.092 6.96 158.23 10.49
11/2/2022 4:45:00 AM 9.62 49.316 0.092 6.97 158.54 10.49
11/2/2022 5:00:00 AM 9.6 49.28 0.091 6.97 158.71 10.47
11/2/2022 5:15:00 AM 9.58 49.244 0.091 6.97 157.95 10.46
11/2/2022 5:30:00 AM 9.57 49.226 0.091 6.97 157.6 10.47
11/2/2022 5:45:00 AM 9.55 49.19 0.091 6.98 157.9 10.47
11/2/2022 6:00:00 AM 9.54 49.172 0.091 6.99 158.04 10.47
11/2/2022 6:15:00 AM 9.52 49.136 0.091 6.98 158.33 10.48
11/2/2022 6:30:00 AM 9.5 49.1 0.091 6.97 158.74 10.48
11/2/2022 6:45:00 AM 9.49 49.082 0.091 6.98 158.88 10.49
11/2/2022 7:00:00 AM 9.47 49.046 0.091 6.98 159.81 10.51
11/2/2022 7:15:00 AM 9.45 49.01 0.091 6.99 159.77 10.5
11/2/2022 7:30:00 AM 9.43 48.974 0.091 6.99 160.19 10.51
11/2/2022 7:45:00 AM 9.41 48.938 0.091 6.99 160.11 10.53
11/2/2022 8:00:00 AM 9.4 48.92 0.091 6.99 159.1 10.53
11/2/2022 8:15:00 AM 9.39 48.902 0.091 7 160.2 10.55
11/2/2022 8:30:00 AM 9.38 48.884 0.091 7.01 159.94 10.58
11/2/2022 8:45:00 AM 9.37 48.866 0.091 7.02 159.85 10.62
11/2/2022 9:00:00 AM 9.37 48.866 0.091 7.02 160.13 10.67
11/2/2022 9:15:00 AM 9.38 48.884 0.091 7.04 159.68 10.75
11/2/2022 9:30:00 AM 9.39 48.902 0.091 7.05 159.92 10.84
11/2/2022 9:45:00 AM 9.42 48.956 0.091 7.07 159.36 10.93
11/2/2022 10:00:00 AM 9.45 49.01 0.09 7.08 159.56 11.03
11/2/2022 10:15:00 AM 9.49 49.082 0.09 7.1 159.52 11.11
11/2/2022 10:30:00 AM 9.55 49.19 0.09 7.12 159.34 11.15
11/2/2022 10:45:00 AM 9.62 49.316 0.09 7.16 159.69 11.18
11/2/2022 11:00:00 AM 9.67 49.406 0.09 7.15 160 11.2
11/2/2022 11:15:00 AM 9.74 49.532 0.09 7.17 159.68 11.23
11/2/2022 11:30:00 AM 9.83 49.694 0.09 7.2 159.88 11.26
11/2/2022 11:45:00 AM 9.98 49.964 0.09 7.23 159.93 11.28
11/2/2022 12:00:00 PM 10.13 50.234 0.1 11.65 1.85 11.57
11/2/2022 12:15:00 PM 10.09 50.162 0.098 12.41 15.4 11.65
11/2/2022 12:30:00 PM 10.17 50.306 0.098 9.98 11.58 11.64
11/2/2022 12:45:00 PM 10.25 50.45 0.098 9.5 8.25 11.63
11/2/2022 1:00:00 PM 10.31 50.558 0.098 10.38 6.93 11.61
11/2/2022 1:15:00 PM 10.38 50.684 0.098 10.38 5.88 11.59
11/2/2022 1:30:00 PM 10.45 50.81 0.097 10.3 8.75 11.57
11/2/2022 1:45:00 PM 10.52 50.936 0.098 10.14 6.94 11.55
11/2/2022 2:00:00 PM 10.59 51.062 0.098 9.96 6.75 11.52
11/2/2022 2:15:00 PM 10.64 51.152 0.098 9.88 4.77 11.5
11/2/2022 2:30:00 PM 10.7 51.26 0.098 9.78 4.8 11.48
11/2/2022 2:45:00 PM 10.77 51.386 0.098 9.69 4.84 11.45
11/2/2022 3:00:00 PM 10.8 51.44 0.097 9.56 4.75 11.43
11/2/2022 3:15:00 PM 10.84 51.512 0.097 9.48 5.11 11.39
11/2/2022 3:30:00 PM 10.88 51.584 0.097 9.36 4.34 11.36
11/2/2022 3:45:00 PM 10.91 51.638 0.097 9.3 4.35 11.33
11/2/2022 4:00:00 PM 10.94 51.692 0.097 9.14 4.6 11.3
11/2/2022 4:15:00 PM 10.96 51.728 0.097 8.92 4.62 11.25
11/2/2022 4:30:00 PM 10.95 51.71 0.097 8.87 4.69 11.21
11/2/2022 4:45:00 PM 10.93 51.674 0.097 8.85 4.72 11.16
11/2/2022 5:00:00 PM 10.91 51.638 0.097 8.86 4.81 11.09
11/2/2022 5:15:00 PM 10.88 51.584 0.097 8.78 4.45 11.03
11/2/2022 5:30:00 PM 10.86 51.548 0.097 8.76 4.27 10.96
11/2/2022 5:45:00 PM 10.83 51.494 0.097 8.75 4.24 10.88
11/2/2022 6:00:00 PM 10.81 51.458 0.097 8.75 4.21 10.8
11/2/2022 6:15:00 PM 10.78 51.404 0.097 8.76 4.22 10.72
11/2/2022 6:30:00 PM 10.75 51.35 0.098 9.06 4.26 10.65
11/2/2022 6:45:00 PM 10.72 51.296 0.098 8.87 4.31 10.6
11/2/2022 7:00:00 PM 10.69 51.242 0.098 8.84 2.79 10.57
11/2/2022 7:15:00 PM 10.66 51.188 0.098 8.79 2.77 10.54
11/2/2022 7:30:00 PM 10.64 51.152 0.098 8.72 2.61 10.52
11/2/2022 7:45:00 PM 10.61 51.098 0.098 8.75 2.67 10.5
11/2/2022 8:00:00 PM 10.58 51.044 0.098 8.71 2.66 10.48
11/2/2022 8:15:00 PM 10.54 50.972 0.098 8.74 2.63 10.47
11/2/2022 8:30:00 PM 10.5 50.9 0.098 8.71 2.59 10.47
11/2/2022 8:45:00 PM 10.45 50.81 0.098 8.68 2.6 10.47
11/2/2022 9:00:00 PM 10.39 50.702 0.098 8.71 2.58 10.47
11/2/2022 9:15:00 PM 10.33 50.594 0.099 8.76 2.64 10.47
11/2/2022 9:30:00 PM 10.27 50.486 0.099 8.72 2.57 10.49
11/2/2022 9:45:00 PM 10.2 50.36 0.099 8.72 2.66 10.5
11/2/2022 10:00:00 PM 10.14 50.252 0.099 8.63 2.6 10.51
11/2/2022 10:15:00 PM 10.07 50.126 0.099 8.55 2.64 10.52
11/2/2022 10:30:00 PM 10 50 0.099 8.54 2.66 10.54
11/2/2022 10:45:00 PM 9.93 49.874 0.1 8.5 2.71 10.56
11/2/2022 11:00:00 PM 9.86 49.748 0.1 8.49 2.64 10.57
11/2/2022 11:15:00 PM 9.79 49.622 0.1 8.48 2.62 10.58
11/2/2022 11:30:00 PM 9.71 49.478 0.1 8.59 2.61 10.61
11/2/2022 11:45:00 PM 9.63 49.334 0.1 8.8 2.58 10.62
11/3/2022 12:00:00 AM 9.55 49.19 0.1 8.85 2.6 10.65
11/3/2022 12:15:00 AM 9.47 49.046 0.101 8.84 2.66 10.67
11/3/2022 12:30:00 AM 9.39 48.902 0.101 8.84 2.65 10.7
11/3/2022 12:45:00 AM 9.31 48.758 0.101 8.81 2.64 10.72
11/3/2022 1:00:00 AM 9.22 48.596 0.101 8.8 2.67 10.74
11/3/2022 1:15:00 AM 9.15 48.47 0.101 8.78 2.63 10.77
11/3/2022 1:30:00 AM 9.08 48.344 0.101 8.78 2.66 10.79
11/3/2022 1:45:00 AM 9.02 48.236 0.102 8.77 2.64 10.82
11/3/2022 2:00:00 AM 8.97 48.146 0.102 8.75 2.61 10.83
11/3/2022 2:15:00 AM 8.94 48.092 0.102 8.75 2.63 10.85
11/3/2022 2:30:00 AM 8.9 48.02 0.102 8.7 2.59 10.87
11/3/2022 2:45:00 AM 8.86 47.948 0.102 8.69 2.62 10.89
11/3/2022 3:00:00 AM 8.82 47.876 0.103 8.69 2.64 10.9
11/3/2022 3:15:00 AM 8.78 47.804 0.103 8.68 2.61 10.91
11/3/2022 3:30:00 AM 8.74 47.732 0.103 8.67 2.61 10.92
11/3/2022 3:45:00 AM 8.7 47.66 0.103 8.7 2.54 10.94
11/3/2022 4:00:00 AM 8.66 47.588 0.103 8.73 2.61 10.96
11/3/2022 4:15:00 AM 8.62 47.516 0.104 8.73 2.57 10.96
11/3/2022 4:30:00 AM 8.58 47.444 0.104 8.73 2.54 10.99
11/3/2022 4:45:00 AM 8.55 47.39 0.104 8.73 2.58 11
11/3/2022 5:00:00 AM 8.51 47.318 0.104 8.72 2.55 11.01
11/3/2022 5:15:00 AM 8.47 47.246 0.104 8.71 2.61 11.03
11/3/2022 5:30:00 AM 8.43 47.174 0.104 8.71 2.57 11.03
11/3/2022 5:45:00 AM 8.39 47.102 0.105 8.71 2.55 11.05
11/3/2022 6:00:00 AM 8.36 47.048 0.105 8.71 2.53 11.05
11/3/2022 6:15:00 AM 8.32 46.976 0.105 8.7 2.53 11.06
11/3/2022 6:30:00 AM 8.29 46.922 0.105 8.69 2.57 11.08
11/3/2022 6:45:00 AM 8.24 46.832 0.105 8.7 2.57 11.09
11/3/2022 7:00:00 AM 8.2 46.76 0.105 8.7 2.57 11.11
11/3/2022 7:15:00 AM 8.17 46.706 0.106 8.69 2.57 11.12
11/3/2022 7:30:00 AM 8.13 46.634 0.106 8.71 2.54 11.13
11/3/2022 7:45:00 AM 8.1 46.58 0.106 8.72 2.53 11.14
11/3/2022 8:00:00 AM 8.06 46.508 0.106 8.73 2.52 11.17
11/3/2022 8:15:00 AM 8.03 46.454 0.106 8.77 2.55 11.21
11/3/2022 8:30:00 AM 8 46.4 0.106 8.75 2.49 11.28
11/3/2022 8:45:00 AM 7.98 46.364 0.107 8.77 2.53 11.35
11/3/2022 9:00:00 AM 7.97 46.346 0.107 8.76 2.48 11.45
11/3/2022 9:15:00 AM 7.97 46.346 0.107 8.75 2.47 11.55
11/3/2022 9:30:00 AM 7.97 46.346 0.107 8.75 2.52 11.64
11/3/2022 9:45:00 AM 7.98 46.364 0.107 8.76 2.44 11.73
11/3/2022 10:00:00 AM 8.01 46.418 0.107 8.77 2.45 11.82
11/3/2022 10:15:00 AM 8.06 46.508 0.107 8.79 2.44 11.9
11/3/2022 10:30:00 AM 8.07 46.526 0.107 8.79 2.46 11.96
11/3/2022 10:45:00 AM 8.15 46.67 0.107 8.8 2.43 11.98
11/3/2022 11:00:00 AM 8.2 46.76 0.107 8.81 2.47 12.01
11/3/2022 11:15:00 AM 8.24 46.832 0.107 8.81 2.48 12.03
11/3/2022 11:30:00 AM 8.29 46.922 0.107 8.79 2.49 12.03
11/3/2022 11:45:00 AM 8.36 47.048 0.107 8.77 2.51 12.03
11/3/2022 12:00:00 PM 8.43 47.174 0.107 8.78 2.5 12.04
11/3/2022 12:15:00 PM 8.52 47.336 0.107 8.77 2.48 12.04
11/3/2022 12:30:00 PM 8.61 47.498 0.107 8.77 2.45 12.04
11/3/2022 12:45:00 PM 8.69 47.642 0.107 8.77 2.38 12.03
11/3/2022 1:00:00 PM 8.77 47.786 0.107 8.77 2.38 12.02
11/3/2022 1:15:00 PM 8.86 47.948 0.107 8.77 2.33 12
11/3/2022 1:30:00 PM 8.96 48.128 0.107 8.77 2.33 11.98
11/3/2022 1:45:00 PM 9.05 48.29 0.107 8.77 2.41 11.97
11/3/2022 2:00:00 PM 9.16 48.488 0.107 8.74 2.23 11.94
11/3/2022 2:15:00 PM 9.27 48.686 0.107 8.74 2.21 11.91
11/3/2022 2:30:00 PM 9.37 48.866 0.107 8.72 2.21 11.89
11/3/2022 2:45:00 PM 9.46 49.028 0.107 8.72 2.19 11.86
11/3/2022 3:00:00 PM 9.53 49.154 0.107 8.7 2.21 11.83
11/3/2022 3:15:00 PM 9.59 49.262 0.107 8.72 2.18 11.79
11/3/2022 3:30:00 PM 9.65 49.37 0.107 8.7 2.22 11.75
11/3/2022 3:45:00 PM 9.71 49.478 0.107 8.69 2.25 11.72
11/3/2022 4:00:00 PM 9.75 49.55 0.106 8.69 2.22 11.69
11/3/2022 4:15:00 PM 9.79 49.622 0.106 8.66 2.2 11.64
11/3/2022 4:30:00 PM 9.81 49.658 0.106 8.66 2.25 11.6
11/3/2022 4:45:00 PM 9.82 49.676 0.107 8.65 2.21 11.55
11/3/2022 5:00:00 PM 9.82 49.676 0.107 8.65 2.25 11.49
11/3/2022 5:15:00 PM 9.82 49.676 0.106 8.63 2.25 11.41
11/3/2022 5:30:00 PM 9.82 49.676 0.107 8.6 2.26 11.33
11/3/2022 5:45:00 PM 9.8 49.64 0.107 8.59 2.22 11.25
11/3/2022 6:00:00 PM 9.78 49.604 0.107 8.57 2.23 11.15
11/3/2022 6:15:00 PM 9.76 49.568 0.107 8.55 2.24 11.07
11/3/2022 6:30:00 PM 9.75 49.55 0.107 8.51 2.29 10.98
11/3/2022 6:45:00 PM 9.73 49.514 0.107 8.5 2.25 10.92
11/3/2022 7:00:00 PM 9.72 49.496 0.107 8.48 2.26 10.88
11/3/2022 7:15:00 PM 9.7 49.46 0.107 8.46 2.28 10.84
11/3/2022 7:30:00 PM 9.68 49.424 0.107 8.44 2.26 10.82
11/3/2022 7:45:00 PM 9.66 49.388 0.107 8.45 2.23 10.79
11/3/2022 8:00:00 PM 9.65 49.37 0.107 8.43 2.23 10.77
11/3/2022 8:15:00 PM 9.63 49.334 0.107 8.43 2.26 10.75
11/3/2022 8:30:00 PM 9.61 49.298 0.107 8.43 2.24 10.73
11/3/2022 8:45:00 PM 9.59 49.262 0.107 8.46 2.3 10.72
11/3/2022 9:00:00 PM 9.56 49.208 0.107 8.43 2.23 10.71
11/3/2022 9:15:00 PM 9.53 49.154 0.107 8.43 2.26 10.7
11/3/2022 9:30:00 PM 9.5 49.1 0.107 8.43 2.28 10.71
11/3/2022 9:45:00 PM 9.45 49.01 0.107 8.44 2.3 10.71
11/3/2022 10:00:00 PM 9.41 48.938 0.107 8.42 2.32 10.72
11/3/2022 10:15:00 PM 9.36 48.848 0.108 8.4 2.29 10.72
11/3/2022 10:30:00 PM 9.32 48.776 0.108 8.42 2.3 10.72
11/3/2022 10:45:00 PM 9.26 48.668 0.108 8.42 2.28 10.74
11/3/2022 11:00:00 PM 9.21 48.578 0.108 8.42 2.31 10.75
11/3/2022 11:15:00 PM 9.16 48.488 0.108 8.42 2.25 10.77
11/3/2022 11:30:00 PM 9.11 48.398 0.108 8.42 2.31 10.78
11/3/2022 11:45:00 PM 9.05 48.29 0.108 8.41 2.36 10.79
11/4/2022 12:00:00 AM 9 48.2 0.108 8.4 2.34 10.8
11/4/2022 12:15:00 AM 8.94 48.092 0.108 8.4 2.27 10.82
11/4/2022 12:30:00 AM 8.88 47.984 0.108 8.4 2.3 10.84
11/4/2022 12:45:00 AM 8.82 47.876 0.108 8.39 2.28 10.85
11/4/2022 1:00:00 AM 8.76 47.768 0.108 8.41 2.3 10.87
11/4/2022 1:15:00 AM 8.7 47.66 0.108 8.41 2.29 10.89
11/4/2022 1:30:00 AM 8.64 47.552 0.108 8.39 2.3 10.91
11/4/2022 1:45:00 AM 8.57 47.426 0.108 8.4 2.35 10.93
11/4/2022 2:00:00 AM 8.51 47.318 0.108 8.37 2.32 10.95
11/4/2022 2:15:00 AM 8.44 47.192 0.108 8.39 2.31 10.98
11/4/2022 2:30:00 AM 8.37 47.066 0.109 8.41 2.29 10.99
11/4/2022 2:45:00 AM 8.31 46.958 0.109 8.42 2.32 11.01
11/4/2022 3:00:00 AM 8.24 46.832 0.109 8.42 2.31 11.04
11/4/2022 3:15:00 AM 8.18 46.724 0.109 8.42 2.31 11.05
11/4/2022 3:30:00 AM 8.11 46.598 0.109 8.42 2.32 11.08
11/4/2022 3:45:00 AM 8.04 46.472 0.109 8.41 2.26 11.1
11/4/2022 4:00:00 AM 7.98 46.364 0.109 8.42 2.3 11.12
11/4/2022 4:15:00 AM 7.92 46.256 0.109 8.42 2.28 11.14
11/4/2022 4:30:00 AM 7.86 46.148 0.109 8.42 2.27 11.16
11/4/2022 4:45:00 AM 7.79 46.022 0.109 8.42 2.3 11.19
11/4/2022 5:00:00 AM 7.73 45.914 0.109 8.41 2.29 11.21
11/4/2022 5:15:00 AM 7.67 45.806 0.109 8.42 2.33 11.23
11/4/2022 5:30:00 AM 7.62 45.716 0.109 8.41 2.24 11.25
11/4/2022 5:45:00 AM 7.56 45.608 0.109 8.42 2.3 11.26
11/4/2022 6:00:00 AM 7.5 45.5 0.109 8.43 2.25 11.28
11/4/2022 6:15:00 AM 7.46 45.428 0.109 8.44 2.25 11.3
11/4/2022 6:30:00 AM 7.41 45.338 0.109 8.43 2.24 11.33
11/4/2022 6:45:00 AM 7.38 45.284 0.109 8.43 2.27 11.33
11/4/2022 7:00:00 AM 7.35 45.23 0.109 8.41 2.22 11.35
11/4/2022 7:15:00 AM 7.32 45.176 0.109 8.44 2.26 11.37
11/4/2022 7:30:00 AM 7.29 45.122 0.109 8.44 2.27 11.37
11/4/2022 7:45:00 AM 7.26 45.068 0.109 8.44 2.2 11.39
11/4/2022 8:00:00 AM 7.22 44.996 0.109 8.47 2.23 11.43
11/4/2022 8:15:00 AM 7.19 44.942 0.109 8.44 2.26 11.47
11/4/2022 8:30:00 AM 7.17 44.906 0.109 8.48 2.22 11.56
11/4/2022 8:45:00 AM 7.15 44.87 0.109 8.49 2.22 11.65
11/4/2022 9:00:00 AM 7.15 44.87 0.109 8.51 2.2 11.75
11/4/2022 9:15:00 AM 7.14 44.852 0.109 8.52 2.19 11.82
11/4/2022 9:30:00 AM 7.14 44.852 0.109 8.53 2.19 11.9
11/4/2022 9:45:00 AM 7.15 44.87 0.108 8.53 2.15 11.96
11/4/2022 10:00:00 AM 7.17 44.906 0.108 8.54 2.2 12.01
11/4/2022 10:15:00 AM 7.2 44.96 0.108 8.55 2.16 12.05
11/4/2022 10:30:00 AM 7.24 45.032 0.108 8.56 2.17 12.1
11/4/2022 10:45:00 AM 7.29 45.122 0.108 8.57 2.17 12.14
11/4/2022 11:00:00 AM 7.36 45.248 0.108 8.58 2.17 12.17
11/4/2022 11:15:00 AM 7.43 45.374 0.108 8.58 2.17 12.2
11/4/2022 11:30:00 AM 7.51 45.518 0.108 8.58 2.26 12.2
11/4/2022 11:45:00 AM 7.61 45.698 0.108 8.58 2.27 12.22
11/4/2022 12:00:00 PM 7.71 45.878 0.108 8.6 2.28 12.23
11/4/2022 12:15:00 PM 7.83 46.094 0.108 8.6 2.27 12.24
11/4/2022 12:30:00 PM 7.93 46.274 0.107 8.61 2.24 12.23
11/4/2022 12:45:00 PM 8.03 46.454 0.107 8.6 2.23 12.23
11/4/2022 1:00:00 PM 8.13 46.634 0.107 8.61 2.2 12.21
11/4/2022 1:15:00 PM 8.26 46.868 0.107 8.61 2.18 12.19
11/4/2022 1:30:00 PM 8.4 47.12 0.107 8.61 2.16 12.16
11/4/2022 1:45:00 PM 8.53 47.354 0.107 8.63 2.15 12.14
11/4/2022 2:00:00 PM 8.66 47.588 0.107 8.6 2.18 12.14
11/4/2022 2:15:00 PM 8.79 47.822 0.106 8.59 2.16 12.13
11/4/2022 2:30:00 PM 8.93 48.074 0.106 8.6 2.15 12.11
11/4/2022 2:45:00 PM 9.08 48.344 0.106 8.62 2.12 12.09
11/4/2022 3:00:00 PM 9.14 48.452 0.106 8.62 2.16 12.05
11/4/2022 3:15:00 PM 9.21 48.578 0.106 8.6 2.17 12.02
11/4/2022 3:30:00 PM 9.28 48.704 0.106 8.58 2.18 12
11/4/2022 3:45:00 PM 9.41 48.938 0.106 8.56 2.19 11.99
11/4/2022 4:00:00 PM 9.49 49.082 0.106 8.57 2.18 11.94
11/4/2022 4:15:00 PM 9.54 49.172 0.106 8.56 2.18 11.89
11/4/2022 4:30:00 PM 9.57 49.226 0.106 8.54 2.14 11.83
11/4/2022 4:45:00 PM 9.6 49.28 0.106 8.54 2.18 11.77
11/4/2022 5:00:00 PM 9.65 49.37 0.105 8.52 2.15 11.69
11/4/2022 5:15:00 PM 9.69 49.442 0.105 8.51 2.13 11.62
11/4/2022 5:30:00 PM 9.72 49.496 0.105 8.5 2.19 11.52
11/4/2022 5:45:00 PM 9.75 49.55 0.105 8.47 2.17 11.41
11/4/2022 6:00:00 PM 9.74 49.532 0.105 8.44 2.15 11.28
11/4/2022 6:15:00 PM 9.74 49.532 0.105 8.41 2.19 11.16
11/4/2022 6:30:00 PM 9.74 49.532 0.106 8.39 2.27 11.06
11/4/2022 6:45:00 PM 9.75 49.55 0.106 8.37 2.18 10.98
11/4/2022 7:00:00 PM 9.75 49.55 0.106 8.35 2.18 10.93
11/4/2022 7:15:00 PM 9.74 49.532 0.106 8.34 2.21 10.88
11/4/2022 7:30:00 PM 9.73 49.514 0.106 8.33 2.22 10.84
11/4/2022 7:45:00 PM 9.72 49.496 0.106 8.33 2.23 10.81
11/4/2022 8:00:00 PM 9.71 49.478 0.106 8.33 2.21 10.78
11/4/2022 8:15:00 PM 9.7 49.46 0.106 8.32 2.21 10.76
11/4/2022 8:30:00 PM 9.7 49.46 0.106 8.31 2.27 10.74
11/4/2022 8:45:00 PM 9.68 49.424 0.106 8.31 2.2 10.71
11/4/2022 9:00:00 PM 9.67 49.406 0.106 8.3 2.22 10.7
11/4/2022 9:15:00 PM 9.66 49.388 0.106 8.3 2.28 10.68
11/4/2022 9:30:00 PM 9.64 49.352 0.106 8.3 2.18 10.68
11/4/2022 9:45:00 PM 9.62 49.316 0.106 8.29 2.19 10.67
11/4/2022 10:00:00 PM 9.6 49.28 0.106 8.29 2.17 10.67
11/4/2022 10:15:00 PM 9.58 49.244 0.106 8.29 2.21 10.66
11/4/2022 10:30:00 PM 9.56 49.208 0.106 8.29 2.24 10.66
11/4/2022 10:45:00 PM 9.53 49.154 0.106 8.29 2.21 10.66
11/4/2022 11:00:00 PM 9.51 49.118 0.106 8.31 2.26 10.66
11/4/2022 11:15:00 PM 9.49 49.082 0.106 8.31 2.21 10.67
11/4/2022 11:30:00 PM 9.47 49.046 0.107 8.31 2.19 10.67
11/4/2022 11:45:00 PM 9.44 48.992 0.107 8.31 2.22 10.67
11/5/2022 12:00:00 AM 9.42 48.956 0.107 8.32 2.24 10.68
11/5/2022 12:15:00 AM 9.39 48.902 0.107 8.32 2.22 10.68
11/5/2022 12:30:00 AM 9.36 48.848 0.107 8.32 2.22 10.69
11/5/2022 12:45:00 AM 9.34 48.812 0.107 8.32 2.4 10.69
11/5/2022 1:00:00 AM 9.32 48.776 0.107 8.32 2.2 10.69
11/5/2022 1:15:00 AM 9.3 48.74 0.107 8.33 2.24 10.7
11/5/2022 1:30:00 AM 9.27 48.686 0.107 8.32 2.28 10.71
11/5/2022 1:45:00 AM 9.23 48.614 0.107 8.31 2.26 10.72
11/5/2022 2:00:00 AM 9.2 48.56 0.107 8.31 2.24 10.73
11/5/2022 2:15:00 AM 9.17 48.506 0.107 8.32 2.24 10.74
11/5/2022 2:30:00 AM 9.14 48.452 0.107 8.31 2.23 10.74
11/5/2022 2:45:00 AM 9.11 48.398 0.107 8.31 2.23 10.75
11/5/2022 3:00:00 AM 9.08 48.344 0.107 8.3 2.25 10.76
11/5/2022 3:15:00 AM 9.05 48.29 0.107 8.13 2.25 10.77
11/5/2022 3:30:00 AM 9.02 48.236 0.107 8.13 2.24 10.79
11/5/2022 3:45:00 AM 8.99 48.182 0.107 8.14 2.26 10.79
11/5/2022 4:00:00 AM 8.96 48.128 0.107 8.14 2.24 10.8
11/5/2022 4:15:00 AM 8.93 48.074 0.108 8.15 2.25 10.81
11/5/2022 4:30:00 AM 8.89 48.002 0.108 8.15 2.26 10.82
11/5/2022 4:45:00 AM 8.87 47.966 0.108 8.14 2.28 10.83
11/5/2022 5:00:00 AM 8.85 47.93 0.108 8.14 2.23 10.84
11/5/2022 5:15:00 AM 8.82 47.876 0.108 8.13 2.21 10.85
11/5/2022 5:30:00 AM 8.79 47.822 0.108 8.12 2.19 10.85
11/5/2022 5:45:00 AM 8.76 47.768 0.108 8.08 2.24 10.86
11/5/2022 6:00:00 AM 8.73 47.714 0.108 8.07 2.31 10.87
11/5/2022 6:15:00 AM 8.7 47.66 0.108 8.06 2.29 10.87
11/5/2022 6:30:00 AM 8.67 47.606 0.108 8.07 2.24 10.88
11/5/2022 6:45:00 AM 8.65 47.57 0.108 8.05 2.23 10.9
11/5/2022 7:00:00 AM 8.62 47.516 0.108 8.04 2.31 10.9
11/5/2022 7:15:00 AM 8.6 47.48 0.108 8.04 2.24 10.91
11/5/2022 7:30:00 AM 8.57 47.426 0.108 8.04 2.26 10.92
11/5/2022 7:45:00 AM 8.56 47.408 0.108 8.04 2.26 10.92
11/5/2022 8:00:00 AM 8.55 47.39 0.108 8.05 2.22 10.96
11/5/2022 8:15:00 AM 8.55 47.39 0.108 8.08 2.24 11.01
11/5/2022 8:30:00 AM 8.57 47.426 0.108 8.08 2.22 11.1
11/5/2022 8:45:00 AM 8.59 47.462 0.108 8.09 2.22 11.2
11/5/2022 9:00:00 AM 8.62 47.516 0.108 8.13 2.2 11.3
11/5/2022 9:15:00 AM 8.66 47.588 0.108 8.15 2.23 11.39
11/5/2022 9:30:00 AM 8.71 47.678 0.107 8.17 2.18 11.48
11/5/2022 9:45:00 AM 8.76 47.768 0.107 8.16 2.2 11.56
11/5/2022 10:00:00 AM 8.82 47.876 0.107 8.17 2.18 11.62
11/5/2022 10:15:00 AM 8.88 47.984 0.107 8.17 2.19 11.65
11/5/2022 10:30:00 AM 8.96 48.128 0.107 8.16 2.21 11.7
11/5/2022 10:45:00 AM 9.05 48.29 0.107 8.18 2.2 11.72
11/5/2022 11:00:00 AM 9.21 48.578 0.107 8.19 2.2 11.74
11/5/2022 11:15:00 AM 9.33 48.794 0.107 8.19 2.2 11.74
11/5/2022 11:30:00 AM 9.46 49.028 0.106 8.2 2.2 11.74
11/5/2022 11:45:00 AM 9.6 49.28 0.106 8.21 2.2 11.76
11/5/2022 12:00:00 PM 9.76 49.568 0.106 8.19 2.26 11.77
11/5/2022 12:15:00 PM 9.93 49.874 0.106 8.16 2.22 11.78
11/5/2022 12:30:00 PM 10.08 50.144 0.106 8.18 2.2 11.78
11/5/2022 12:45:00 PM 10.2 50.36 0.105 8.18 2.21 11.78
11/5/2022 1:00:00 PM 10.36 50.648 0.105 8.18 2.22 11.77
11/5/2022 1:15:00 PM 10.49 50.882 0.105 8.13 2.22 11.74
11/5/2022 1:30:00 PM 10.65 51.17 0.105 8.14 2.19 11.73
11/5/2022 1:45:00 PM 10.82 51.476 0.105 8.13 2.2 11.71
11/5/2022 2:00:00 PM 11.03 51.854 0.105 8.14 2.16 11.68
11/5/2022 2:15:00 PM 11.18 52.124 0.105 8.14 2.25 11.64
11/5/2022 2:30:00 PM 11.34 52.412 0.105 8.16 2.23 11.59
11/5/2022 2:45:00 PM 11.47 52.646 0.104 8.15 2.18 11.54
11/5/2022 3:00:00 PM 11.61 52.898 0.104 8.14 2.25 11.5
11/5/2022 3:15:00 PM 11.79 53.222 0.104 8.15 2.2 11.46
11/5/2022 3:30:00 PM 11.92 53.456 0.104 8.13 2.22 11.37
11/5/2022 3:45:00 PM 12.02 53.636 0.104 8.14 2.22 11.25
11/5/2022 4:00:00 PM 12.1 53.78 0.104 8.08 2.22 11.12
11/5/2022 4:15:00 PM 12.16 53.888 0.104 8.05 2.24 10.99
11/5/2022 4:30:00 PM 12.21 53.978 0.104 8.02 2.27 10.88
11/5/2022 4:45:00 PM 12.27 54.086 0.104 8.01 2.24 10.85
11/5/2022 5:00:00 PM 12.32 54.176 0.104 7.99 2.24 10.77
11/5/2022 5:15:00 PM 12.38 54.284 0.104 7.98 2.22 10.72
11/5/2022 5:30:00 PM 12.43 54.374 0.104 7.98 2.21 10.69
11/5/2022 5:45:00 PM 12.46 54.428 0.104 7.95 2.27 10.62
11/5/2022 6:00:00 PM 12.48 54.464 0.104 7.93 2.25 10.52
11/5/2022 6:15:00 PM 12.47 54.446 0.104 7.9 2.34 10.38
11/5/2022 6:30:00 PM 12.45 54.41 0.105 7.88 2.26 10.26
11/5/2022 6:45:00 PM 12.41 54.338 0.105 7.85 2.32 10.18
11/5/2022 7:00:00 PM 12.42 54.356 0.105 7.84 2.29 10.12
11/5/2022 7:15:00 PM 12.44 54.392 0.105 7.82 2.31 10.07
11/5/2022 7:30:00 PM 12.46 54.428 0.105 7.82 2.32 10.03
11/5/2022 7:45:00 PM 12.47 54.446 0.105 7.81 2.33 10
11/5/2022 8:00:00 PM 12.47 54.446 0.105 7.81 2.3 9.96
11/5/2022 8:15:00 PM 12.49 54.482 0.105 7.81 2.29 9.93
11/5/2022 8:30:00 PM 12.5 54.5 0.105 7.79 2.31 9.9
11/5/2022 8:45:00 PM 12.51 54.518 0.106 7.78 2.29 9.88
11/5/2022 9:00:00 PM 12.51 54.518 0.106 7.78 2.35 9.86
11/5/2022 9:15:00 PM 12.54 54.572 0.106 7.75 2.39 9.84
11/5/2022 9:30:00 PM 12.56 54.608 0.106 7.75 2.31 9.83
11/5/2022 9:45:00 PM 12.57 54.626 0.106 7.75 2.29 9.82
11/5/2022 10:00:00 PM 12.57 54.626 0.106 7.78 2.34 9.81
11/5/2022 10:15:00 PM 12.58 54.644 0.106 7.77 2.26 9.8
11/5/2022 10:30:00 PM 12.59 54.662 0.106 7.78 2.28 9.79
11/5/2022 10:45:00 PM 12.61 54.698 0.106 7.78 2.27 9.77
11/5/2022 11:00:00 PM 12.64 54.752 0.107 7.75 2.3 9.77
11/5/2022 11:15:00 PM 12.65 54.77 0.107 7.74 2.31 9.76
11/5/2022 11:30:00 PM 12.67 54.806 0.107 7.71 2.29 9.75
11/5/2022 11:45:00 PM 12.7 54.86 0.107 7.7 2.27 9.74
11/6/2022 12:00:00 AM 12.7 54.86 0.107 7.7 2.3 9.74
11/6/2022 12:15:00 AM 12.72 54.896 0.107 7.7 2.29 9.73
11/6/2022 12:30:00 AM 12.73 54.914 0.107 7.7 2.31 9.72
11/6/2022 12:45:00 AM 12.74 54.932 0.107 7.67 2.31 9.71
11/6/2022 1:00:00 AM 12.75 54.95 0.107 7.7 2.33 9.71
11/6/2022 1:15:00 AM 12.73 54.914 0.107 7.7 2.36 9.71
11/6/2022 1:30:00 AM 12.72 54.896 0.107 7.7 2.33 9.71
11/6/2022 1:45:00 AM 12.71 54.878 0.107 7.68 2.35 9.72
11/6/2022 2:00:00 AM 12.7 54.86 0.108 7.69 2.4 9.71
11/6/2022 2:15:00 AM 12.69 54.842 0.108 7.68 2.35 9.71
11/6/2022 2:30:00 AM 12.7 54.86 0.108 7.68 2.37 9.71
11/6/2022 2:45:00 AM 12.71 54.878 0.108 7.69 2.36 9.71
11/6/2022 3:00:00 AM 12.71 54.878 0.108 7.69 2.34 9.71
11/6/2022 3:15:00 AM 12.71 54.878 0.108 7.67 2.33 9.71
11/6/2022 3:30:00 AM 12.71 54.878 0.108 7.67 2.34 9.71
11/6/2022 3:45:00 AM 12.71 54.878 0.108 7.68 2.35 9.71
11/6/2022 4:00:00 AM 12.71 54.878 0.108 7.68 2.36 9.71
11/6/2022 4:15:00 AM 12.71 54.878 0.108 7.68 2.37 9.72
11/6/2022 4:30:00 AM 12.72 54.896 0.108 7.67 2.37 9.71
11/6/2022 4:45:00 AM 12.71 54.878 0.108 7.67 2.33 9.72
11/6/2022 5:00:00 AM 12.7 54.86 0.108 7.68 2.34 9.72
11/6/2022 5:15:00 AM 12.69 54.842 0.108 7.68 2.28 9.72
11/6/2022 5:30:00 AM 12.69 54.842 0.108 7.68 2.28 9.73
11/6/2022 5:45:00 AM 12.7 54.86 0.108 7.68 2.27 9.72
11/6/2022 6:00:00 AM 12.7 54.86 0.108 7.66 2.23 9.73
11/6/2022 6:15:00 AM 12.71 54.878 0.108 7.65 2.31 9.73
11/6/2022 6:30:00 AM 12.71 54.878 0.108 7.64 2.23 9.73
11/6/2022 6:45:00 AM 12.69 54.842 0.108 7.62 2.32 9.73
11/6/2022 7:00:00 AM 12.68 54.824 0.108 7.62 2.3 9.74
11/6/2022 7:15:00 AM 12.66 54.788 0.108 7.6 2.35 9.74
11/6/2022 7:30:00 AM 12.65 54.77 0.108 7.59 2.3 9.75
11/6/2022 7:45:00 AM 12.62 54.716 0.108 7.59 2.32 9.75
11/6/2022 8:00:00 AM 12.59 54.662 0.108 7.59 2.33 9.78
11/6/2022 8:15:00 AM 12.58 54.644 0.108 7.61 2.29 9.84
11/6/2022 8:30:00 AM 12.58 54.644 0.108 7.62 2.22 9.93
11/6/2022 8:45:00 AM 12.6 54.68 0.108 7.64 2.19 10.02
11/6/2022 9:00:00 AM 12.62 54.716 0.108 7.65 2.22 10.12
11/6/2022 9:15:00 AM 12.63 54.734 0.108 7.66 2.23 10.19
11/6/2022 9:30:00 AM 12.62 54.716 0.108 7.65 2.22 10.22
11/6/2022 9:45:00 AM 12.6 54.68 0.108 7.66 2.24 10.24
11/6/2022 10:00:00 AM 12.58 54.644 0.108 7.66 2.23 10.24
11/6/2022 10:15:00 AM 12.62 54.716 0.108 7.68 2.25 10.34
11/6/2022 10:30:00 AM 12.67 54.806 0.107 7.69 2.23 10.46
11/6/2022 10:45:00 AM 12.76 54.968 0.107 7.72 2.24 10.58
11/6/2022 11:00:00 AM 12.83 55.094 0.107 7.74 2.25 10.66
11/6/2022 11:15:00 AM 12.95 55.31 0.107 7.76 2.24 10.73
11/6/2022 11:30:00 AM 13.53 56.354 0.106 7.83 2.29 10.86
11/6/2022 11:45:00 AM 13.63 56.534 0.106 7.86 2.34 10.88
11/6/2022 12:00:00 PM 13.74 56.732 0.106 7.88 2.34 10.91
11/6/2022 12:15:00 PM 13.79 56.822 0.105 7.91 2.32 10.88
11/6/2022 12:30:00 PM 13.79 56.822 0.105 7.86 2.39 10.72
11/6/2022 12:45:00 PM 13.91 57.038 0.105 7.85 2.56 10.72
11/6/2022 1:00:00 PM 14.05 57.29 0.105 7.86 2.34 10.77
11/6/2022 1:15:00 PM 14.18 57.524 0.105 7.91 2.27 10.83
11/6/2022 1:30:00 PM 14.25 57.65 0.104 7.93 2.31 10.84
11/6/2022 1:45:00 PM 14.26 57.668 0.104 7.92 2.31 10.73
11/6/2022 2:00:00 PM 14.26 57.668 0.104 7.89 2.33 10.63
11/6/2022 2:15:00 PM 14.32 57.776 0.104 7.89 2.31 10.63
11/6/2022 2:30:00 PM 14.38 57.884 0.104 7.9 2.33 10.64
11/6/2022 2:45:00 PM 14.42 57.956 0.104 7.89 2.27 10.6
11/6/2022 3:00:00 PM 14.43 57.974 0.104 7.85 2.31 10.46
11/6/2022 3:15:00 PM 14.45 58.01 0.104 7.82 2.31 10.39
11/6/2022 3:30:00 PM 14.46 58.028 0.104 7.8 2.3 10.36
11/6/2022 3:45:00 PM 14.49 58.082 0.104 7.8 2.35 10.38
11/6/2022 4:00:00 PM 14.47 58.046 0.104 7.79 2.34 10.33
11/6/2022 4:15:00 PM 14.44 57.992 0.104 7.77 2.28 10.27
11/6/2022 4:30:00 PM 14.4 57.92 0.104 7.77 2.3 10.17
11/6/2022 4:45:00 PM 14.37 57.866 0.104 7.74 2.29 10.05
11/6/2022 5:00:00 PM 14.34 57.812 0.104 7.72 2.32 9.91
11/6/2022 5:15:00 PM 14.32 57.776 0.104 7.69 2.35 9.78
11/6/2022 5:30:00 PM 14.31 57.758 0.104 7.66 2.34 9.68
11/6/2022 5:45:00 PM 14.29 57.722 0.104 7.66 2.4 9.62
11/6/2022 6:00:00 PM 14.26 57.668 0.104 7.65 2.42 9.58
11/6/2022 6:15:00 PM 14.21 57.578 0.104 7.65 2.44 9.55
11/6/2022 6:30:00 PM 14.15 57.47 0.104 7.64 2.36 9.53
11/6/2022 6:45:00 PM 14.09 57.362 0.104 7.63 2.35 9.52
11/6/2022 7:00:00 PM 14.05 57.29 0.104 7.62 2.39 9.51
11/6/2022 7:15:00 PM 14.03 57.254 0.104 7.62 2.35 9.49
11/6/2022 7:30:00 PM 13.99 57.182 0.105 7.61 2.38 9.48
11/6/2022 7:45:00 PM 13.94 57.092 0.105 7.61 2.39 9.48
11/6/2022 8:00:00 PM 13.9 57.02 0.105 7.6 2.38 9.47
11/6/2022 8:15:00 PM 13.86 56.948 0.105 7.6 2.43 9.47
11/6/2022 8:30:00 PM 13.84 56.912 0.105 7.59 2.38 9.47
11/6/2022 8:45:00 PM 13.81 56.858 0.105 7.59 2.36 9.47
11/6/2022 9:00:00 PM 13.76 56.768 0.105 7.59 2.41 9.48
11/6/2022 9:15:00 PM 13.71 56.678 0.105 7.59 2.43 9.48
11/6/2022 9:30:00 PM 13.66 56.588 0.105 7.59 2.39 9.49
11/6/2022 9:45:00 PM 13.61 56.498 0.105 7.59 2.38 9.49
11/6/2022 10:00:00 PM 13.57 56.426 0.105 7.59 2.43 9.5
11/6/2022 10:15:00 PM 13.53 56.354 0.105 7.59 2.44 9.51
11/6/2022 10:30:00 PM 13.48 56.264 0.105 7.6 2.42 9.52
11/6/2022 10:45:00 PM 13.43 56.174 0.105 7.58 2.4 9.53
11/6/2022 11:00:00 PM 13.38 56.084 0.105 7.59 2.36 9.54
11/6/2022 11:15:00 PM 13.32 55.976 0.105 7.59 2.39 9.56
11/6/2022 11:30:00 PM 13.27 55.886 0.105 7.6 2.4 9.56
11/6/2022 11:45:00 PM 13.22 55.796 0.105 7.6 2.42 9.58
11/7/2022 12:00:00 AM 13.18 55.724 0.105 7.6 2.45 9.59
11/7/2022 12:15:00 AM 13.14 55.652 0.105 7.64 2.49 9.6
11/7/2022 12:30:00 AM 13.11 55.598 0.105 7.63 2.49 9.61
11/7/2022 12:45:00 AM 13.09 55.562 0.104 7.63 5.07 9.62
11/7/2022 1:00:00 AM 13.07 55.526 0.105 7.64 2.53 9.63
11/7/2022 1:15:00 AM 13.05 55.49 0.105 7.63 2.53 9.64
11/7/2022 1:30:00 AM 13.02 55.436 0.105 7.64 2.48 9.65
11/7/2022 1:45:00 AM 12.99 55.382 0.105 7.64 2.53 9.66
11/7/2022 2:00:00 AM 12.95 55.31 0.105 7.64 2.53 9.67
11/7/2022 2:15:00 AM 12.92 55.256 0.105 7.65 2.46 9.68
11/7/2022 2:30:00 AM 12.89 55.202 0.105 7.65 2.53 9.69
11/7/2022 2:45:00 AM 12.83 55.094 0.105 7.66 2.47 9.71
11/7/2022 3:00:00 AM 12.76 54.968 0.105 7.67 2.47 9.72
11/7/2022 3:15:00 AM 12.68 54.824 0.105 7.7 2.42 9.74
11/7/2022 3:30:00 AM 12.6 54.68 0.105 7.68 2.47 9.75
11/7/2022 3:45:00 AM 12.53 54.554 0.105 7.68 2.52 9.77
11/7/2022 4:00:00 AM 12.45 54.41 0.105 7.69 2.48 9.78
11/7/2022 4:15:00 AM 12.38 54.284 0.105 7.67 2.49 9.81
11/7/2022 4:30:00 AM 12.3 54.14 0.105 7.7 2.43 9.83
11/7/2022 4:45:00 AM 12.23 54.014 0.105 7.71 2.47 9.85
11/7/2022 5:00:00 AM 12.15 53.87 0.105 7.71 2.48 9.87
11/7/2022 5:15:00 AM 12.07 53.726 0.105 7.71 2.46 9.89
11/7/2022 5:30:00 AM 12 53.6 0.105 7.71 2.46 9.91
11/7/2022 5:45:00 AM 11.93 53.474 0.105 7.71 2.43 9.93
11/7/2022 6:00:00 AM 11.85 53.33 0.105 7.71 2.42 9.95
11/7/2022 6:15:00 AM 11.78 53.204 0.105 7.71 2.46 9.97
11/7/2022 6:30:00 AM 11.7 53.06 0.105 7.7 2.45 9.99
11/7/2022 6:45:00 AM 11.63 52.934 0.105 7.71 2.45 10.02
11/7/2022 7:00:00 AM 11.56 52.808 0.105 7.72 2.41 10.06
11/7/2022 7:15:00 AM 11.5 52.7 0.105 7.76 2.41 10.12
11/7/2022 7:30:00 AM 11.44 52.592 0.105 7.79 2.4 10.21
11/7/2022 7:45:00 AM 11.38 52.484 0.105 7.82 2.34 10.3
11/7/2022 8:00:00 AM 11.33 52.394 0.105 7.87 2.37 10.39
11/7/2022 8:15:00 AM 11.3 52.34 0.104 7.94 2.38 10.48
11/7/2022 8:30:00 AM 11.3 52.34 0.104 7.96 2.37 10.6
11/7/2022 8:45:00 AM 11.32 52.376 0.104 7.99 2.34 10.7
11/7/2022 9:00:00 AM 11.34 52.412 0.104 8.01 2.41 10.77
11/7/2022 9:15:00 AM 11.36 52.448 0.104 8.04 2.33 10.84
11/7/2022 9:30:00 AM 11.38 52.484 0.104 8.07 2.39 10.89
11/7/2022 9:45:00 AM 11.42 52.556 0.104 8.09 2.35 10.95
11/7/2022 10:00:00 AM 11.46 52.628 0.103 8.09 2.31 11
11/7/2022 10:15:00 AM 11.49 52.682 0.103 8.05 2.35 11.04
11/7/2022 10:30:00 AM 11.52 52.736 0.103 8.1 2.4 11.08
11/7/2022 10:45:00 AM 11.55 52.79 0.103 8.13 2.43 11.12
11/7/2022 11:00:00 AM 11.6 52.88 0.103 8.15 2.44 11.15
11/7/2022 11:15:00 AM 11.63 52.934 0.103 8.05 2.52 11.17
11/7/2022 11:30:00 AM 11.67 53.006 0.103 8.06 2.57 11.2
11/7/2022 11:45:00 AM 11.7 53.06 0.103 8.06 2.59 11.21
11/7/2022 12:00:00 PM 11.72 53.096 0.103 8.07 2.51 11.21
11/7/2022 12:15:00 PM 11.76 53.168 0.102 8.07 2.5 11.22
11/7/2022 12:30:00 PM 11.79 53.222 0.102 8.06 2.48 11.22
11/7/2022 12:45:00 PM 11.82 53.276 0.102 8.07 2.45 11.22
11/7/2022 1:00:00 PM 11.85 53.33 0.102 8.08 2.46 11.22
11/7/2022 1:15:00 PM 11.9 53.42 0.102 8.08 2.39 11.23
11/7/2022 1:30:00 PM 11.94 53.492 0.102 8.1 2.39 11.22
11/7/2022 1:45:00 PM 11.97 53.546 0.102 8.11 2.38 11.21
11/7/2022 2:00:00 PM 11.97 53.546 0.102 8.11 2.39 11.19
11/7/2022 2:15:00 PM 11.94 53.492 0.102 8.11 2.38 11.18
11/7/2022 2:30:00 PM 11.91 53.438 0.102 8.11 2.41 11.17
11/7/2022 2:45:00 PM 11.88 53.384 0.102 8.1 2.34 11.15
11/7/2022 3:00:00 PM 11.85 53.33 0.101 8.09 2.36 11.13
11/7/2022 3:15:00 PM 11.8 53.24 0.101 8.09 2.37 11.1
11/7/2022 3:30:00 PM 11.77 53.186 0.101 8.08 2.4 11.06
11/7/2022 3:45:00 PM 11.72 53.096 0.101 8.07 2.35 11.02
11/7/2022 4:00:00 PM 11.65 52.97 0.101 8.06 2.33 10.98
11/7/2022 4:15:00 PM 11.59 52.862 0.101 8.04 2.35 10.92
11/7/2022 4:30:00 PM 11.52 52.736 0.101 8.04 2.37 10.85
11/7/2022 4:45:00 PM 11.43 52.574 0.101 8.14 2.35 10.77
11/7/2022 5:00:00 PM 11.35 52.43 0.101 8.11 2.41 10.68
11/7/2022 5:15:00 PM 11.27 52.286 0.101 8.08 3.09 10.6
11/7/2022 5:30:00 PM 11.22 52.196 0.102 8.07 2.44 10.53
11/7/2022 5:45:00 PM 11.16 52.088 0.102 8.08 2.89 10.48
11/7/2022 6:00:00 PM 11.09 51.962 0.102 8.08 2.45 10.45
11/7/2022 6:15:00 PM 11.03 51.854 0.102 8.08 2.46 10.43
11/7/2022 6:30:00 PM 10.95 51.71 0.102 8.05 2.44 10.43
11/7/2022 6:45:00 PM 10.88 51.584 0.102 8.05 2.45 10.42
11/7/2022 7:00:00 PM 10.81 51.458 0.102 8.06 2.45 10.42
11/7/2022 7:15:00 PM 10.76 51.368 0.102 8.06 2.46 10.42
11/7/2022 7:30:00 PM 10.7 51.26 0.102 8.06 2.42 10.42
11/7/2022 7:45:00 PM 10.65 51.17 0.102 8.06 2.45 10.43
11/7/2022 8:00:00 PM 10.6 51.08 0.102 8.07 2.45 10.43
11/7/2022 8:15:00 PM 10.55 50.99 0.102 8.06 2.47 10.43
11/7/2022 8:30:00 PM 10.49 50.882 0.102 8.06 2.42 10.45
11/7/2022 8:45:00 PM 10.43 50.774 0.102 8.11 2.43 10.46
11/7/2022 9:00:00 PM 10.37 50.666 0.102 8.11 2.42 10.47
11/7/2022 9:15:00 PM 10.29 50.522 0.102 8.1 2.42 10.49
11/7/2022 9:30:00 PM 10.21 50.378 0.102 8.12 2.45 10.51
11/7/2022 9:45:00 PM 10.13 50.234 0.102 8.11 2.5 10.53
11/7/2022 10:00:00 PM 10.05 50.09 0.102 8.12 2.51 10.56
11/7/2022 10:15:00 PM 9.97 49.946 0.102 8.12 2.46 10.57
11/7/2022 10:30:00 PM 9.9 49.82 0.102 8.12 2.48 10.59
11/7/2022 10:45:00 PM 9.81 49.658 0.102 8.12 2.49 10.62
11/7/2022 11:00:00 PM 9.73 49.514 0.102 8.12 2.47 10.64
11/7/2022 11:15:00 PM 9.66 49.388 0.102 8.13 2.48 10.65
11/7/2022 11:30:00 PM 9.58 49.244 0.102 8.13 2.77 10.69
11/7/2022 11:45:00 PM 9.52 49.136 0.102 8.13 2.79 10.7
11/8/2022 12:00:00 AM 9.46 49.028 0.102 8.15 2.75 10.73
11/8/2022 12:15:00 AM 9.4 48.92 0.102 8.14 2.79 10.75
11/8/2022 12:30:00 AM 9.33 48.794 0.102 8.15 2.79 10.77
11/8/2022 12:45:00 AM 9.26 48.668 0.102 8.15 2.77 10.79
11/8/2022 1:00:00 AM 9.19 48.542 0.102 8.15 2.77 10.82
11/8/2022 1:15:00 AM 9.1 48.38 0.102 8.15 2.77 10.84
11/8/2022 1:30:00 AM 9.02 48.236 0.102 8.15 2.76 10.87
11/8/2022 1:45:00 AM 8.94 48.092 0.103 8.16 2.8 10.89
11/8/2022 2:00:00 AM 8.86 47.948 0.102 8.16 2.81 10.92
11/8/2022 2:15:00 AM 8.78 47.804 0.103 8.17 2.78 10.94
11/8/2022 2:30:00 AM 8.69 47.642 0.103 8.19 2.75 10.97
11/8/2022 2:45:00 AM 8.6 47.48 0.103 8.19 2.77 11
11/8/2022 3:00:00 AM 8.51 47.318 0.103 8.22 2.75 11.03
11/8/2022 3:15:00 AM 8.42 47.156 0.103 8.27 2.74 11.06
11/8/2022 3:30:00 AM 8.33 46.994 0.103 8.28 2.72 11.08
11/8/2022 3:45:00 AM 8.24 46.832 0.103 8.3 2.72 11.11
11/8/2022 4:00:00 AM 8.16 46.688 0.103 8.3 2.76 11.14
11/8/2022 4:15:00 AM 8.07 46.526 0.103 8.3 2.77 11.17
11/8/2022 4:30:00 AM 7.99 46.382 0.103 8.29 2.82 11.2
11/8/2022 4:45:00 AM 7.91 46.238 0.103 8.29 2.74 11.22
11/8/2022 5:00:00 AM 7.83 46.094 0.103 8.28 2.72 11.25
11/8/2022 5:15:00 AM 7.75 45.95 0.103 8.28 2.71 11.28
11/8/2022 5:30:00 AM 7.67 45.806 0.103 8.29 2.74 11.31
11/8/2022 5:45:00 AM 7.6 45.68 0.103 8.29 2.74 11.33
11/8/2022 6:00:00 AM 7.52 45.536 0.103 8.3 2.69 11.37
11/8/2022 6:15:00 AM 7.44 45.392 0.103 8.29 2.72 11.39
11/8/2022 6:30:00 AM 7.37 45.266 0.103 8.3 2.77 11.41
11/8/2022 6:45:00 AM 7.29 45.122 0.103 8.3 2.72 11.45
11/8/2022 7:00:00 AM 7.22 44.996 0.103 8.3 2.73 11.5
11/8/2022 7:15:00 AM 7.17 44.906 0.103 8.3 2.69 11.55
11/8/2022 7:30:00 AM 7.15 44.87 0.103 8.33 2.71 11.65
11/8/2022 7:45:00 AM 7.14 44.852 0.103 8.36 2.7 11.74
11/8/2022 8:00:00 AM 7.14 44.852 0.103 8.39 2.66 11.85
11/8/2022 8:15:00 AM 7.16 44.888 0.103 8.41 2.67 11.98
11/8/2022 8:30:00 AM 7.16 44.888 0.102 8.43 2.67 12.1
11/8/2022 8:45:00 AM 7.16 44.888 0.102 8.44 2.64 12.16
11/8/2022 9:00:00 AM 7.15 44.87 0.102 8.44 2.65 12.21
11/8/2022 9:15:00 AM 7.15 44.87 0.102 8.45 2.71 12.25
11/8/2022 9:30:00 AM 7.16 44.888 0.102 8.46 2.68 12.29
11/8/2022 9:45:00 AM 7.2 44.96 0.102 8.47 2.76 12.32
11/8/2022 10:00:00 AM 7.26 45.068 0.102 8.48 2.82 12.35
11/8/2022 10:15:00 AM 7.33 45.194 0.102 8.49 2.76 12.38
11/8/2022 10:30:00 AM 7.39 45.302 0.102 8.5 2.75 12.4
11/8/2022 10:45:00 AM 7.45 45.41 0.102 8.5 2.83 12.41
11/8/2022 11:00:00 AM 7.52 45.536 0.102 8.5 2.86 12.42
11/8/2022 11:15:00 AM 7.59 45.662 0.101 8.49 2.96 12.44
11/8/2022 11:30:00 AM 7.66 45.788 0.101 8.5 2.97 12.44
11/8/2022 11:45:00 AM 7.72 45.896 0.101 8.51 2.92 12.44
11/8/2022 12:00:00 PM 7.76 45.968 0.101 8.51 2.93 12.44
11/8/2022 12:15:00 PM 7.82 46.076 0.101 8.51 2.86 12.43
11/8/2022 12:30:00 PM 7.88 46.184 0.101 8.51 2.8 12.41
11/8/2022 12:45:00 PM 7.93 46.274 0.101 8.51 2.75 12.4
11/8/2022 1:00:00 PM 7.98 46.364 0.101 8.51 2.76 12.4
11/8/2022 1:15:00 PM 8.06 46.508 0.101 8.51 2.67 12.38
11/8/2022 1:30:00 PM 8.12 46.616 0.1 8.51 2.72 12.37
11/8/2022 1:45:00 PM 8.17 46.706 0.1 8.5 2.69 12.35
11/8/2022 2:00:00 PM 8.2 46.76 0.1 8.51 2.65 12.34
11/8/2022 2:15:00 PM 8.2 46.76 0.1 8.5 2.68 12.31
11/8/2022 2:30:00 PM 8.2 46.76 0.1 8.52 2.69 12.29
11/8/2022 2:45:00 PM 8.21 46.778 0.1 8.51 2.66 12.27
11/8/2022 3:00:00 PM 8.22 46.796 0.1 8.51 2.64 12.25
11/8/2022 3:15:00 PM 8.22 46.796 0.1 8.5 2.66 12.21
11/8/2022 3:30:00 PM 8.2 46.76 0.1 8.49 2.66 12.18
11/8/2022 3:45:00 PM 8.18 46.724 0.1 8.48 2.65 12.14
11/8/2022 4:00:00 PM 8.14 46.652 0.1 8.48 2.64 12.09
11/8/2022 4:15:00 PM 8.09 46.562 0.1 8.46 2.73 12.05
11/8/2022 4:30:00 PM 8.04 46.472 0.1 8.45 2.7 11.99
11/8/2022 4:45:00 PM 7.97 46.346 0.1 8.43 2.67 11.91
11/8/2022 5:00:00 PM 7.91 46.238 0.1 8.42 2.67 11.82
11/8/2022 5:15:00 PM 7.86 46.148 0.1 8.4 2.67 11.74
11/8/2022 5:30:00 PM 7.82 46.076 0.1 8.37 2.68 11.68
11/8/2022 5:45:00 PM 7.78 46.004 0.1 8.36 2.76 11.62
11/8/2022 6:00:00 PM 7.74 45.932 0.1 8.35 2.67 11.59
11/8/2022 6:15:00 PM 7.7 45.86 0.1 8.34 2.69 11.57
11/8/2022 6:30:00 PM 7.66 45.788 0.1 8.34 2.66 11.55
11/8/2022 6:45:00 PM 7.62 45.716 0.1 8.33 2.66 11.54
11/8/2022 7:00:00 PM 7.58 45.644 0.1 8.33 2.67 11.52
11/8/2022 7:15:00 PM 7.54 45.572 0.1 8.32 2.68 11.52
11/8/2022 7:30:00 PM 7.5 45.5 0.1 8.32 2.67 11.52
11/8/2022 7:45:00 PM 7.45 45.41 0.101 8.32 2.77 11.52
11/8/2022 8:00:00 PM 7.41 45.338 0.101 8.32 2.7 11.52
11/8/2022 8:15:00 PM 7.37 45.266 0.101 8.32 2.68 11.52
11/8/2022 8:30:00 PM 7.32 45.176 0.101 8.32 2.67 11.51
11/8/2022 8:45:00 PM 7.27 45.086 0.101 8.33 2.69 11.51
11/8/2022 9:00:00 PM 7.22 44.996 0.101 8.33 2.68 11.52
11/8/2022 9:15:00 PM 7.18 44.924 0.101 8.32 2.65 11.54
11/8/2022 9:30:00 PM 7.13 44.834 0.101 8.33 2.67 11.54
11/8/2022 9:45:00 PM 7.07 44.726 0.101 8.32 2.68 11.55
11/8/2022 10:00:00 PM 7.01 44.618 0.101 8.32 2.66 11.57
11/8/2022 10:15:00 PM 6.95 44.51 0.101 8.31 2.67 11.59
11/8/2022 10:30:00 PM 6.89 44.402 0.101 8.33 2.72 11.61
11/8/2022 10:45:00 PM 6.83 44.294 0.101 8.32 2.67 11.62
11/8/2022 11:00:00 PM 6.77 44.186 0.101 8.31 2.66 11.65
11/8/2022 11:15:00 PM 6.7 44.06 0.101 8.32 2.66 11.67
11/8/2022 11:30:00 PM 6.64 43.952 0.101 8.32 2.69 11.68
11/8/2022 11:45:00 PM 6.58 43.844 0.101 8.33 2.7 11.7
11/9/2022 12:00:00 AM 6.52 43.736 0.101 8.33 2.66 11.73
11/9/2022 12:15:00 AM 6.46 43.628 0.101 8.33 2.63 11.74
11/9/2022 12:30:00 AM 6.4 43.52 0.101 8.34 2.61 11.77
11/9/2022 12:45:00 AM 6.33 43.394 0.101 8.34 2.67 11.79
11/9/2022 1:00:00 AM 6.27 43.286 0.102 8.34 2.69 11.81
11/9/2022 1:15:00 AM 6.2 43.16 0.102 8.35 2.63 11.84
11/9/2022 1:30:00 AM 6.12 43.016 0.102 8.36 2.67 11.86
11/9/2022 1:45:00 AM 6.05 42.89 0.102 8.35 2.62 11.88
11/9/2022 2:00:00 AM 5.98 42.764 0.102 8.37 2.68 11.91
11/9/2022 2:15:00 AM 5.91 42.638 0.102 8.39 2.68 11.93
11/9/2022 2:30:00 AM 5.84 42.512 0.102 8.41 2.66 11.96
11/9/2022 2:45:00 AM 5.77 42.386 0.102 8.42 2.66 11.98
11/9/2022 3:00:00 AM 5.7 42.26 0.102 8.43 2.61 12.01
11/9/2022 3:15:00 AM 5.63 42.134 0.102 8.42 2.64 12.03
11/9/2022 3:30:00 AM 5.56 42.008 0.102 8.42 2.66 12.06
11/9/2022 3:45:00 AM 5.49 41.882 0.102 8.43 2.61 12.08
11/9/2022 4:00:00 AM 5.42 41.756 0.102 8.44 2.65 12.11
11/9/2022 4:15:00 AM 5.35 41.63 0.102 8.45 2.61 12.14
11/9/2022 4:30:00 AM 5.28 41.504 0.102 8.46 2.65 12.16
11/9/2022 4:45:00 AM 5.21 41.378 0.102 8.45 2.62 12.19
11/9/2022 5:00:00 AM 5.14 41.252 0.102 8.46 2.6 12.21
11/9/2022 5:15:00 AM 5.08 41.144 0.102 8.47 2.62 12.23
11/9/2022 5:30:00 AM 5.01 41.018 0.103 8.47 2.58 12.25
11/9/2022 5:45:00 AM 4.95 40.91 0.103 8.48 2.62 12.28
11/9/2022 6:00:00 AM 4.88 40.784 0.103 8.48 2.57 12.3
11/9/2022 6:15:00 AM 4.82 40.676 0.103 8.49 2.61 12.32
11/9/2022 6:30:00 AM 4.75 40.55 0.103 8.49 2.61 12.35
11/9/2022 6:45:00 AM 4.69 40.442 0.103 8.5 2.61 12.37
11/9/2022 7:00:00 AM 4.64 40.352 0.103 8.49 2.55 12.42
11/9/2022 7:15:00 AM 4.58 40.244 0.103 8.5 2.59 12.47
11/9/2022 7:30:00 AM 4.53 40.154 0.103 8.52 2.6 12.54
11/9/2022 7:45:00 AM 4.48 40.064 0.103 8.54 2.58 12.63
11/9/2022 8:00:00 AM 4.44 39.992 0.103 8.56 2.58 12.71
11/9/2022 8:15:00 AM 4.41 39.938 0.103 8.57 2.57 12.8
11/9/2022 8:30:00 AM 4.4 39.92 0.102 8.59 2.57 12.88
11/9/2022 8:45:00 AM 4.43 39.974 0.102 8.61 2.56 12.95
11/9/2022 9:00:00 AM 4.45 40.01 0.102 8.63 2.55 13.01
11/9/2022 9:15:00 AM 4.48 40.064 0.102 8.65 2.53 13.05
11/9/2022 9:30:00 AM 4.51 40.118 0.102 8.64 2.51 13.09
11/9/2022 9:45:00 AM 4.55 40.19 0.102 8.65 2.5 13.13
11/9/2022 10:00:00 AM 4.61 40.298 0.102 8.65 2.51 13.16
11/9/2022 10:15:00 AM 4.68 40.424 0.102 8.66 2.52 13.17
11/9/2022 10:30:00 AM 4.75 40.55 0.102 8.66 2.53 13.2
11/9/2022 10:45:00 AM 4.83 40.694 0.102 8.66 2.59 13.21
11/9/2022 11:00:00 AM 4.93 40.874 0.101 8.65 2.62 13.2
11/9/2022 11:15:00 AM 5.02 41.036 0.101 8.66 2.69 13.21
11/9/2022 11:30:00 AM 5.11 41.198 0.101 8.66 2.76 13.21
11/9/2022 11:45:00 AM 5.18 41.324 0.101 8.66 2.78 13.21
11/9/2022 12:00:00 PM 5.25 41.45 0.101 8.65 2.74 13.22
11/9/2022 12:15:00 PM 5.36 41.648 0.101 8.66 2.71 13.22
11/9/2022 12:30:00 PM 5.46 41.828 0.101 8.66 2.6 13.21
11/9/2022 12:45:00 PM 5.54 41.972 0.101 8.67 2.56 13.19
11/9/2022 1:00:00 PM 5.62 42.116 0.1 8.66 2.61 13.17
11/9/2022 1:15:00 PM 5.71 42.278 0.1 8.68 2.55 13.15
11/9/2022 1:30:00 PM 5.79 42.422 0.1 8.67 2.53 13.12
11/9/2022 1:45:00 PM 5.86 42.548 0.1 8.67 2.51 13.1
11/9/2022 2:00:00 PM 5.98 42.764 0.1 8.67 2.49 13.09
11/9/2022 2:15:00 PM 6.09 42.962 0.1 8.67 2.51 13.05
11/9/2022 2:30:00 PM 6.16 43.088 0.1 8.68 2.48 13.02
11/9/2022 2:45:00 PM 6.19 43.142 0.1 8.67 2.5 12.96
11/9/2022 3:00:00 PM 6.2 43.16 0.1 8.67 2.5 12.9
11/9/2022 3:15:00 PM 6.22 43.196 0.1 8.66 2.5 12.85
11/9/2022 3:30:00 PM 6.23 43.214 0.1 8.66 2.5 12.8
11/9/2022 3:45:00 PM 6.24 43.232 0.1 8.65 2.67 12.76
11/9/2022 4:00:00 PM 6.23 43.214 0.1 8.63 2.54 12.7
11/9/2022 4:15:00 PM 6.19 43.142 0.1 8.63 2.53 12.65
11/9/2022 4:30:00 PM 6.16 43.088 0.1 8.62 2.57 12.59
11/9/2022 4:45:00 PM 6.13 43.034 0.1 8.61 2.55 12.51
11/9/2022 5:00:00 PM 6.09 42.962 0.1 8.58 2.5 12.42
11/9/2022 5:15:00 PM 6.06 42.908 0.1 8.57 2.57 12.33
11/9/2022 5:30:00 PM 6.03 42.854 0.1 8.56 2.62 12.25
11/9/2022 5:45:00 PM 6.01 42.818 0.101 8.54 2.6 12.19
11/9/2022 6:00:00 PM 5.99 42.782 0.101 8.52 2.63 12.15
11/9/2022 6:15:00 PM 5.96 42.728 0.1 8.52 2.55 12.13
11/9/2022 6:30:00 PM 5.94 42.692 0.101 8.51 2.55 12.1
11/9/2022 6:45:00 PM 5.91 42.638 0.101 8.51 2.52 12.09
11/9/2022 7:00:00 PM 5.89 42.602 0.101 8.5 2.52 12.07
11/9/2022 7:15:00 PM 5.86 42.548 0.101 8.49 2.52 12.06
11/9/2022 7:30:00 PM 5.84 42.512 0.101 8.49 2.54 12.05
11/9/2022 7:45:00 PM 5.81 42.458 0.101 8.49 2.55 12.03
11/9/2022 8:00:00 PM 5.78 42.404 0.101 8.49 2.52 12.03
11/9/2022 8:15:00 PM 5.75 42.35 0.101 8.49 2.57 12.03
11/9/2022 8:30:00 PM 5.72 42.296 0.101 8.5 2.56 12.02
11/9/2022 8:45:00 PM 5.7 42.26 0.101 8.5 2.61 12.02
11/9/2022 9:00:00 PM 5.67 42.206 0.101 8.49 2.58 12.01
11/9/2022 9:15:00 PM 5.64 42.152 0.101 8.5 2.54 12.02
11/9/2022 9:30:00 PM 5.61 42.098 0.101 8.49 2.58 12.02
11/9/2022 9:45:00 PM 5.57 42.026 0.101 8.51 2.63 12.02
11/9/2022 10:00:00 PM 5.54 41.972 0.101 8.49 2.55 12.04
11/9/2022 10:15:00 PM 5.5 41.9 0.101 8.5 2.56 12.05
11/9/2022 10:30:00 PM 5.46 41.828 0.101 8.51 2.54 12.06
11/9/2022 10:45:00 PM 5.41 41.738 0.101 8.49 2.53 12.07
11/9/2022 11:00:00 PM 5.37 41.666 0.101 8.49 2.54 12.08
11/9/2022 11:15:00 PM 5.33 41.594 0.101 8.48 2.6 12.09
11/9/2022 11:30:00 PM 5.29 41.522 0.101 8.48 2.59 12.11
11/9/2022 11:45:00 PM 5.24 41.432 0.101 8.49 2.56 12.12
11/10/2022 12:00:00 AM 5.19 41.342 0.101 8.49 2.57 12.14
11/10/2022 12:15:00 AM 5.15 41.27 0.101 8.49 2.57 12.15
11/10/2022 12:30:00 AM 5.1 41.18 0.101 8.48 2.56 12.16
11/10/2022 12:45:00 AM 5.06 41.108 0.101 8.47 2.51 12.18
11/10/2022 1:00:00 AM 5.01 41.018 0.101 8.48 2.57 12.19
11/10/2022 1:15:00 AM 4.96 40.928 0.102 8.49 2.54 12.21
11/10/2022 1:30:00 AM 4.91 40.838 0.102 8.5 2.53 12.23
11/10/2022 1:45:00 AM 4.86 40.748 0.102 8.5 2.52 12.25
11/10/2022 2:00:00 AM 4.81 40.658 0.102 8.51 2.56 12.26
11/10/2022 2:15:00 AM 4.76 40.568 0.102 8.5 2.26 12.28
11/10/2022 2:30:00 AM 4.71 40.478 0.102 8.51 2.28 12.3
11/10/2022 2:45:00 AM 4.66 40.388 0.102 8.51 2.27 12.31
11/10/2022 3:00:00 AM 4.61 40.298 0.102 8.51 2.29 12.32
11/10/2022 3:15:00 AM 4.56 40.208 0.102 8.5 2.27 12.35
11/10/2022 3:30:00 AM 4.51 40.118 0.102 8.53 2.28 12.37
11/10/2022 3:45:00 AM 4.45 40.01 0.102 8.55 2.29 12.38
11/10/2022 4:00:00 AM 4.4 39.92 0.103 8.54 2.28 12.4
11/10/2022 4:15:00 AM 4.35 39.83 0.103 8.55 2.27 12.42
11/10/2022 4:30:00 AM 4.3 39.74 0.103 8.59 2.28 12.44
11/10/2022 4:45:00 AM 4.24 39.632 0.103 8.64 2.27 12.46
11/10/2022 5:00:00 AM 4.19 39.542 0.103 8.66 2.25 12.48
11/10/2022 5:15:00 AM 4.14 39.452 0.103 8.67 2.24 12.5
11/10/2022 5:30:00 AM 4.09 39.362 0.103 8.66 2.26 12.52
11/10/2022 5:45:00 AM 4.04 39.272 0.103 8.66 2.25 12.54
11/10/2022 6:00:00 AM 3.99 39.182 0.103 8.67 3.99 12.55
11/10/2022 6:15:00 AM 3.94 39.092 0.103 8.66 2.56 12.57
11/10/2022 6:30:00 AM 3.89 39.002 0.103 8.65 2.56 12.59
11/10/2022 6:45:00 AM 3.84 38.912 0.103 8.66 2.53 12.61
11/10/2022 7:00:00 AM 3.8 38.84 0.103 8.66 2.54 12.65
11/10/2022 7:15:00 AM 3.76 38.768 0.103 8.67 2.49 12.7
11/10/2022 7:30:00 AM 3.72 38.696 0.103 8.69 2.52 12.76
11/10/2022 7:45:00 AM 3.69 38.642 0.103